<?xml version="1.0" encoding="UTF-8" standalone="no" ?>
<gpx xmlns="http://www.topografix.com/GPX/1/1" xmlns:xsi="http://www.w3.org/2001/XMLSchema-instance" xsi:schemaLocation="http://www.topografix.com/GPX/1/1 http://www.topografix.com/GPX/1/1/gpx.xsd" version="1.1" creator="VisuGPX - https://www.visugpx.com">
  <metadata>
    <name>2018-04-27 - ski Grand Colon</name>
    <desc><![CDATA[c'est encore tout bon, sauf la fin du couloir qui ressemble à Mossoul.]]></desc>
  </metadata>
  <trk>
    <name><![CDATA[2018-04-27 - ski Grand Colon]]></name>
    <trkseg>
      <trkpt lat="45.16613" lon="5.90592">
        <ele>1423.85</ele>
        <time>2018-04-27T07:28:04Z</time>
      </trkpt>
      <trkpt lat="45.16613" lon="5.90592">
        <ele>1423.85</ele>
        <time>2018-04-27T07:28:06Z</time>
      </trkpt>
      <trkpt lat="45.16615" lon="5.90592">
        <ele>1425.29</ele>
        <time>2018-04-27T07:28:10Z</time>
      </trkpt>
      <trkpt lat="45.16615" lon="5.90583">
        <ele>1428.66</ele>
        <time>2018-04-27T07:28:24Z</time>
      </trkpt>
      <trkpt lat="45.16612" lon="5.90578">
        <ele>1431.54</ele>
        <time>2018-04-27T07:28:31Z</time>
      </trkpt>
      <trkpt lat="45.16611" lon="5.90578">
        <ele>1434.91</ele>
        <time>2018-04-27T07:28:38Z</time>
      </trkpt>
      <trkpt lat="45.16611" lon="5.90578">
        <ele>1434.91</ele>
        <time>2018-04-27T07:28:39Z</time>
      </trkpt>
      <trkpt lat="45.16611" lon="5.90577">
        <ele>1438.27</ele>
        <time>2018-04-27T07:28:47Z</time>
      </trkpt>
      <trkpt lat="45.16611" lon="5.90577">
        <ele>1438.75</ele>
        <time>2018-04-27T07:28:49Z</time>
      </trkpt>
      <trkpt lat="45.1661" lon="5.90576">
        <ele>1440.19</ele>
        <time>2018-04-27T07:28:51Z</time>
      </trkpt>
      <trkpt lat="45.16611" lon="5.9058">
        <ele>1465.67</ele>
        <time>2018-04-27T07:29:01Z</time>
      </trkpt>
      <trkpt lat="45.16611" lon="5.9058">
        <ele>1465.67</ele>
        <time>2018-04-27T07:29:02Z</time>
      </trkpt>
      <trkpt lat="45.16611" lon="5.90581">
        <ele>1447.88</ele>
        <time>2018-04-27T07:29:05Z</time>
      </trkpt>
      <trkpt lat="45.16611" lon="5.90581">
        <ele>1447.88</ele>
        <time>2018-04-27T07:29:06Z</time>
      </trkpt>
      <trkpt lat="45.16608" lon="5.90581">
        <ele>1448.36</ele>
        <time>2018-04-27T07:29:26Z</time>
      </trkpt>
      <trkpt lat="45.16608" lon="5.90577">
        <ele>1448.84</ele>
        <time>2018-04-27T07:30:09Z</time>
      </trkpt>
      <trkpt lat="45.16609" lon="5.90574">
        <ele>1449.32</ele>
        <time>2018-04-27T07:30:58Z</time>
      </trkpt>
      <trkpt lat="45.16606" lon="5.90571">
        <ele>1449.32</ele>
        <time>2018-04-27T07:31:44Z</time>
      </trkpt>
      <trkpt lat="45.1661" lon="5.90579">
        <ele>1449.32</ele>
        <time>2018-04-27T07:32:40Z</time>
      </trkpt>
      <trkpt lat="45.16606" lon="5.90578">
        <ele>1449.32</ele>
        <time>2018-04-27T07:33:36Z</time>
      </trkpt>
      <trkpt lat="45.1661" lon="5.90574">
        <ele>1449.32</ele>
        <time>2018-04-27T07:34:26Z</time>
      </trkpt>
      <trkpt lat="45.16608" lon="5.90575">
        <ele>1449.32</ele>
        <time>2018-04-27T07:35:21Z</time>
      </trkpt>
      <trkpt lat="45.16608" lon="5.90576">
        <ele>1448.36</ele>
        <time>2018-04-27T07:36:12Z</time>
      </trkpt>
      <trkpt lat="45.16609" lon="5.90578">
        <ele>1448.36</ele>
        <time>2018-04-27T07:36:52Z</time>
      </trkpt>
      <trkpt lat="45.1661" lon="5.90574">
        <ele>1448.84</ele>
        <time>2018-04-27T07:37:33Z</time>
      </trkpt>
      <trkpt lat="45.16611" lon="5.90581">
        <ele>1448.84</ele>
        <time>2018-04-27T07:38:23Z</time>
      </trkpt>
      <trkpt lat="45.16608" lon="5.90577">
        <ele>1448.84</ele>
        <time>2018-04-27T07:39:10Z</time>
      </trkpt>
      <trkpt lat="45.16609" lon="5.90578">
        <ele>1447.4</ele>
        <time>2018-04-27T07:39:49Z</time>
      </trkpt>
      <trkpt lat="45.1661" lon="5.90581">
        <ele>1442.11</ele>
        <time>2018-04-27T07:39:57Z</time>
      </trkpt>
      <trkpt lat="45.1661" lon="5.9058">
        <ele>1447.4</ele>
        <time>2018-04-27T07:39:58Z</time>
      </trkpt>
      <trkpt lat="45.1661" lon="5.9058">
        <ele>1449.32</ele>
        <time>2018-04-27T07:40:01Z</time>
      </trkpt>
      <trkpt lat="45.1661" lon="5.9058">
        <ele>1445.48</ele>
        <time>2018-04-27T07:40:02Z</time>
      </trkpt>
      <trkpt lat="45.1661" lon="5.9058">
        <ele>1447.88</ele>
        <time>2018-04-27T07:40:03Z</time>
      </trkpt>
      <trkpt lat="45.1661" lon="5.90581">
        <ele>1446.92</ele>
        <time>2018-04-27T07:40:08Z</time>
      </trkpt>
      <trkpt lat="45.16612" lon="5.90583">
        <ele>1446.92</ele>
        <time>2018-04-27T07:40:34Z</time>
      </trkpt>
      <trkpt lat="45.16608" lon="5.90585">
        <ele>1446.44</ele>
        <time>2018-04-27T07:41:01Z</time>
      </trkpt>
      <trkpt lat="45.16607" lon="5.90586">
        <ele>1446.44</ele>
        <time>2018-04-27T07:41:34Z</time>
      </trkpt>
      <trkpt lat="45.16607" lon="5.90584">
        <ele>1446.44</ele>
        <time>2018-04-27T07:42:15Z</time>
      </trkpt>
      <trkpt lat="45.16607" lon="5.90584">
        <ele>1447.4</ele>
        <time>2018-04-27T07:42:18Z</time>
      </trkpt>
      <trkpt lat="45.16607" lon="5.90583">
        <ele>1445.96</ele>
        <time>2018-04-27T07:42:24Z</time>
      </trkpt>
      <trkpt lat="45.16607" lon="5.90586">
        <ele>1448.36</ele>
        <time>2018-04-27T07:42:39Z</time>
      </trkpt>
      <trkpt lat="45.16608" lon="5.90582">
        <ele>1448.36</ele>
        <time>2018-04-27T07:42:52Z</time>
      </trkpt>
      <trkpt lat="45.16608" lon="5.90581">
        <ele>1448.36</ele>
        <time>2018-04-27T07:43:10Z</time>
      </trkpt>
      <trkpt lat="45.16609" lon="5.90586">
        <ele>1448.36</ele>
        <time>2018-04-27T07:43:14Z</time>
      </trkpt>
      <trkpt lat="45.16611" lon="5.9059">
        <ele>1448.36</ele>
        <time>2018-04-27T07:43:17Z</time>
      </trkpt>
      <trkpt lat="45.16612" lon="5.90593">
        <ele>1448.36</ele>
        <time>2018-04-27T07:43:20Z</time>
      </trkpt>
      <trkpt lat="45.16621" lon="5.90605">
        <ele>1450.29</ele>
        <time>2018-04-27T07:43:35Z</time>
      </trkpt>
      <trkpt lat="45.16626" lon="5.90612">
        <ele>1451.73</ele>
        <time>2018-04-27T07:43:43Z</time>
      </trkpt>
      <trkpt lat="45.16636" lon="5.90627">
        <ele>1454.13</ele>
        <time>2018-04-27T07:43:59Z</time>
      </trkpt>
      <trkpt lat="45.16642" lon="5.90636">
        <ele>1456.53</ele>
        <time>2018-04-27T07:44:11Z</time>
      </trkpt>
      <trkpt lat="45.16648" lon="5.90644">
        <ele>1458.94</ele>
        <time>2018-04-27T07:44:25Z</time>
      </trkpt>
      <trkpt lat="45.16652" lon="5.90655">
        <ele>1461.34</ele>
        <time>2018-04-27T07:44:40Z</time>
      </trkpt>
      <trkpt lat="45.16658" lon="5.90664">
        <ele>1463.74</ele>
        <time>2018-04-27T07:44:56Z</time>
      </trkpt>
      <trkpt lat="45.16663" lon="5.90675">
        <ele>1466.15</ele>
        <time>2018-04-27T07:45:13Z</time>
      </trkpt>
      <trkpt lat="45.16667" lon="5.90681">
        <ele>1468.55</ele>
        <time>2018-04-27T07:45:27Z</time>
      </trkpt>
      <trkpt lat="45.1667" lon="5.90692">
        <ele>1470.95</ele>
        <time>2018-04-27T07:45:42Z</time>
      </trkpt>
      <trkpt lat="45.16674" lon="5.90702">
        <ele>1473.84</ele>
        <time>2018-04-27T07:45:57Z</time>
      </trkpt>
      <trkpt lat="45.16679" lon="5.90712">
        <ele>1476.72</ele>
        <time>2018-04-27T07:46:12Z</time>
      </trkpt>
      <trkpt lat="45.1668" lon="5.90722">
        <ele>1479.13</ele>
        <time>2018-04-27T07:46:27Z</time>
      </trkpt>
      <trkpt lat="45.16681" lon="5.9073">
        <ele>1481.05</ele>
        <time>2018-04-27T07:46:40Z</time>
      </trkpt>
      <trkpt lat="45.16683" lon="5.9074">
        <ele>1483.93</ele>
        <time>2018-04-27T07:46:56Z</time>
      </trkpt>
      <trkpt lat="45.16683" lon="5.90745">
        <ele>1485.85</ele>
        <time>2018-04-27T07:47:08Z</time>
      </trkpt>
      <trkpt lat="45.16684" lon="5.90752">
        <ele>1488.26</ele>
        <time>2018-04-27T07:47:22Z</time>
      </trkpt>
      <trkpt lat="45.16684" lon="5.90766">
        <ele>1490.66</ele>
        <time>2018-04-27T07:47:38Z</time>
      </trkpt>
      <trkpt lat="45.16686" lon="5.90774">
        <ele>1492.58</ele>
        <time>2018-04-27T07:47:52Z</time>
      </trkpt>
      <trkpt lat="45.16686" lon="5.90783">
        <ele>1495.95</ele>
        <time>2018-04-27T07:48:09Z</time>
      </trkpt>
      <trkpt lat="45.16689" lon="5.90795">
        <ele>1497.87</ele>
        <time>2018-04-27T07:48:23Z</time>
      </trkpt>
      <trkpt lat="45.16687" lon="5.90804">
        <ele>1500.27</ele>
        <time>2018-04-27T07:48:38Z</time>
      </trkpt>
      <trkpt lat="45.16686" lon="5.9081">
        <ele>1501.72</ele>
        <time>2018-04-27T07:48:54Z</time>
      </trkpt>
      <trkpt lat="45.16685" lon="5.90821">
        <ele>1504.12</ele>
        <time>2018-04-27T07:49:09Z</time>
      </trkpt>
      <trkpt lat="45.16685" lon="5.90828">
        <ele>1506.04</ele>
        <time>2018-04-27T07:49:29Z</time>
      </trkpt>
      <trkpt lat="45.16678" lon="5.90833">
        <ele>1509.41</ele>
        <time>2018-04-27T07:49:43Z</time>
      </trkpt>
      <trkpt lat="45.16671" lon="5.90835">
        <ele>1512.29</ele>
        <time>2018-04-27T07:49:59Z</time>
      </trkpt>
      <trkpt lat="45.16667" lon="5.90838">
        <ele>1515.66</ele>
        <time>2018-04-27T07:50:16Z</time>
      </trkpt>
      <trkpt lat="45.16662" lon="5.90843">
        <ele>1518.06</ele>
        <time>2018-04-27T07:50:33Z</time>
      </trkpt>
      <trkpt lat="45.16656" lon="5.90849">
        <ele>1521.42</ele>
        <time>2018-04-27T07:50:48Z</time>
      </trkpt>
      <trkpt lat="45.16647" lon="5.90852">
        <ele>1523.35</ele>
        <time>2018-04-27T07:51:03Z</time>
      </trkpt>
      <trkpt lat="45.16638" lon="5.9085">
        <ele>1525.27</ele>
        <time>2018-04-27T07:51:16Z</time>
      </trkpt>
      <trkpt lat="45.16626" lon="5.90848">
        <ele>1528.15</ele>
        <time>2018-04-27T07:51:33Z</time>
      </trkpt>
      <trkpt lat="45.16616" lon="5.90846">
        <ele>1529.59</ele>
        <time>2018-04-27T07:51:46Z</time>
      </trkpt>
      <trkpt lat="45.16606" lon="5.90841">
        <ele>1532</ele>
        <time>2018-04-27T07:52:02Z</time>
      </trkpt>
      <trkpt lat="45.16595" lon="5.90836">
        <ele>1533.92</ele>
        <time>2018-04-27T07:52:17Z</time>
      </trkpt>
      <trkpt lat="45.16584" lon="5.90834">
        <ele>1536.8</ele>
        <time>2018-04-27T07:52:33Z</time>
      </trkpt>
      <trkpt lat="45.16575" lon="5.9083">
        <ele>1539.21</ele>
        <time>2018-04-27T07:52:49Z</time>
      </trkpt>
      <trkpt lat="45.16567" lon="5.90827">
        <ele>1541.13</ele>
        <time>2018-04-27T07:53:02Z</time>
      </trkpt>
      <trkpt lat="45.1656" lon="5.90825">
        <ele>1543.53</ele>
        <time>2018-04-27T07:53:16Z</time>
      </trkpt>
      <trkpt lat="45.16553" lon="5.90822">
        <ele>1546.42</ele>
        <time>2018-04-27T07:53:31Z</time>
      </trkpt>
      <trkpt lat="45.16546" lon="5.90818">
        <ele>1548.34</ele>
        <time>2018-04-27T07:53:44Z</time>
      </trkpt>
      <trkpt lat="45.1654" lon="5.90816">
        <ele>1551.22</ele>
        <time>2018-04-27T07:53:57Z</time>
      </trkpt>
      <trkpt lat="45.16532" lon="5.90809">
        <ele>1552.67</ele>
        <time>2018-04-27T07:54:11Z</time>
      </trkpt>
      <trkpt lat="45.16519" lon="5.90799">
        <ele>1553.63</ele>
        <time>2018-04-27T07:54:26Z</time>
      </trkpt>
      <trkpt lat="45.16514" lon="5.90797">
        <ele>1554.59</ele>
        <time>2018-04-27T07:54:31Z</time>
      </trkpt>
      <trkpt lat="45.16498" lon="5.90791">
        <ele>1556.03</ele>
        <time>2018-04-27T07:54:46Z</time>
      </trkpt>
      <trkpt lat="45.1649" lon="5.90786">
        <ele>1558.43</ele>
        <time>2018-04-27T07:54:58Z</time>
      </trkpt>
      <trkpt lat="45.16477" lon="5.9078">
        <ele>1560.36</ele>
        <time>2018-04-27T07:55:14Z</time>
      </trkpt>
      <trkpt lat="45.16466" lon="5.90777">
        <ele>1562.76</ele>
        <time>2018-04-27T07:55:28Z</time>
      </trkpt>
      <trkpt lat="45.16452" lon="5.90769">
        <ele>1564.2</ele>
        <time>2018-04-27T07:55:44Z</time>
      </trkpt>
      <trkpt lat="45.16438" lon="5.90763">
        <ele>1566.61</ele>
        <time>2018-04-27T07:55:57Z</time>
      </trkpt>
      <trkpt lat="45.16424" lon="5.90759">
        <ele>1568.53</ele>
        <time>2018-04-27T07:56:13Z</time>
      </trkpt>
      <trkpt lat="45.16417" lon="5.90761">
        <ele>1570.45</ele>
        <time>2018-04-27T07:56:25Z</time>
      </trkpt>
      <trkpt lat="45.16413" lon="5.90774">
        <ele>1572.85</ele>
        <time>2018-04-27T07:56:38Z</time>
      </trkpt>
      <trkpt lat="45.16414" lon="5.90784">
        <ele>1575.74</ele>
        <time>2018-04-27T07:56:52Z</time>
      </trkpt>
      <trkpt lat="45.16419" lon="5.90794">
        <ele>1579.1</ele>
        <time>2018-04-27T07:57:07Z</time>
      </trkpt>
      <trkpt lat="45.16424" lon="5.90802">
        <ele>1581.03</ele>
        <time>2018-04-27T07:57:22Z</time>
      </trkpt>
      <trkpt lat="45.16429" lon="5.90811">
        <ele>1583.43</ele>
        <time>2018-04-27T07:57:35Z</time>
      </trkpt>
      <trkpt lat="45.16435" lon="5.90823">
        <ele>1585.83</ele>
        <time>2018-04-27T07:57:51Z</time>
      </trkpt>
      <trkpt lat="45.16438" lon="5.90833">
        <ele>1587.75</ele>
        <time>2018-04-27T07:58:04Z</time>
      </trkpt>
      <trkpt lat="45.16442" lon="5.90843">
        <ele>1590.64</ele>
        <time>2018-04-27T07:58:18Z</time>
      </trkpt>
      <trkpt lat="45.16446" lon="5.90854">
        <ele>1592.56</ele>
        <time>2018-04-27T07:58:33Z</time>
      </trkpt>
      <trkpt lat="45.16448" lon="5.9086">
        <ele>1594.48</ele>
        <time>2018-04-27T07:58:45Z</time>
      </trkpt>
      <trkpt lat="45.16451" lon="5.90868">
        <ele>1596.41</ele>
        <time>2018-04-27T07:58:58Z</time>
      </trkpt>
      <trkpt lat="45.16454" lon="5.90874">
        <ele>1598.33</ele>
        <time>2018-04-27T07:59:09Z</time>
      </trkpt>
      <trkpt lat="45.16461" lon="5.90886">
        <ele>1601.21</ele>
        <time>2018-04-27T07:59:25Z</time>
      </trkpt>
      <trkpt lat="45.16466" lon="5.90899">
        <ele>1604.1</ele>
        <time>2018-04-27T07:59:42Z</time>
      </trkpt>
      <trkpt lat="45.16469" lon="5.90911">
        <ele>1606.5</ele>
        <time>2018-04-27T07:59:56Z</time>
      </trkpt>
      <trkpt lat="45.16472" lon="5.90921">
        <ele>1608.9</ele>
        <time>2018-04-27T08:00:10Z</time>
      </trkpt>
      <trkpt lat="45.16477" lon="5.9093">
        <ele>1611.31</ele>
        <time>2018-04-27T08:00:25Z</time>
      </trkpt>
      <trkpt lat="45.16481" lon="5.90941">
        <ele>1614.19</ele>
        <time>2018-04-27T08:00:41Z</time>
      </trkpt>
      <trkpt lat="45.16485" lon="5.90949">
        <ele>1616.59</ele>
        <time>2018-04-27T08:00:55Z</time>
      </trkpt>
      <trkpt lat="45.16487" lon="5.90957">
        <ele>1618.04</ele>
        <time>2018-04-27T08:01:08Z</time>
      </trkpt>
      <trkpt lat="45.16491" lon="5.90965">
        <ele>1620.92</ele>
        <time>2018-04-27T08:01:22Z</time>
      </trkpt>
      <trkpt lat="45.16493" lon="5.90976">
        <ele>1623.32</ele>
        <time>2018-04-27T08:01:36Z</time>
      </trkpt>
      <trkpt lat="45.16496" lon="5.90988">
        <ele>1624.77</ele>
        <time>2018-04-27T08:01:50Z</time>
      </trkpt>
      <trkpt lat="45.16499" lon="5.90997">
        <ele>1626.69</ele>
        <time>2018-04-27T08:02:03Z</time>
      </trkpt>
      <trkpt lat="45.16502" lon="5.91007">
        <ele>1629.09</ele>
        <time>2018-04-27T08:02:18Z</time>
      </trkpt>
      <trkpt lat="45.16498" lon="5.91013">
        <ele>1631.49</ele>
        <time>2018-04-27T08:02:32Z</time>
      </trkpt>
      <trkpt lat="45.16496" lon="5.9101">
        <ele>1631.98</ele>
        <time>2018-04-27T08:02:37Z</time>
      </trkpt>
      <trkpt lat="45.16485" lon="5.90998">
        <ele>1633.9</ele>
        <time>2018-04-27T08:02:55Z</time>
      </trkpt>
      <trkpt lat="45.16478" lon="5.90995">
        <ele>1635.82</ele>
        <time>2018-04-27T08:03:09Z</time>
      </trkpt>
      <trkpt lat="45.16469" lon="5.90992">
        <ele>1638.22</ele>
        <time>2018-04-27T08:03:23Z</time>
      </trkpt>
      <trkpt lat="45.16462" lon="5.9099">
        <ele>1639.67</ele>
        <time>2018-04-27T08:03:35Z</time>
      </trkpt>
      <trkpt lat="45.16453" lon="5.90991">
        <ele>1641.59</ele>
        <time>2018-04-27T08:03:50Z</time>
      </trkpt>
      <trkpt lat="45.16447" lon="5.90994">
        <ele>1643.99</ele>
        <time>2018-04-27T08:04:04Z</time>
      </trkpt>
      <trkpt lat="45.1644" lon="5.90999">
        <ele>1646.88</ele>
        <time>2018-04-27T08:04:18Z</time>
      </trkpt>
      <trkpt lat="45.16434" lon="5.91002">
        <ele>1649.28</ele>
        <time>2018-04-27T08:04:30Z</time>
      </trkpt>
      <trkpt lat="45.16429" lon="5.91006">
        <ele>1651.2</ele>
        <time>2018-04-27T08:04:44Z</time>
      </trkpt>
      <trkpt lat="45.16424" lon="5.91012">
        <ele>1654.09</ele>
        <time>2018-04-27T08:04:58Z</time>
      </trkpt>
      <trkpt lat="45.16418" lon="5.9102">
        <ele>1656.01</ele>
        <time>2018-04-27T08:05:12Z</time>
      </trkpt>
      <trkpt lat="45.16418" lon="5.91027">
        <ele>1657.93</ele>
        <time>2018-04-27T08:05:24Z</time>
      </trkpt>
      <trkpt lat="45.1642" lon="5.91035">
        <ele>1660.33</ele>
        <time>2018-04-27T08:05:36Z</time>
      </trkpt>
      <trkpt lat="45.16425" lon="5.91041">
        <ele>1662.26</ele>
        <time>2018-04-27T08:05:49Z</time>
      </trkpt>
      <trkpt lat="45.16431" lon="5.91046">
        <ele>1664.66</ele>
        <time>2018-04-27T08:06:03Z</time>
      </trkpt>
      <trkpt lat="45.16437" lon="5.91058">
        <ele>1666.58</ele>
        <time>2018-04-27T08:06:16Z</time>
      </trkpt>
      <trkpt lat="45.16445" lon="5.91069">
        <ele>1669.47</ele>
        <time>2018-04-27T08:06:33Z</time>
      </trkpt>
      <trkpt lat="45.16446" lon="5.91078">
        <ele>1671.39</ele>
        <time>2018-04-27T08:06:46Z</time>
      </trkpt>
      <trkpt lat="45.16441" lon="5.91077">
        <ele>1673.79</ele>
        <time>2018-04-27T08:06:59Z</time>
      </trkpt>
      <trkpt lat="45.16433" lon="5.91079">
        <ele>1675.72</ele>
        <time>2018-04-27T08:07:13Z</time>
      </trkpt>
      <trkpt lat="45.1643" lon="5.91079">
        <ele>1678.12</ele>
        <time>2018-04-27T08:07:26Z</time>
      </trkpt>
      <trkpt lat="45.16421" lon="5.91081">
        <ele>1680.52</ele>
        <time>2018-04-27T08:07:41Z</time>
      </trkpt>
      <trkpt lat="45.16418" lon="5.91088">
        <ele>1683.41</ele>
        <time>2018-04-27T08:07:56Z</time>
      </trkpt>
      <trkpt lat="45.16418" lon="5.91098">
        <ele>1686.29</ele>
        <time>2018-04-27T08:08:11Z</time>
      </trkpt>
      <trkpt lat="45.16417" lon="5.91109">
        <ele>1688.69</ele>
        <time>2018-04-27T08:08:24Z</time>
      </trkpt>
      <trkpt lat="45.16419" lon="5.91121">
        <ele>1691.1</ele>
        <time>2018-04-27T08:08:38Z</time>
      </trkpt>
      <trkpt lat="45.1642" lon="5.91128">
        <ele>1693.02</ele>
        <time>2018-04-27T08:08:50Z</time>
      </trkpt>
      <trkpt lat="45.16417" lon="5.91134">
        <ele>1695.42</ele>
        <time>2018-04-27T08:09:03Z</time>
      </trkpt>
      <trkpt lat="45.16416" lon="5.91138">
        <ele>1696.86</ele>
        <time>2018-04-27T08:09:18Z</time>
      </trkpt>
      <trkpt lat="45.16412" lon="5.91145">
        <ele>1698.79</ele>
        <time>2018-04-27T08:09:30Z</time>
      </trkpt>
      <trkpt lat="45.16416" lon="5.91153">
        <ele>1700.23</ele>
        <time>2018-04-27T08:09:41Z</time>
      </trkpt>
      <trkpt lat="45.16418" lon="5.91158">
        <ele>1701.67</ele>
        <time>2018-04-27T08:09:50Z</time>
      </trkpt>
      <trkpt lat="45.16412" lon="5.91164">
        <ele>1704.07</ele>
        <time>2018-04-27T08:10:04Z</time>
      </trkpt>
      <trkpt lat="45.16416" lon="5.91174">
        <ele>1706.48</ele>
        <time>2018-04-27T08:10:17Z</time>
      </trkpt>
      <trkpt lat="45.16413" lon="5.91178">
        <ele>1707.92</ele>
        <time>2018-04-27T08:10:30Z</time>
      </trkpt>
      <trkpt lat="45.16406" lon="5.9118">
        <ele>1709.36</ele>
        <time>2018-04-27T08:10:42Z</time>
      </trkpt>
      <trkpt lat="45.16401" lon="5.91183">
        <ele>1709.84</ele>
        <time>2018-04-27T08:10:48Z</time>
      </trkpt>
      <trkpt lat="45.1641" lon="5.91192">
        <ele>1711.76</ele>
        <time>2018-04-27T08:11:02Z</time>
      </trkpt>
      <trkpt lat="45.16413" lon="5.912">
        <ele>1713.21</ele>
        <time>2018-04-27T08:11:17Z</time>
      </trkpt>
      <trkpt lat="45.16407" lon="5.91201">
        <ele>1714.65</ele>
        <time>2018-04-27T08:11:28Z</time>
      </trkpt>
      <trkpt lat="45.16402" lon="5.91207">
        <ele>1717.05</ele>
        <time>2018-04-27T08:11:42Z</time>
      </trkpt>
      <trkpt lat="45.16397" lon="5.91211">
        <ele>1718.97</ele>
        <time>2018-04-27T08:11:54Z</time>
      </trkpt>
      <trkpt lat="45.16391" lon="5.91213">
        <ele>1721.38</ele>
        <time>2018-04-27T08:12:07Z</time>
      </trkpt>
      <trkpt lat="45.16385" lon="5.91216">
        <ele>1723.3</ele>
        <time>2018-04-27T08:12:19Z</time>
      </trkpt>
      <trkpt lat="45.16379" lon="5.91217">
        <ele>1725.22</ele>
        <time>2018-04-27T08:12:34Z</time>
      </trkpt>
      <trkpt lat="45.16371" lon="5.91221">
        <ele>1727.63</ele>
        <time>2018-04-27T08:12:49Z</time>
      </trkpt>
      <trkpt lat="45.16364" lon="5.91223">
        <ele>1730.03</ele>
        <time>2018-04-27T08:13:03Z</time>
      </trkpt>
      <trkpt lat="45.16365" lon="5.91225">
        <ele>1730.03</ele>
        <time>2018-04-27T08:13:23Z</time>
      </trkpt>
      <trkpt lat="45.16369" lon="5.91234">
        <ele>1733.39</ele>
        <time>2018-04-27T08:13:37Z</time>
      </trkpt>
      <trkpt lat="45.16369" lon="5.91235">
        <ele>1733.39</ele>
        <time>2018-04-27T08:13:38Z</time>
      </trkpt>
      <trkpt lat="45.16364" lon="5.91237">
        <ele>1734.84</ele>
        <time>2018-04-27T08:13:51Z</time>
      </trkpt>
      <trkpt lat="45.16358" lon="5.91244">
        <ele>1736.28</ele>
        <time>2018-04-27T08:14:06Z</time>
      </trkpt>
      <trkpt lat="45.16354" lon="5.9125">
        <ele>1737.72</ele>
        <time>2018-04-27T08:14:18Z</time>
      </trkpt>
      <trkpt lat="45.16352" lon="5.91257">
        <ele>1739.16</ele>
        <time>2018-04-27T08:14:30Z</time>
      </trkpt>
      <trkpt lat="45.16346" lon="5.91268">
        <ele>1741.57</ele>
        <time>2018-04-27T08:14:47Z</time>
      </trkpt>
      <trkpt lat="45.16343" lon="5.91276">
        <ele>1743.49</ele>
        <time>2018-04-27T08:15:01Z</time>
      </trkpt>
      <trkpt lat="45.16343" lon="5.91285">
        <ele>1744.93</ele>
        <time>2018-04-27T08:15:17Z</time>
      </trkpt>
      <trkpt lat="45.16342" lon="5.91289">
        <ele>1745.89</ele>
        <time>2018-04-27T08:15:29Z</time>
      </trkpt>
      <trkpt lat="45.16339" lon="5.9129">
        <ele>1745.89</ele>
        <time>2018-04-27T08:15:41Z</time>
      </trkpt>
      <trkpt lat="45.16336" lon="5.91291">
        <ele>1746.85</ele>
        <time>2018-04-27T08:15:55Z</time>
      </trkpt>
      <trkpt lat="45.16327" lon="5.91292">
        <ele>1747.33</ele>
        <time>2018-04-27T08:16:09Z</time>
      </trkpt>
      <trkpt lat="45.16325" lon="5.91294">
        <ele>1748.29</ele>
        <time>2018-04-27T08:16:28Z</time>
      </trkpt>
      <trkpt lat="45.16318" lon="5.913">
        <ele>1749.26</ele>
        <time>2018-04-27T08:16:41Z</time>
      </trkpt>
      <trkpt lat="45.16312" lon="5.91304">
        <ele>1749.74</ele>
        <time>2018-04-27T08:16:50Z</time>
      </trkpt>
      <trkpt lat="45.163" lon="5.9131">
        <ele>1752.62</ele>
        <time>2018-04-27T08:17:08Z</time>
      </trkpt>
      <trkpt lat="45.1629" lon="5.91312">
        <ele>1753.58</ele>
        <time>2018-04-27T08:17:24Z</time>
      </trkpt>
      <trkpt lat="45.16283" lon="5.91317">
        <ele>1755.99</ele>
        <time>2018-04-27T08:17:38Z</time>
      </trkpt>
      <trkpt lat="45.16275" lon="5.91323">
        <ele>1757.91</ele>
        <time>2018-04-27T08:17:51Z</time>
      </trkpt>
      <trkpt lat="45.16268" lon="5.91331">
        <ele>1760.31</ele>
        <time>2018-04-27T08:18:04Z</time>
      </trkpt>
      <trkpt lat="45.1626" lon="5.91339">
        <ele>1760.79</ele>
        <time>2018-04-27T08:18:19Z</time>
      </trkpt>
      <trkpt lat="45.16255" lon="5.91345">
        <ele>1764.16</ele>
        <time>2018-04-27T08:18:29Z</time>
      </trkpt>
      <trkpt lat="45.1625" lon="5.9135">
        <ele>1764.16</ele>
        <time>2018-04-27T08:18:37Z</time>
      </trkpt>
      <trkpt lat="45.16245" lon="5.91358">
        <ele>1766.08</ele>
        <time>2018-04-27T08:18:50Z</time>
      </trkpt>
      <trkpt lat="45.16243" lon="5.91362">
        <ele>1766.56</ele>
        <time>2018-04-27T08:19:07Z</time>
      </trkpt>
      <trkpt lat="45.16243" lon="5.91363">
        <ele>1767.04</ele>
        <time>2018-04-27T08:19:38Z</time>
      </trkpt>
      <trkpt lat="45.16243" lon="5.91363">
        <ele>1767.04</ele>
        <time>2018-04-27T08:19:39Z</time>
      </trkpt>
      <trkpt lat="45.16237" lon="5.91369">
        <ele>1768.48</ele>
        <time>2018-04-27T08:19:53Z</time>
      </trkpt>
      <trkpt lat="45.16231" lon="5.91374">
        <ele>1769.92</ele>
        <time>2018-04-27T08:20:06Z</time>
      </trkpt>
      <trkpt lat="45.16225" lon="5.91381">
        <ele>1771.37</ele>
        <time>2018-04-27T08:20:21Z</time>
      </trkpt>
      <trkpt lat="45.16219" lon="5.91385">
        <ele>1774.25</ele>
        <time>2018-04-27T08:20:37Z</time>
      </trkpt>
      <trkpt lat="45.16213" lon="5.91388">
        <ele>1776.65</ele>
        <time>2018-04-27T08:20:50Z</time>
      </trkpt>
      <trkpt lat="45.16209" lon="5.91393">
        <ele>1779.54</ele>
        <time>2018-04-27T08:21:04Z</time>
      </trkpt>
      <trkpt lat="45.16205" lon="5.91395">
        <ele>1781.46</ele>
        <time>2018-04-27T08:21:18Z</time>
      </trkpt>
      <trkpt lat="45.16201" lon="5.91398">
        <ele>1783.38</ele>
        <time>2018-04-27T08:21:34Z</time>
      </trkpt>
      <trkpt lat="45.16198" lon="5.91399">
        <ele>1784.34</ele>
        <time>2018-04-27T08:21:47Z</time>
      </trkpt>
      <trkpt lat="45.16197" lon="5.91398">
        <ele>1785.31</ele>
        <time>2018-04-27T08:22:00Z</time>
      </trkpt>
      <trkpt lat="45.16192" lon="5.91397">
        <ele>1787.71</ele>
        <time>2018-04-27T08:22:14Z</time>
      </trkpt>
      <trkpt lat="45.16186" lon="5.91393">
        <ele>1790.59</ele>
        <time>2018-04-27T08:22:28Z</time>
      </trkpt>
      <trkpt lat="45.16184" lon="5.91389">
        <ele>1793</ele>
        <time>2018-04-27T08:22:44Z</time>
      </trkpt>
      <trkpt lat="45.16185" lon="5.91389">
        <ele>1791.55</ele>
        <time>2018-04-27T08:22:53Z</time>
      </trkpt>
      <trkpt lat="45.16183" lon="5.91388">
        <ele>1792.03</ele>
        <time>2018-04-27T08:23:18Z</time>
      </trkpt>
      <trkpt lat="45.16183" lon="5.91388">
        <ele>1792.03</ele>
        <time>2018-04-27T08:23:38Z</time>
      </trkpt>
      <trkpt lat="45.16184" lon="5.91388">
        <ele>1793.48</ele>
        <time>2018-04-27T08:23:57Z</time>
      </trkpt>
      <trkpt lat="45.16179" lon="5.91393">
        <ele>1794.92</ele>
        <time>2018-04-27T08:24:11Z</time>
      </trkpt>
      <trkpt lat="45.16173" lon="5.91398">
        <ele>1797.32</ele>
        <time>2018-04-27T08:24:25Z</time>
      </trkpt>
      <trkpt lat="45.16171" lon="5.91401">
        <ele>1798.28</ele>
        <time>2018-04-27T08:24:40Z</time>
      </trkpt>
      <trkpt lat="45.16168" lon="5.91405">
        <ele>1800.21</ele>
        <time>2018-04-27T08:24:52Z</time>
      </trkpt>
      <trkpt lat="45.16165" lon="5.9141">
        <ele>1803.57</ele>
        <time>2018-04-27T08:25:06Z</time>
      </trkpt>
      <trkpt lat="45.16163" lon="5.91414">
        <ele>1805.97</ele>
        <time>2018-04-27T08:25:21Z</time>
      </trkpt>
      <trkpt lat="45.1616" lon="5.91417">
        <ele>1807.9</ele>
        <time>2018-04-27T08:25:33Z</time>
      </trkpt>
      <trkpt lat="45.16158" lon="5.91418">
        <ele>1809.34</ele>
        <time>2018-04-27T08:25:44Z</time>
      </trkpt>
      <trkpt lat="45.16155" lon="5.9142">
        <ele>1811.74</ele>
        <time>2018-04-27T08:25:59Z</time>
      </trkpt>
      <trkpt lat="45.16153" lon="5.91422">
        <ele>1813.66</ele>
        <time>2018-04-27T08:26:12Z</time>
      </trkpt>
      <trkpt lat="45.16153" lon="5.91424">
        <ele>1815.59</ele>
        <time>2018-04-27T08:26:22Z</time>
      </trkpt>
      <trkpt lat="45.1615" lon="5.91427">
        <ele>1817.51</ele>
        <time>2018-04-27T08:26:34Z</time>
      </trkpt>
      <trkpt lat="45.16147" lon="5.91429">
        <ele>1818.95</ele>
        <time>2018-04-27T08:26:48Z</time>
      </trkpt>
      <trkpt lat="45.16145" lon="5.91432">
        <ele>1821.84</ele>
        <time>2018-04-27T08:27:04Z</time>
      </trkpt>
      <trkpt lat="45.16145" lon="5.91433">
        <ele>1824.24</ele>
        <time>2018-04-27T08:27:14Z</time>
      </trkpt>
      <trkpt lat="45.16142" lon="5.91435">
        <ele>1826.16</ele>
        <time>2018-04-27T08:27:24Z</time>
      </trkpt>
      <trkpt lat="45.16139" lon="5.91438">
        <ele>1828.08</ele>
        <time>2018-04-27T08:27:36Z</time>
      </trkpt>
      <trkpt lat="45.16136" lon="5.9144">
        <ele>1830.49</ele>
        <time>2018-04-27T08:27:47Z</time>
      </trkpt>
      <trkpt lat="45.16135" lon="5.91442">
        <ele>1831.93</ele>
        <time>2018-04-27T08:27:58Z</time>
      </trkpt>
      <trkpt lat="45.16131" lon="5.91445">
        <ele>1833.85</ele>
        <time>2018-04-27T08:28:11Z</time>
      </trkpt>
      <trkpt lat="45.16128" lon="5.91448">
        <ele>1836.74</ele>
        <time>2018-04-27T08:28:25Z</time>
      </trkpt>
      <trkpt lat="45.16126" lon="5.9145">
        <ele>1838.18</ele>
        <time>2018-04-27T08:28:38Z</time>
      </trkpt>
      <trkpt lat="45.16123" lon="5.91452">
        <ele>1840.1</ele>
        <time>2018-04-27T08:28:51Z</time>
      </trkpt>
      <trkpt lat="45.16121" lon="5.91453">
        <ele>1842.02</ele>
        <time>2018-04-27T08:29:04Z</time>
      </trkpt>
      <trkpt lat="45.16119" lon="5.91455">
        <ele>1845.39</ele>
        <time>2018-04-27T08:29:16Z</time>
      </trkpt>
      <trkpt lat="45.16119" lon="5.91455">
        <ele>1845.39</ele>
        <time>2018-04-27T08:29:17Z</time>
      </trkpt>
      <trkpt lat="45.16117" lon="5.91456">
        <ele>1846.35</ele>
        <time>2018-04-27T08:29:26Z</time>
      </trkpt>
      <trkpt lat="45.16115" lon="5.91456">
        <ele>1846.83</ele>
        <time>2018-04-27T08:29:37Z</time>
      </trkpt>
      <trkpt lat="45.16114" lon="5.91459">
        <ele>1848.75</ele>
        <time>2018-04-27T08:29:49Z</time>
      </trkpt>
      <trkpt lat="45.16112" lon="5.9146">
        <ele>1850.68</ele>
        <time>2018-04-27T08:30:02Z</time>
      </trkpt>
      <trkpt lat="45.1611" lon="5.91461">
        <ele>1852.6</ele>
        <time>2018-04-27T08:30:14Z</time>
      </trkpt>
      <trkpt lat="45.16108" lon="5.91464">
        <ele>1854.04</ele>
        <time>2018-04-27T08:30:26Z</time>
      </trkpt>
      <trkpt lat="45.16105" lon="5.91462">
        <ele>1856.92</ele>
        <time>2018-04-27T08:30:41Z</time>
      </trkpt>
      <trkpt lat="45.16102" lon="5.91465">
        <ele>1859.33</ele>
        <time>2018-04-27T08:30:54Z</time>
      </trkpt>
      <trkpt lat="45.16101" lon="5.91467">
        <ele>1860.77</ele>
        <time>2018-04-27T08:31:05Z</time>
      </trkpt>
      <trkpt lat="45.16098" lon="5.91468">
        <ele>1862.21</ele>
        <time>2018-04-27T08:31:17Z</time>
      </trkpt>
      <trkpt lat="45.16097" lon="5.9147">
        <ele>1862.69</ele>
        <time>2018-04-27T08:31:28Z</time>
      </trkpt>
      <trkpt lat="45.16096" lon="5.91472">
        <ele>1864.13</ele>
        <time>2018-04-27T08:31:39Z</time>
      </trkpt>
      <trkpt lat="45.16095" lon="5.91474">
        <ele>1865.58</ele>
        <time>2018-04-27T08:31:51Z</time>
      </trkpt>
      <trkpt lat="45.16093" lon="5.91476">
        <ele>1866.54</ele>
        <time>2018-04-27T08:32:02Z</time>
      </trkpt>
      <trkpt lat="45.16093" lon="5.91477">
        <ele>1867.98</ele>
        <time>2018-04-27T08:32:13Z</time>
      </trkpt>
      <trkpt lat="45.16092" lon="5.91478">
        <ele>1868.94</ele>
        <time>2018-04-27T08:32:24Z</time>
      </trkpt>
      <trkpt lat="45.16089" lon="5.91478">
        <ele>1870.38</ele>
        <time>2018-04-27T08:32:35Z</time>
      </trkpt>
      <trkpt lat="45.16086" lon="5.91479">
        <ele>1871.82</ele>
        <time>2018-04-27T08:32:47Z</time>
      </trkpt>
      <trkpt lat="45.16085" lon="5.91482">
        <ele>1872.79</ele>
        <time>2018-04-27T08:32:59Z</time>
      </trkpt>
      <trkpt lat="45.16084" lon="5.91485">
        <ele>1874.71</ele>
        <time>2018-04-27T08:33:10Z</time>
      </trkpt>
      <trkpt lat="45.16083" lon="5.91486">
        <ele>1875.67</ele>
        <time>2018-04-27T08:33:22Z</time>
      </trkpt>
      <trkpt lat="45.16082" lon="5.91488">
        <ele>1878.07</ele>
        <time>2018-04-27T08:33:34Z</time>
      </trkpt>
      <trkpt lat="45.1608" lon="5.91489">
        <ele>1879.51</ele>
        <time>2018-04-27T08:33:44Z</time>
      </trkpt>
      <trkpt lat="45.16077" lon="5.91492">
        <ele>1880.96</ele>
        <time>2018-04-27T08:33:56Z</time>
      </trkpt>
      <trkpt lat="45.16077" lon="5.91492">
        <ele>1882.4</ele>
        <time>2018-04-27T08:34:08Z</time>
      </trkpt>
      <trkpt lat="45.16075" lon="5.91494">
        <ele>1882.88</ele>
        <time>2018-04-27T08:34:20Z</time>
      </trkpt>
      <trkpt lat="45.16074" lon="5.91495">
        <ele>1884.32</ele>
        <time>2018-04-27T08:34:31Z</time>
      </trkpt>
      <trkpt lat="45.16073" lon="5.91493">
        <ele>1884.32</ele>
        <time>2018-04-27T08:34:54Z</time>
      </trkpt>
      <trkpt lat="45.16075" lon="5.91496">
        <ele>1885.28</ele>
        <time>2018-04-27T08:35:17Z</time>
      </trkpt>
      <trkpt lat="45.16073" lon="5.91498">
        <ele>1887.21</ele>
        <time>2018-04-27T08:35:27Z</time>
      </trkpt>
      <trkpt lat="45.16071" lon="5.91501">
        <ele>1889.13</ele>
        <time>2018-04-27T08:35:37Z</time>
      </trkpt>
      <trkpt lat="45.16068" lon="5.91503">
        <ele>1892.49</ele>
        <time>2018-04-27T08:35:52Z</time>
      </trkpt>
      <trkpt lat="45.16067" lon="5.91503">
        <ele>1896.34</ele>
        <time>2018-04-27T08:36:03Z</time>
      </trkpt>
      <trkpt lat="45.16065" lon="5.91504">
        <ele>1898.26</ele>
        <time>2018-04-27T08:36:12Z</time>
      </trkpt>
      <trkpt lat="45.16065" lon="5.91504">
        <ele>1898.26</ele>
        <time>2018-04-27T08:36:13Z</time>
      </trkpt>
      <trkpt lat="45.16063" lon="5.91505">
        <ele>1899.22</ele>
        <time>2018-04-27T08:36:23Z</time>
      </trkpt>
      <trkpt lat="45.16062" lon="5.91507">
        <ele>1900.18</ele>
        <time>2018-04-27T08:36:35Z</time>
      </trkpt>
      <trkpt lat="45.16059" lon="5.91509">
        <ele>1901.63</ele>
        <time>2018-04-27T08:36:48Z</time>
      </trkpt>
      <trkpt lat="45.16055" lon="5.91509">
        <ele>1902.59</ele>
        <time>2018-04-27T08:37:02Z</time>
      </trkpt>
      <trkpt lat="45.16054" lon="5.9151">
        <ele>1905.47</ele>
        <time>2018-04-27T08:37:14Z</time>
      </trkpt>
      <trkpt lat="45.16052" lon="5.91512">
        <ele>1907.39</ele>
        <time>2018-04-27T08:37:26Z</time>
      </trkpt>
      <trkpt lat="45.1605" lon="5.91515">
        <ele>1909.32</ele>
        <time>2018-04-27T08:37:38Z</time>
      </trkpt>
      <trkpt lat="45.16047" lon="5.91514">
        <ele>1911.72</ele>
        <time>2018-04-27T08:37:50Z</time>
      </trkpt>
      <trkpt lat="45.16045" lon="5.91517">
        <ele>1912.68</ele>
        <time>2018-04-27T08:38:02Z</time>
      </trkpt>
      <trkpt lat="45.16043" lon="5.91519">
        <ele>1915.08</ele>
        <time>2018-04-27T08:38:15Z</time>
      </trkpt>
      <trkpt lat="45.16042" lon="5.9152">
        <ele>1916.04</ele>
        <time>2018-04-27T08:38:28Z</time>
      </trkpt>
      <trkpt lat="45.16039" lon="5.9152">
        <ele>1917.97</ele>
        <time>2018-04-27T08:38:40Z</time>
      </trkpt>
      <trkpt lat="45.16039" lon="5.91522">
        <ele>1919.41</ele>
        <time>2018-04-27T08:38:51Z</time>
      </trkpt>
      <trkpt lat="45.16037" lon="5.91521">
        <ele>1921.33</ele>
        <time>2018-04-27T08:39:03Z</time>
      </trkpt>
      <trkpt lat="45.16035" lon="5.91523">
        <ele>1922.29</ele>
        <time>2018-04-27T08:39:14Z</time>
      </trkpt>
      <trkpt lat="45.16033" lon="5.91522">
        <ele>1924.7</ele>
        <time>2018-04-27T08:39:22Z</time>
      </trkpt>
      <trkpt lat="45.16032" lon="5.91524">
        <ele>1925.66</ele>
        <time>2018-04-27T08:39:35Z</time>
      </trkpt>
      <trkpt lat="45.16031" lon="5.91524">
        <ele>1925.66</ele>
        <time>2018-04-27T08:39:47Z</time>
      </trkpt>
      <trkpt lat="45.16029" lon="5.91524">
        <ele>1927.1</ele>
        <time>2018-04-27T08:39:59Z</time>
      </trkpt>
      <trkpt lat="45.16027" lon="5.91526">
        <ele>1928.06</ele>
        <time>2018-04-27T08:40:11Z</time>
      </trkpt>
      <trkpt lat="45.16028" lon="5.91526">
        <ele>1928.54</ele>
        <time>2018-04-27T08:40:26Z</time>
      </trkpt>
      <trkpt lat="45.16027" lon="5.91526">
        <ele>1929.02</ele>
        <time>2018-04-27T08:40:40Z</time>
      </trkpt>
      <trkpt lat="45.16026" lon="5.91527">
        <ele>1930.46</ele>
        <time>2018-04-27T08:40:51Z</time>
      </trkpt>
      <trkpt lat="45.16025" lon="5.91528">
        <ele>1932.39</ele>
        <time>2018-04-27T08:41:02Z</time>
      </trkpt>
      <trkpt lat="45.16023" lon="5.91529">
        <ele>1933.83</ele>
        <time>2018-04-27T08:41:15Z</time>
      </trkpt>
      <trkpt lat="45.1602" lon="5.91529">
        <ele>1935.75</ele>
        <time>2018-04-27T08:41:28Z</time>
      </trkpt>
      <trkpt lat="45.16019" lon="5.9153">
        <ele>1937.67</ele>
        <time>2018-04-27T08:41:38Z</time>
      </trkpt>
      <trkpt lat="45.16019" lon="5.9153">
        <ele>1940.08</ele>
        <time>2018-04-27T08:41:54Z</time>
      </trkpt>
      <trkpt lat="45.16019" lon="5.9153">
        <ele>1940.08</ele>
        <time>2018-04-27T08:41:55Z</time>
      </trkpt>
      <trkpt lat="45.16017" lon="5.9153">
        <ele>1941.04</ele>
        <time>2018-04-27T08:42:08Z</time>
      </trkpt>
      <trkpt lat="45.16016" lon="5.91532">
        <ele>1942.96</ele>
        <time>2018-04-27T08:42:20Z</time>
      </trkpt>
      <trkpt lat="45.16013" lon="5.91531">
        <ele>1945.36</ele>
        <time>2018-04-27T08:42:32Z</time>
      </trkpt>
      <trkpt lat="45.16013" lon="5.91533">
        <ele>1945.36</ele>
        <time>2018-04-27T08:42:42Z</time>
      </trkpt>
      <trkpt lat="45.16011" lon="5.91534">
        <ele>1946.33</ele>
        <time>2018-04-27T08:42:56Z</time>
      </trkpt>
      <trkpt lat="45.16011" lon="5.91534">
        <ele>1945.36</ele>
        <time>2018-04-27T08:43:02Z</time>
      </trkpt>
      <trkpt lat="45.1601" lon="5.91535">
        <ele>1946.81</ele>
        <time>2018-04-27T08:43:09Z</time>
      </trkpt>
      <trkpt lat="45.16011" lon="5.91535">
        <ele>1947.29</ele>
        <time>2018-04-27T08:43:25Z</time>
      </trkpt>
      <trkpt lat="45.1601" lon="5.91538">
        <ele>1949.21</ele>
        <time>2018-04-27T08:43:36Z</time>
      </trkpt>
      <trkpt lat="45.16008" lon="5.91539">
        <ele>1950.65</ele>
        <time>2018-04-27T08:43:48Z</time>
      </trkpt>
      <trkpt lat="45.16007" lon="5.9154">
        <ele>1953.06</ele>
        <time>2018-04-27T08:44:02Z</time>
      </trkpt>
      <trkpt lat="45.16004" lon="5.91541">
        <ele>1954.5</ele>
        <time>2018-04-27T08:44:14Z</time>
      </trkpt>
      <trkpt lat="45.16003" lon="5.91542">
        <ele>1955.46</ele>
        <time>2018-04-27T08:44:26Z</time>
      </trkpt>
      <trkpt lat="45.16003" lon="5.91542">
        <ele>1956.42</ele>
        <time>2018-04-27T08:44:28Z</time>
      </trkpt>
      <trkpt lat="45.16002" lon="5.91542">
        <ele>1957.38</ele>
        <time>2018-04-27T08:44:50Z</time>
      </trkpt>
      <trkpt lat="45.15999" lon="5.91543">
        <ele>1959.3</ele>
        <time>2018-04-27T08:45:02Z</time>
      </trkpt>
      <trkpt lat="45.15995" lon="5.91546">
        <ele>1960.75</ele>
        <time>2018-04-27T08:45:15Z</time>
      </trkpt>
      <trkpt lat="45.15992" lon="5.91547">
        <ele>1962.67</ele>
        <time>2018-04-27T08:45:26Z</time>
      </trkpt>
      <trkpt lat="45.15991" lon="5.91547">
        <ele>1965.07</ele>
        <time>2018-04-27T08:45:31Z</time>
      </trkpt>
      <trkpt lat="45.1599" lon="5.91546">
        <ele>1965.07</ele>
        <time>2018-04-27T08:45:33Z</time>
      </trkpt>
      <trkpt lat="45.15986" lon="5.91544">
        <ele>1966.99</ele>
        <time>2018-04-27T08:45:46Z</time>
      </trkpt>
      <trkpt lat="45.15984" lon="5.91542">
        <ele>1965.55</ele>
        <time>2018-04-27T08:45:51Z</time>
      </trkpt>
      <trkpt lat="45.15981" lon="5.91539">
        <ele>1967.48</ele>
        <time>2018-04-27T08:45:59Z</time>
      </trkpt>
      <trkpt lat="45.15982" lon="5.91541">
        <ele>1968.92</ele>
        <time>2018-04-27T08:46:04Z</time>
      </trkpt>
      <trkpt lat="45.15978" lon="5.91542">
        <ele>1970.36</ele>
        <time>2018-04-27T08:46:19Z</time>
      </trkpt>
      <trkpt lat="45.15977" lon="5.91543">
        <ele>1969.88</ele>
        <time>2018-04-27T08:46:27Z</time>
      </trkpt>
      <trkpt lat="45.15973" lon="5.91545">
        <ele>1971.32</ele>
        <time>2018-04-27T08:46:40Z</time>
      </trkpt>
      <trkpt lat="45.15972" lon="5.91547">
        <ele>1972.76</ele>
        <time>2018-04-27T08:46:50Z</time>
      </trkpt>
      <trkpt lat="45.15973" lon="5.91551">
        <ele>1976.61</ele>
        <time>2018-04-27T08:47:04Z</time>
      </trkpt>
      <trkpt lat="45.15973" lon="5.91551">
        <ele>1974.2</ele>
        <time>2018-04-27T08:47:07Z</time>
      </trkpt>
      <trkpt lat="45.15973" lon="5.91552">
        <ele>1976.61</ele>
        <time>2018-04-27T08:47:10Z</time>
      </trkpt>
      <trkpt lat="45.15974" lon="5.91553">
        <ele>1974.69</ele>
        <time>2018-04-27T08:47:14Z</time>
      </trkpt>
      <trkpt lat="45.15972" lon="5.91555">
        <ele>1976.13</ele>
        <time>2018-04-27T08:47:25Z</time>
      </trkpt>
      <trkpt lat="45.15972" lon="5.91558">
        <ele>1977.09</ele>
        <time>2018-04-27T08:47:40Z</time>
      </trkpt>
      <trkpt lat="45.15973" lon="5.9156">
        <ele>1979.01</ele>
        <time>2018-04-27T08:47:54Z</time>
      </trkpt>
      <trkpt lat="45.15972" lon="5.91561">
        <ele>1979.97</ele>
        <time>2018-04-27T08:48:04Z</time>
      </trkpt>
      <trkpt lat="45.15971" lon="5.91562">
        <ele>1980.93</ele>
        <time>2018-04-27T08:48:14Z</time>
      </trkpt>
      <trkpt lat="45.15971" lon="5.9156">
        <ele>1979.97</ele>
        <time>2018-04-27T08:48:23Z</time>
      </trkpt>
      <trkpt lat="45.1597" lon="5.91562">
        <ele>1981.41</ele>
        <time>2018-04-27T08:48:35Z</time>
      </trkpt>
      <trkpt lat="45.15967" lon="5.9156">
        <ele>1983.34</ele>
        <time>2018-04-27T08:48:52Z</time>
      </trkpt>
      <trkpt lat="45.15968" lon="5.91563">
        <ele>1981.9</ele>
        <time>2018-04-27T08:49:11Z</time>
      </trkpt>
      <trkpt lat="45.15967" lon="5.91566">
        <ele>1983.34</ele>
        <time>2018-04-27T08:49:17Z</time>
      </trkpt>
      <trkpt lat="45.15965" lon="5.91567">
        <ele>1984.78</ele>
        <time>2018-04-27T08:49:28Z</time>
      </trkpt>
      <trkpt lat="45.15963" lon="5.91569">
        <ele>1986.22</ele>
        <time>2018-04-27T08:49:42Z</time>
      </trkpt>
      <trkpt lat="45.15957" lon="5.9157">
        <ele>1988.14</ele>
        <time>2018-04-27T08:49:56Z</time>
      </trkpt>
      <trkpt lat="45.15955" lon="5.91572">
        <ele>1991.03</ele>
        <time>2018-04-27T08:50:08Z</time>
      </trkpt>
      <trkpt lat="45.15955" lon="5.91572">
        <ele>1991.03</ele>
        <time>2018-04-27T08:50:09Z</time>
      </trkpt>
      <trkpt lat="45.15952" lon="5.91572">
        <ele>1992.95</ele>
        <time>2018-04-27T08:50:22Z</time>
      </trkpt>
      <trkpt lat="45.15947" lon="5.91573">
        <ele>1994.87</ele>
        <time>2018-04-27T08:50:34Z</time>
      </trkpt>
      <trkpt lat="45.15943" lon="5.91572">
        <ele>1998.72</ele>
        <time>2018-04-27T08:50:45Z</time>
      </trkpt>
      <trkpt lat="45.15942" lon="5.91572">
        <ele>1999.2</ele>
        <time>2018-04-27T08:50:47Z</time>
      </trkpt>
      <trkpt lat="45.15937" lon="5.91573">
        <ele>2001.6</ele>
        <time>2018-04-27T08:50:59Z</time>
      </trkpt>
      <trkpt lat="45.15936" lon="5.91573">
        <ele>2003.04</ele>
        <time>2018-04-27T08:51:03Z</time>
      </trkpt>
      <trkpt lat="45.15936" lon="5.91574">
        <ele>2004.49</ele>
        <time>2018-04-27T08:51:06Z</time>
      </trkpt>
      <trkpt lat="45.15931" lon="5.91575">
        <ele>2007.37</ele>
        <time>2018-04-27T08:51:19Z</time>
      </trkpt>
      <trkpt lat="45.15929" lon="5.91578">
        <ele>2004.01</ele>
        <time>2018-04-27T08:51:26Z</time>
      </trkpt>
      <trkpt lat="45.15929" lon="5.91579">
        <ele>2006.41</ele>
        <time>2018-04-27T08:51:28Z</time>
      </trkpt>
      <trkpt lat="45.1593" lon="5.9158">
        <ele>2008.33</ele>
        <time>2018-04-27T08:51:31Z</time>
      </trkpt>
      <trkpt lat="45.15931" lon="5.91583">
        <ele>2008.81</ele>
        <time>2018-04-27T08:51:37Z</time>
      </trkpt>
      <trkpt lat="45.15931" lon="5.91583">
        <ele>2004.97</ele>
        <time>2018-04-27T08:51:38Z</time>
      </trkpt>
      <trkpt lat="45.15931" lon="5.91584">
        <ele>2007.37</ele>
        <time>2018-04-27T08:51:39Z</time>
      </trkpt>
      <trkpt lat="45.1593" lon="5.91589">
        <ele>2011.22</ele>
        <time>2018-04-27T08:51:54Z</time>
      </trkpt>
      <trkpt lat="45.1593" lon="5.91589">
        <ele>2011.22</ele>
        <time>2018-04-27T08:51:55Z</time>
      </trkpt>
      <trkpt lat="45.15928" lon="5.9159">
        <ele>2014.1</ele>
        <time>2018-04-27T08:52:00Z</time>
      </trkpt>
      <trkpt lat="45.15926" lon="5.91592">
        <ele>2010.73</ele>
        <time>2018-04-27T08:52:07Z</time>
      </trkpt>
      <trkpt lat="45.15926" lon="5.91593">
        <ele>2010.73</ele>
        <time>2018-04-27T08:52:08Z</time>
      </trkpt>
      <trkpt lat="45.15926" lon="5.91595">
        <ele>2014.58</ele>
        <time>2018-04-27T08:52:14Z</time>
      </trkpt>
      <trkpt lat="45.15925" lon="5.91597">
        <ele>2014.58</ele>
        <time>2018-04-27T08:52:19Z</time>
      </trkpt>
      <trkpt lat="45.15925" lon="5.91598">
        <ele>2010.73</ele>
        <time>2018-04-27T08:52:21Z</time>
      </trkpt>
      <trkpt lat="45.15925" lon="5.91599">
        <ele>2010.73</ele>
        <time>2018-04-27T08:52:22Z</time>
      </trkpt>
      <trkpt lat="45.15925" lon="5.916">
        <ele>2012.18</ele>
        <time>2018-04-27T08:52:24Z</time>
      </trkpt>
      <trkpt lat="45.15925" lon="5.91601">
        <ele>2014.58</ele>
        <time>2018-04-27T08:52:28Z</time>
      </trkpt>
      <trkpt lat="45.15925" lon="5.91602">
        <ele>2016.5</ele>
        <time>2018-04-27T08:52:31Z</time>
      </trkpt>
      <trkpt lat="45.15924" lon="5.91602">
        <ele>2014.58</ele>
        <time>2018-04-27T08:52:33Z</time>
      </trkpt>
      <trkpt lat="45.15923" lon="5.91603">
        <ele>2012.66</ele>
        <time>2018-04-27T08:52:38Z</time>
      </trkpt>
      <trkpt lat="45.15923" lon="5.91603">
        <ele>2016.02</ele>
        <time>2018-04-27T08:52:40Z</time>
      </trkpt>
      <trkpt lat="45.15923" lon="5.91603">
        <ele>2016.98</ele>
        <time>2018-04-27T08:52:42Z</time>
      </trkpt>
      <trkpt lat="45.15923" lon="5.91603">
        <ele>2014.1</ele>
        <time>2018-04-27T08:52:45Z</time>
      </trkpt>
      <trkpt lat="45.15923" lon="5.91603">
        <ele>2016.02</ele>
        <time>2018-04-27T08:52:47Z</time>
      </trkpt>
      <trkpt lat="45.15923" lon="5.91603">
        <ele>2012.66</ele>
        <time>2018-04-27T08:52:54Z</time>
      </trkpt>
      <trkpt lat="45.15924" lon="5.91603">
        <ele>2011.22</ele>
        <time>2018-04-27T08:53:00Z</time>
      </trkpt>
      <trkpt lat="45.15923" lon="5.91603">
        <ele>2007.37</ele>
        <time>2018-04-27T08:53:03Z</time>
      </trkpt>
      <trkpt lat="45.15923" lon="5.91603">
        <ele>2007.37</ele>
        <time>2018-04-27T08:53:04Z</time>
      </trkpt>
      <trkpt lat="45.15924" lon="5.91603">
        <ele>2006.41</ele>
        <time>2018-04-27T08:53:12Z</time>
      </trkpt>
      <trkpt lat="45.15923" lon="5.91603">
        <ele>2005.93</ele>
        <time>2018-04-27T08:53:36Z</time>
      </trkpt>
      <trkpt lat="45.15924" lon="5.91603">
        <ele>2009.29</ele>
        <time>2018-04-27T08:53:47Z</time>
      </trkpt>
      <trkpt lat="45.15924" lon="5.91602">
        <ele>2004.01</ele>
        <time>2018-04-27T08:53:49Z</time>
      </trkpt>
      <trkpt lat="45.15924" lon="5.91602">
        <ele>2007.37</ele>
        <time>2018-04-27T08:53:50Z</time>
      </trkpt>
      <trkpt lat="45.15924" lon="5.91602">
        <ele>2006.89</ele>
        <time>2018-04-27T08:54:03Z</time>
      </trkpt>
      <trkpt lat="45.15924" lon="5.91602">
        <ele>2008.33</ele>
        <time>2018-04-27T08:54:11Z</time>
      </trkpt>
      <trkpt lat="45.15923" lon="5.91603">
        <ele>2006.41</ele>
        <time>2018-04-27T08:54:13Z</time>
      </trkpt>
      <trkpt lat="45.15924" lon="5.91604">
        <ele>2003.52</ele>
        <time>2018-04-27T08:54:20Z</time>
      </trkpt>
      <trkpt lat="45.15923" lon="5.91603">
        <ele>2005.93</ele>
        <time>2018-04-27T08:54:26Z</time>
      </trkpt>
      <trkpt lat="45.15924" lon="5.91602">
        <ele>2004.97</ele>
        <time>2018-04-27T08:54:55Z</time>
      </trkpt>
      <trkpt lat="45.15924" lon="5.91602">
        <ele>2006.41</ele>
        <time>2018-04-27T08:55:16Z</time>
      </trkpt>
      <trkpt lat="45.15924" lon="5.91602">
        <ele>2002.56</ele>
        <time>2018-04-27T08:55:18Z</time>
      </trkpt>
      <trkpt lat="45.15923" lon="5.91602">
        <ele>2006.41</ele>
        <time>2018-04-27T08:55:30Z</time>
      </trkpt>
      <trkpt lat="45.15923" lon="5.91602">
        <ele>2006.41</ele>
        <time>2018-04-27T08:55:31Z</time>
      </trkpt>
      <trkpt lat="45.15924" lon="5.91602">
        <ele>2004.49</ele>
        <time>2018-04-27T08:55:45Z</time>
      </trkpt>
      <trkpt lat="45.15923" lon="5.91603">
        <ele>2005.93</ele>
        <time>2018-04-27T08:55:53Z</time>
      </trkpt>
      <trkpt lat="45.15923" lon="5.91603">
        <ele>2007.85</ele>
        <time>2018-04-27T08:55:55Z</time>
      </trkpt>
      <trkpt lat="45.15923" lon="5.91603">
        <ele>2005.93</ele>
        <time>2018-04-27T08:55:57Z</time>
      </trkpt>
      <trkpt lat="45.15923" lon="5.91603">
        <ele>2004.49</ele>
        <time>2018-04-27T08:56:02Z</time>
      </trkpt>
      <trkpt lat="45.15923" lon="5.91603">
        <ele>2006.41</ele>
        <time>2018-04-27T08:56:04Z</time>
      </trkpt>
      <trkpt lat="45.15922" lon="5.91602">
        <ele>2007.37</ele>
        <time>2018-04-27T08:56:10Z</time>
      </trkpt>
      <trkpt lat="45.15923" lon="5.91602">
        <ele>2007.37</ele>
        <time>2018-04-27T08:56:46Z</time>
      </trkpt>
      <trkpt lat="45.15923" lon="5.91602">
        <ele>2002.56</ele>
        <time>2018-04-27T08:56:48Z</time>
      </trkpt>
      <trkpt lat="45.15923" lon="5.91603">
        <ele>2006.41</ele>
        <time>2018-04-27T08:56:49Z</time>
      </trkpt>
      <trkpt lat="45.15923" lon="5.91603">
        <ele>2009.29</ele>
        <time>2018-04-27T08:56:54Z</time>
      </trkpt>
      <trkpt lat="45.15923" lon="5.91603">
        <ele>2008.33</ele>
        <time>2018-04-27T08:56:58Z</time>
      </trkpt>
      <trkpt lat="45.15924" lon="5.91603">
        <ele>2009.77</ele>
        <time>2018-04-27T08:57:01Z</time>
      </trkpt>
      <trkpt lat="45.15924" lon="5.91603">
        <ele>2011.7</ele>
        <time>2018-04-27T08:57:04Z</time>
      </trkpt>
      <trkpt lat="45.15923" lon="5.91603">
        <ele>2010.25</ele>
        <time>2018-04-27T08:57:09Z</time>
      </trkpt>
      <trkpt lat="45.15924" lon="5.91604">
        <ele>2008.81</ele>
        <time>2018-04-27T08:57:17Z</time>
      </trkpt>
      <trkpt lat="45.15923" lon="5.91605">
        <ele>2012.18</ele>
        <time>2018-04-27T08:57:19Z</time>
      </trkpt>
      <trkpt lat="45.15923" lon="5.91605">
        <ele>2009.29</ele>
        <time>2018-04-27T08:57:21Z</time>
      </trkpt>
      <trkpt lat="45.15923" lon="5.91605">
        <ele>2009.29</ele>
        <time>2018-04-27T08:57:22Z</time>
      </trkpt>
      <trkpt lat="45.15924" lon="5.91604">
        <ele>2012.18</ele>
        <time>2018-04-27T08:57:27Z</time>
      </trkpt>
      <trkpt lat="45.15925" lon="5.91604">
        <ele>2012.18</ele>
        <time>2018-04-27T08:57:28Z</time>
      </trkpt>
      <trkpt lat="45.15924" lon="5.91604">
        <ele>2010.73</ele>
        <time>2018-04-27T08:57:33Z</time>
      </trkpt>
      <trkpt lat="45.15925" lon="5.91605">
        <ele>2011.22</ele>
        <time>2018-04-27T08:57:50Z</time>
      </trkpt>
      <trkpt lat="45.15924" lon="5.91605">
        <ele>2008.81</ele>
        <time>2018-04-27T08:58:00Z</time>
      </trkpt>
      <trkpt lat="45.15924" lon="5.91604">
        <ele>2010.73</ele>
        <time>2018-04-27T08:58:07Z</time>
      </trkpt>
      <trkpt lat="45.15924" lon="5.91605">
        <ele>2009.29</ele>
        <time>2018-04-27T08:58:09Z</time>
      </trkpt>
      <trkpt lat="45.15924" lon="5.91605">
        <ele>2011.7</ele>
        <time>2018-04-27T08:58:22Z</time>
      </trkpt>
      <trkpt lat="45.15924" lon="5.91605">
        <ele>2009.29</ele>
        <time>2018-04-27T08:58:25Z</time>
      </trkpt>
      <trkpt lat="45.15924" lon="5.91604">
        <ele>2012.66</ele>
        <time>2018-04-27T08:58:27Z</time>
      </trkpt>
      <trkpt lat="45.15923" lon="5.91605">
        <ele>2009.29</ele>
        <time>2018-04-27T08:58:39Z</time>
      </trkpt>
      <trkpt lat="45.15923" lon="5.91605">
        <ele>2009.29</ele>
        <time>2018-04-27T08:58:40Z</time>
      </trkpt>
      <trkpt lat="45.15923" lon="5.91605">
        <ele>2010.73</ele>
        <time>2018-04-27T08:58:42Z</time>
      </trkpt>
      <trkpt lat="45.15923" lon="5.91604">
        <ele>2013.14</ele>
        <time>2018-04-27T08:58:46Z</time>
      </trkpt>
      <trkpt lat="45.15923" lon="5.91604">
        <ele>2011.22</ele>
        <time>2018-04-27T08:58:51Z</time>
      </trkpt>
      <trkpt lat="45.15923" lon="5.91605">
        <ele>2012.66</ele>
        <time>2018-04-27T08:59:02Z</time>
      </trkpt>
      <trkpt lat="45.15923" lon="5.91606">
        <ele>2011.22</ele>
        <time>2018-04-27T08:59:05Z</time>
      </trkpt>
      <trkpt lat="45.15923" lon="5.91606">
        <ele>2012.66</ele>
        <time>2018-04-27T08:59:07Z</time>
      </trkpt>
      <trkpt lat="45.15923" lon="5.91607">
        <ele>2015.06</ele>
        <time>2018-04-27T08:59:09Z</time>
      </trkpt>
      <trkpt lat="45.15923" lon="5.91609">
        <ele>2013.62</ele>
        <time>2018-04-27T08:59:11Z</time>
      </trkpt>
      <trkpt lat="45.15923" lon="5.91611">
        <ele>2017.94</ele>
        <time>2018-04-27T08:59:14Z</time>
      </trkpt>
      <trkpt lat="45.15924" lon="5.91611">
        <ele>2017.94</ele>
        <time>2018-04-27T08:59:15Z</time>
      </trkpt>
      <trkpt lat="45.15925" lon="5.91621">
        <ele>2016.98</ele>
        <time>2018-04-27T08:59:29Z</time>
      </trkpt>
      <trkpt lat="45.15925" lon="5.91621">
        <ele>2017.94</ele>
        <time>2018-04-27T08:59:34Z</time>
      </trkpt>
      <trkpt lat="45.15927" lon="5.91631">
        <ele>2019.87</ele>
        <time>2018-04-27T08:59:45Z</time>
      </trkpt>
      <trkpt lat="45.15928" lon="5.91637">
        <ele>2023.71</ele>
        <time>2018-04-27T08:59:52Z</time>
      </trkpt>
      <trkpt lat="45.15928" lon="5.91639">
        <ele>2025.64</ele>
        <time>2018-04-27T08:59:54Z</time>
      </trkpt>
      <trkpt lat="45.15928" lon="5.9164">
        <ele>2022.27</ele>
        <time>2018-04-27T08:59:56Z</time>
      </trkpt>
      <trkpt lat="45.15929" lon="5.91641">
        <ele>2020.35</ele>
        <time>2018-04-27T08:59:59Z</time>
      </trkpt>
      <trkpt lat="45.15929" lon="5.91641">
        <ele>2018.43</ele>
        <time>2018-04-27T09:00:03Z</time>
      </trkpt>
      <trkpt lat="45.15928" lon="5.91641">
        <ele>2022.27</ele>
        <time>2018-04-27T09:00:04Z</time>
      </trkpt>
      <trkpt lat="45.15928" lon="5.91641">
        <ele>2022.27</ele>
        <time>2018-04-27T09:00:05Z</time>
      </trkpt>
      <trkpt lat="45.15928" lon="5.91641">
        <ele>2017.94</ele>
        <time>2018-04-27T09:00:08Z</time>
      </trkpt>
      <trkpt lat="45.15928" lon="5.91641">
        <ele>2020.83</ele>
        <time>2018-04-27T09:00:09Z</time>
      </trkpt>
      <trkpt lat="45.15929" lon="5.91647">
        <ele>2020.35</ele>
        <time>2018-04-27T09:00:17Z</time>
      </trkpt>
      <trkpt lat="45.1593" lon="5.91652">
        <ele>2021.79</ele>
        <time>2018-04-27T09:00:23Z</time>
      </trkpt>
      <trkpt lat="45.1593" lon="5.91654">
        <ele>2023.23</ele>
        <time>2018-04-27T09:00:27Z</time>
      </trkpt>
      <trkpt lat="45.15932" lon="5.9166">
        <ele>2026.12</ele>
        <time>2018-04-27T09:00:33Z</time>
      </trkpt>
      <trkpt lat="45.15933" lon="5.91671">
        <ele>2028.52</ele>
        <time>2018-04-27T09:00:49Z</time>
      </trkpt>
      <trkpt lat="45.15935" lon="5.91679">
        <ele>2028.04</ele>
        <time>2018-04-27T09:00:58Z</time>
      </trkpt>
      <trkpt lat="45.15936" lon="5.91682">
        <ele>2029</ele>
        <time>2018-04-27T09:01:03Z</time>
      </trkpt>
      <trkpt lat="45.1594" lon="5.91692">
        <ele>2030.44</ele>
        <time>2018-04-27T09:01:16Z</time>
      </trkpt>
      <trkpt lat="45.1594" lon="5.91703">
        <ele>2031.4</ele>
        <time>2018-04-27T09:01:32Z</time>
      </trkpt>
      <trkpt lat="45.15941" lon="5.91709">
        <ele>2033.81</ele>
        <time>2018-04-27T09:01:42Z</time>
      </trkpt>
      <trkpt lat="45.15941" lon="5.91711">
        <ele>2035.25</ele>
        <time>2018-04-27T09:01:46Z</time>
      </trkpt>
      <trkpt lat="45.15943" lon="5.91719">
        <ele>2033.81</ele>
        <time>2018-04-27T09:01:58Z</time>
      </trkpt>
      <trkpt lat="45.15944" lon="5.91727">
        <ele>2035.73</ele>
        <time>2018-04-27T09:02:11Z</time>
      </trkpt>
      <trkpt lat="45.15945" lon="5.91728">
        <ele>2038.61</ele>
        <time>2018-04-27T09:02:16Z</time>
      </trkpt>
      <trkpt lat="45.15946" lon="5.91729">
        <ele>2038.61</ele>
        <time>2018-04-27T09:02:17Z</time>
      </trkpt>
      <trkpt lat="45.15948" lon="5.91737">
        <ele>2042.46</ele>
        <time>2018-04-27T09:02:29Z</time>
      </trkpt>
      <trkpt lat="45.15948" lon="5.91739">
        <ele>2044.86</ele>
        <time>2018-04-27T09:02:31Z</time>
      </trkpt>
      <trkpt lat="45.15948" lon="5.9174">
        <ele>2042.46</ele>
        <time>2018-04-27T09:02:33Z</time>
      </trkpt>
      <trkpt lat="45.15948" lon="5.91743">
        <ele>2040.54</ele>
        <time>2018-04-27T09:02:37Z</time>
      </trkpt>
      <trkpt lat="45.15951" lon="5.91752">
        <ele>2041.98</ele>
        <time>2018-04-27T09:02:49Z</time>
      </trkpt>
      <trkpt lat="45.15952" lon="5.91755">
        <ele>2045.34</ele>
        <time>2018-04-27T09:02:55Z</time>
      </trkpt>
      <trkpt lat="45.15952" lon="5.91757">
        <ele>2047.75</ele>
        <time>2018-04-27T09:02:57Z</time>
      </trkpt>
      <trkpt lat="45.15952" lon="5.91757">
        <ele>2042.46</ele>
        <time>2018-04-27T09:02:58Z</time>
      </trkpt>
      <trkpt lat="45.15952" lon="5.91758">
        <ele>2042.46</ele>
        <time>2018-04-27T09:02:59Z</time>
      </trkpt>
      <trkpt lat="45.15953" lon="5.91764">
        <ele>2045.82</ele>
        <time>2018-04-27T09:03:07Z</time>
      </trkpt>
      <trkpt lat="45.15954" lon="5.91771">
        <ele>2047.26</ele>
        <time>2018-04-27T09:03:18Z</time>
      </trkpt>
      <trkpt lat="45.15956" lon="5.91778">
        <ele>2046.78</ele>
        <time>2018-04-27T09:03:27Z</time>
      </trkpt>
      <trkpt lat="45.15957" lon="5.91781">
        <ele>2049.67</ele>
        <time>2018-04-27T09:03:31Z</time>
      </trkpt>
      <trkpt lat="45.15956" lon="5.91789">
        <ele>2047.75</ele>
        <time>2018-04-27T09:03:42Z</time>
      </trkpt>
      <trkpt lat="45.15956" lon="5.9179">
        <ele>2049.67</ele>
        <time>2018-04-27T09:03:44Z</time>
      </trkpt>
      <trkpt lat="45.15955" lon="5.91794">
        <ele>2053.03</ele>
        <time>2018-04-27T09:03:52Z</time>
      </trkpt>
      <trkpt lat="45.15953" lon="5.91804">
        <ele>2054.47</ele>
        <time>2018-04-27T09:04:05Z</time>
      </trkpt>
      <trkpt lat="45.15952" lon="5.91811">
        <ele>2058.32</ele>
        <time>2018-04-27T09:04:16Z</time>
      </trkpt>
      <trkpt lat="45.15952" lon="5.91812">
        <ele>2058.8</ele>
        <time>2018-04-27T09:04:17Z</time>
      </trkpt>
      <trkpt lat="45.15951" lon="5.91814">
        <ele>2055.92</ele>
        <time>2018-04-27T09:04:20Z</time>
      </trkpt>
      <trkpt lat="45.15949" lon="5.91823">
        <ele>2055.92</ele>
        <time>2018-04-27T09:04:33Z</time>
      </trkpt>
      <trkpt lat="45.15949" lon="5.91825">
        <ele>2057.36</ele>
        <time>2018-04-27T09:04:35Z</time>
      </trkpt>
      <trkpt lat="45.15947" lon="5.91835">
        <ele>2059.28</ele>
        <time>2018-04-27T09:04:49Z</time>
      </trkpt>
      <trkpt lat="45.15945" lon="5.91847">
        <ele>2062.17</ele>
        <time>2018-04-27T09:05:06Z</time>
      </trkpt>
      <trkpt lat="45.15944" lon="5.91856">
        <ele>2066.01</ele>
        <time>2018-04-27T09:05:19Z</time>
      </trkpt>
      <trkpt lat="45.15941" lon="5.91866">
        <ele>2067.45</ele>
        <time>2018-04-27T09:05:33Z</time>
      </trkpt>
      <trkpt lat="45.15939" lon="5.91872">
        <ele>2068.89</ele>
        <time>2018-04-27T09:05:40Z</time>
      </trkpt>
      <trkpt lat="45.15935" lon="5.91883">
        <ele>2072.74</ele>
        <time>2018-04-27T09:05:58Z</time>
      </trkpt>
      <trkpt lat="45.15934" lon="5.91885">
        <ele>2074.66</ele>
        <time>2018-04-27T09:06:01Z</time>
      </trkpt>
      <trkpt lat="45.15932" lon="5.91896">
        <ele>2077.07</ele>
        <time>2018-04-27T09:06:12Z</time>
      </trkpt>
      <trkpt lat="45.15932" lon="5.919">
        <ele>2079.47</ele>
        <time>2018-04-27T09:06:17Z</time>
      </trkpt>
      <trkpt lat="45.15932" lon="5.91905">
        <ele>2077.55</ele>
        <time>2018-04-27T09:06:24Z</time>
      </trkpt>
      <trkpt lat="45.15933" lon="5.91916">
        <ele>2081.87</ele>
        <time>2018-04-27T09:06:38Z</time>
      </trkpt>
      <trkpt lat="45.15936" lon="5.91926">
        <ele>2082.83</ele>
        <time>2018-04-27T09:06:51Z</time>
      </trkpt>
      <trkpt lat="45.15936" lon="5.91927">
        <ele>2081.39</ele>
        <time>2018-04-27T09:06:53Z</time>
      </trkpt>
      <trkpt lat="45.15939" lon="5.91935">
        <ele>2082.83</ele>
        <time>2018-04-27T09:07:04Z</time>
      </trkpt>
      <trkpt lat="45.15943" lon="5.91943">
        <ele>2084.28</ele>
        <time>2018-04-27T09:07:18Z</time>
      </trkpt>
      <trkpt lat="45.15945" lon="5.91951">
        <ele>2086.68</ele>
        <time>2018-04-27T09:07:27Z</time>
      </trkpt>
      <trkpt lat="45.15945" lon="5.91953">
        <ele>2090.04</ele>
        <time>2018-04-27T09:07:31Z</time>
      </trkpt>
      <trkpt lat="45.15945" lon="5.91954">
        <ele>2091</ele>
        <time>2018-04-27T09:07:33Z</time>
      </trkpt>
      <trkpt lat="45.15946" lon="5.91956">
        <ele>2093.89</ele>
        <time>2018-04-27T09:07:36Z</time>
      </trkpt>
      <trkpt lat="45.15946" lon="5.91958">
        <ele>2092.93</ele>
        <time>2018-04-27T09:07:40Z</time>
      </trkpt>
      <trkpt lat="45.15949" lon="5.91966">
        <ele>2094.85</ele>
        <time>2018-04-27T09:07:51Z</time>
      </trkpt>
      <trkpt lat="45.15949" lon="5.91967">
        <ele>2093.89</ele>
        <time>2018-04-27T09:07:52Z</time>
      </trkpt>
      <trkpt lat="45.15953" lon="5.91976">
        <ele>2092.45</ele>
        <time>2018-04-27T09:08:04Z</time>
      </trkpt>
      <trkpt lat="45.15954" lon="5.91978">
        <ele>2093.89</ele>
        <time>2018-04-27T09:08:07Z</time>
      </trkpt>
      <trkpt lat="45.15957" lon="5.91985">
        <ele>2097.25</ele>
        <time>2018-04-27T09:08:18Z</time>
      </trkpt>
      <trkpt lat="45.15958" lon="5.91986">
        <ele>2098.21</ele>
        <time>2018-04-27T09:08:20Z</time>
      </trkpt>
      <trkpt lat="45.15958" lon="5.91987">
        <ele>2096.77</ele>
        <time>2018-04-27T09:08:23Z</time>
      </trkpt>
      <trkpt lat="45.15958" lon="5.91988">
        <ele>2097.73</ele>
        <time>2018-04-27T09:08:25Z</time>
      </trkpt>
      <trkpt lat="45.15962" lon="5.91995">
        <ele>2099.66</ele>
        <time>2018-04-27T09:08:33Z</time>
      </trkpt>
      <trkpt lat="45.15967" lon="5.92005">
        <ele>2100.14</ele>
        <time>2018-04-27T09:08:49Z</time>
      </trkpt>
      <trkpt lat="45.15968" lon="5.92008">
        <ele>2102.06</ele>
        <time>2018-04-27T09:08:55Z</time>
      </trkpt>
      <trkpt lat="45.15969" lon="5.92012">
        <ele>2099.66</ele>
        <time>2018-04-27T09:09:01Z</time>
      </trkpt>
      <trkpt lat="45.15975" lon="5.92015">
        <ele>2102.06</ele>
        <time>2018-04-27T09:09:13Z</time>
      </trkpt>
      <trkpt lat="45.15977" lon="5.92016">
        <ele>2105.42</ele>
        <time>2018-04-27T09:09:18Z</time>
      </trkpt>
      <trkpt lat="45.15978" lon="5.92016">
        <ele>2107.83</ele>
        <time>2018-04-27T09:09:22Z</time>
      </trkpt>
      <trkpt lat="45.15985" lon="5.92018">
        <ele>2109.75</ele>
        <time>2018-04-27T09:09:35Z</time>
      </trkpt>
      <trkpt lat="45.15988" lon="5.92018">
        <ele>2109.75</ele>
        <time>2018-04-27T09:09:48Z</time>
      </trkpt>
      <trkpt lat="45.15992" lon="5.92019">
        <ele>2110.71</ele>
        <time>2018-04-27T09:10:01Z</time>
      </trkpt>
      <trkpt lat="45.15997" lon="5.92016">
        <ele>2113.12</ele>
        <time>2018-04-27T09:10:12Z</time>
      </trkpt>
      <trkpt lat="45.16003" lon="5.92012">
        <ele>2116.48</ele>
        <time>2018-04-27T09:10:23Z</time>
      </trkpt>
      <trkpt lat="45.16006" lon="5.92007">
        <ele>2119.84</ele>
        <time>2018-04-27T09:10:34Z</time>
      </trkpt>
      <trkpt lat="45.16011" lon="5.92007">
        <ele>2122.73</ele>
        <time>2018-04-27T09:10:46Z</time>
      </trkpt>
      <trkpt lat="45.16013" lon="5.92007">
        <ele>2126.09</ele>
        <time>2018-04-27T09:10:54Z</time>
      </trkpt>
      <trkpt lat="45.16019" lon="5.92005">
        <ele>2129.94</ele>
        <time>2018-04-27T09:11:07Z</time>
      </trkpt>
      <trkpt lat="45.1602" lon="5.92005">
        <ele>2129.94</ele>
        <time>2018-04-27T09:11:08Z</time>
      </trkpt>
      <trkpt lat="45.16025" lon="5.92004">
        <ele>2129.94</ele>
        <time>2018-04-27T09:11:20Z</time>
      </trkpt>
      <trkpt lat="45.16031" lon="5.92002">
        <ele>2132.82</ele>
        <time>2018-04-27T09:11:33Z</time>
      </trkpt>
      <trkpt lat="45.16034" lon="5.92">
        <ele>2135.71</ele>
        <time>2018-04-27T09:11:41Z</time>
      </trkpt>
      <trkpt lat="45.1604" lon="5.91999">
        <ele>2137.15</ele>
        <time>2018-04-27T09:11:53Z</time>
      </trkpt>
      <trkpt lat="45.16046" lon="5.91997">
        <ele>2140.03</ele>
        <time>2018-04-27T09:12:06Z</time>
      </trkpt>
      <trkpt lat="45.16048" lon="5.91997">
        <ele>2141.47</ele>
        <time>2018-04-27T09:12:08Z</time>
      </trkpt>
      <trkpt lat="45.1605" lon="5.91997">
        <ele>2139.07</ele>
        <time>2018-04-27T09:12:21Z</time>
      </trkpt>
      <trkpt lat="45.16049" lon="5.92001">
        <ele>2142.92</ele>
        <time>2018-04-27T09:12:28Z</time>
      </trkpt>
      <trkpt lat="45.16049" lon="5.92002">
        <ele>2143.88</ele>
        <time>2018-04-27T09:12:30Z</time>
      </trkpt>
      <trkpt lat="45.1605" lon="5.92004">
        <ele>2149.16</ele>
        <time>2018-04-27T09:12:33Z</time>
      </trkpt>
      <trkpt lat="45.1605" lon="5.92004">
        <ele>2147.72</ele>
        <time>2018-04-27T09:12:34Z</time>
      </trkpt>
      <trkpt lat="45.1605" lon="5.92004">
        <ele>2149.16</ele>
        <time>2018-04-27T09:12:39Z</time>
      </trkpt>
      <trkpt lat="45.16049" lon="5.92004">
        <ele>2145.32</ele>
        <time>2018-04-27T09:12:42Z</time>
      </trkpt>
      <trkpt lat="45.16049" lon="5.92004">
        <ele>2145.8</ele>
        <time>2018-04-27T09:12:43Z</time>
      </trkpt>
      <trkpt lat="45.16049" lon="5.92004">
        <ele>2142.92</ele>
        <time>2018-04-27T09:12:46Z</time>
      </trkpt>
      <trkpt lat="45.16049" lon="5.92005">
        <ele>2146.28</ele>
        <time>2018-04-27T09:12:48Z</time>
      </trkpt>
      <trkpt lat="45.1605" lon="5.92006">
        <ele>2146.28</ele>
        <time>2018-04-27T09:12:49Z</time>
      </trkpt>
      <trkpt lat="45.1605" lon="5.92008">
        <ele>2153.01</ele>
        <time>2018-04-27T09:12:54Z</time>
      </trkpt>
      <trkpt lat="45.16049" lon="5.9201">
        <ele>2147.24</ele>
        <time>2018-04-27T09:12:58Z</time>
      </trkpt>
      <trkpt lat="45.1605" lon="5.92017">
        <ele>2142.92</ele>
        <time>2018-04-27T09:13:09Z</time>
      </trkpt>
      <trkpt lat="45.1605" lon="5.9202">
        <ele>2146.28</ele>
        <time>2018-04-27T09:13:13Z</time>
      </trkpt>
      <trkpt lat="45.16051" lon="5.92023">
        <ele>2147.72</ele>
        <time>2018-04-27T09:13:19Z</time>
      </trkpt>
      <trkpt lat="45.16051" lon="5.92025">
        <ele>2152.05</ele>
        <time>2018-04-27T09:13:23Z</time>
      </trkpt>
      <trkpt lat="45.16051" lon="5.92025">
        <ele>2152.53</ele>
        <time>2018-04-27T09:13:24Z</time>
      </trkpt>
      <trkpt lat="45.16051" lon="5.92028">
        <ele>2156.37</ele>
        <time>2018-04-27T09:13:28Z</time>
      </trkpt>
      <trkpt lat="45.16051" lon="5.92032">
        <ele>2151.09</ele>
        <time>2018-04-27T09:13:35Z</time>
      </trkpt>
      <trkpt lat="45.16051" lon="5.92035">
        <ele>2153.97</ele>
        <time>2018-04-27T09:13:39Z</time>
      </trkpt>
      <trkpt lat="45.16052" lon="5.92037">
        <ele>2152.05</ele>
        <time>2018-04-27T09:13:43Z</time>
      </trkpt>
      <trkpt lat="45.16052" lon="5.92041">
        <ele>2150.61</ele>
        <time>2018-04-27T09:13:48Z</time>
      </trkpt>
      <trkpt lat="45.16053" lon="5.92045">
        <ele>2150.61</ele>
        <time>2018-04-27T09:13:58Z</time>
      </trkpt>
      <trkpt lat="45.16055" lon="5.92053">
        <ele>2152.53</ele>
        <time>2018-04-27T09:14:12Z</time>
      </trkpt>
      <trkpt lat="45.16056" lon="5.92053">
        <ele>2152.53</ele>
        <time>2018-04-27T09:14:13Z</time>
      </trkpt>
      <trkpt lat="45.16057" lon="5.9206">
        <ele>2154.45</ele>
        <time>2018-04-27T09:14:28Z</time>
      </trkpt>
      <trkpt lat="45.16058" lon="5.92065">
        <ele>2158.3</ele>
        <time>2018-04-27T09:14:37Z</time>
      </trkpt>
      <trkpt lat="45.16058" lon="5.92067">
        <ele>2158.3</ele>
        <time>2018-04-27T09:14:38Z</time>
      </trkpt>
      <trkpt lat="45.16059" lon="5.92068">
        <ele>2159.74</ele>
        <time>2018-04-27T09:14:43Z</time>
      </trkpt>
      <trkpt lat="45.16059" lon="5.92071">
        <ele>2158.78</ele>
        <time>2018-04-27T09:14:48Z</time>
      </trkpt>
      <trkpt lat="45.1606" lon="5.92072">
        <ele>2160.22</ele>
        <time>2018-04-27T09:14:50Z</time>
      </trkpt>
      <trkpt lat="45.1606" lon="5.92074">
        <ele>2162.14</ele>
        <time>2018-04-27T09:14:53Z</time>
      </trkpt>
      <trkpt lat="45.1606" lon="5.92076">
        <ele>2164.06</ele>
        <time>2018-04-27T09:14:56Z</time>
      </trkpt>
      <trkpt lat="45.1606" lon="5.92077">
        <ele>2162.62</ele>
        <time>2018-04-27T09:14:58Z</time>
      </trkpt>
      <trkpt lat="45.16061" lon="5.92077">
        <ele>2164.06</ele>
        <time>2018-04-27T09:15:02Z</time>
      </trkpt>
      <trkpt lat="45.16061" lon="5.92077">
        <ele>2166.95</ele>
        <time>2018-04-27T09:15:03Z</time>
      </trkpt>
      <trkpt lat="45.16063" lon="5.92078">
        <ele>2169.35</ele>
        <time>2018-04-27T09:15:05Z</time>
      </trkpt>
      <trkpt lat="45.16062" lon="5.92083">
        <ele>2169.83</ele>
        <time>2018-04-27T09:15:11Z</time>
      </trkpt>
      <trkpt lat="45.16063" lon="5.92085">
        <ele>2166.47</ele>
        <time>2018-04-27T09:15:14Z</time>
      </trkpt>
      <trkpt lat="45.16063" lon="5.9209">
        <ele>2168.87</ele>
        <time>2018-04-27T09:15:23Z</time>
      </trkpt>
      <trkpt lat="45.16064" lon="5.92089">
        <ele>2167.43</ele>
        <time>2018-04-27T09:15:30Z</time>
      </trkpt>
      <trkpt lat="45.16064" lon="5.9209">
        <ele>2170.31</ele>
        <time>2018-04-27T09:15:33Z</time>
      </trkpt>
      <trkpt lat="45.16064" lon="5.9209">
        <ele>2170.31</ele>
        <time>2018-04-27T09:15:34Z</time>
      </trkpt>
      <trkpt lat="45.16063" lon="5.9209">
        <ele>2166.95</ele>
        <time>2018-04-27T09:15:38Z</time>
      </trkpt>
      <trkpt lat="45.16062" lon="5.92091">
        <ele>2166.95</ele>
        <time>2018-04-27T09:15:39Z</time>
      </trkpt>
      <trkpt lat="45.16063" lon="5.92094">
        <ele>2169.83</ele>
        <time>2018-04-27T09:15:54Z</time>
      </trkpt>
      <trkpt lat="45.16063" lon="5.92095">
        <ele>2169.83</ele>
        <time>2018-04-27T09:15:55Z</time>
      </trkpt>
      <trkpt lat="45.16064" lon="5.92095">
        <ele>2166.47</ele>
        <time>2018-04-27T09:15:59Z</time>
      </trkpt>
      <trkpt lat="45.16069" lon="5.92089">
        <ele>2167.43</ele>
        <time>2018-04-27T09:16:10Z</time>
      </trkpt>
      <trkpt lat="45.1607" lon="5.92089">
        <ele>2168.87</ele>
        <time>2018-04-27T09:16:12Z</time>
      </trkpt>
      <trkpt lat="45.16073" lon="5.92086">
        <ele>2172.24</ele>
        <time>2018-04-27T09:16:22Z</time>
      </trkpt>
      <trkpt lat="45.16079" lon="5.92079">
        <ele>2175.6</ele>
        <time>2018-04-27T09:16:36Z</time>
      </trkpt>
      <trkpt lat="45.16081" lon="5.92077">
        <ele>2177.04</ele>
        <time>2018-04-27T09:16:39Z</time>
      </trkpt>
      <trkpt lat="45.16084" lon="5.92076">
        <ele>2175.6</ele>
        <time>2018-04-27T09:16:44Z</time>
      </trkpt>
      <trkpt lat="45.16085" lon="5.92075">
        <ele>2176.56</ele>
        <time>2018-04-27T09:16:47Z</time>
      </trkpt>
      <trkpt lat="45.16084" lon="5.92077">
        <ele>2179.93</ele>
        <time>2018-04-27T09:16:53Z</time>
      </trkpt>
      <trkpt lat="45.16084" lon="5.92078">
        <ele>2179.93</ele>
        <time>2018-04-27T09:16:54Z</time>
      </trkpt>
      <trkpt lat="45.16083" lon="5.9208">
        <ele>2180.89</ele>
        <time>2018-04-27T09:16:56Z</time>
      </trkpt>
      <trkpt lat="45.16083" lon="5.92082">
        <ele>2178</ele>
        <time>2018-04-27T09:17:01Z</time>
      </trkpt>
      <trkpt lat="45.16083" lon="5.92082">
        <ele>2178</ele>
        <time>2018-04-27T09:17:02Z</time>
      </trkpt>
      <trkpt lat="45.16083" lon="5.92085">
        <ele>2181.85</ele>
        <time>2018-04-27T09:17:06Z</time>
      </trkpt>
      <trkpt lat="45.16083" lon="5.92086">
        <ele>2181.85</ele>
        <time>2018-04-27T09:17:07Z</time>
      </trkpt>
      <trkpt lat="45.16082" lon="5.92088">
        <ele>2186.18</ele>
        <time>2018-04-27T09:17:11Z</time>
      </trkpt>
      <trkpt lat="45.16082" lon="5.92089">
        <ele>2186.18</ele>
        <time>2018-04-27T09:17:12Z</time>
      </trkpt>
      <trkpt lat="45.16082" lon="5.92091">
        <ele>2189.54</ele>
        <time>2018-04-27T09:17:16Z</time>
      </trkpt>
      <trkpt lat="45.16081" lon="5.92092">
        <ele>2190.02</ele>
        <time>2018-04-27T09:17:18Z</time>
      </trkpt>
      <trkpt lat="45.16081" lon="5.921">
        <ele>2188.58</ele>
        <time>2018-04-27T09:17:30Z</time>
      </trkpt>
      <trkpt lat="45.16081" lon="5.92101">
        <ele>2184.25</ele>
        <time>2018-04-27T09:17:32Z</time>
      </trkpt>
      <trkpt lat="45.16082" lon="5.92102">
        <ele>2183.29</ele>
        <time>2018-04-27T09:17:34Z</time>
      </trkpt>
      <trkpt lat="45.16083" lon="5.92098">
        <ele>2180.41</ele>
        <time>2018-04-27T09:17:39Z</time>
      </trkpt>
      <trkpt lat="45.16084" lon="5.92098">
        <ele>2182.81</ele>
        <time>2018-04-27T09:17:47Z</time>
      </trkpt>
      <trkpt lat="45.16085" lon="5.92099">
        <ele>2185.69</ele>
        <time>2018-04-27T09:17:55Z</time>
      </trkpt>
      <trkpt lat="45.16086" lon="5.92098">
        <ele>2187.14</ele>
        <time>2018-04-27T09:17:57Z</time>
      </trkpt>
      <trkpt lat="45.16086" lon="5.92098">
        <ele>2190.02</ele>
        <time>2018-04-27T09:18:01Z</time>
      </trkpt>
      <trkpt lat="45.16087" lon="5.92098">
        <ele>2187.62</ele>
        <time>2018-04-27T09:18:04Z</time>
      </trkpt>
      <trkpt lat="45.16089" lon="5.92097">
        <ele>2189.06</ele>
        <time>2018-04-27T09:18:08Z</time>
      </trkpt>
      <trkpt lat="45.16091" lon="5.92094">
        <ele>2190.98</ele>
        <time>2018-04-27T09:18:16Z</time>
      </trkpt>
      <trkpt lat="45.16088" lon="5.92086">
        <ele>2187.62</ele>
        <time>2018-04-27T09:18:23Z</time>
      </trkpt>
      <trkpt lat="45.16089" lon="5.92089">
        <ele>2188.1</ele>
        <time>2018-04-27T09:18:32Z</time>
      </trkpt>
      <trkpt lat="45.16088" lon="5.92087">
        <ele>2184.73</ele>
        <time>2018-04-27T09:18:35Z</time>
      </trkpt>
      <trkpt lat="45.16088" lon="5.92087">
        <ele>2188.1</ele>
        <time>2018-04-27T09:18:37Z</time>
      </trkpt>
      <trkpt lat="45.16088" lon="5.92088">
        <ele>2185.69</ele>
        <time>2018-04-27T09:18:41Z</time>
      </trkpt>
      <trkpt lat="45.16092" lon="5.92091">
        <ele>2183.77</ele>
        <time>2018-04-27T09:18:47Z</time>
      </trkpt>
      <trkpt lat="45.16095" lon="5.92087">
        <ele>2188.1</ele>
        <time>2018-04-27T09:18:54Z</time>
      </trkpt>
      <trkpt lat="45.16096" lon="5.92087">
        <ele>2188.1</ele>
        <time>2018-04-27T09:18:55Z</time>
      </trkpt>
      <trkpt lat="45.16096" lon="5.92089">
        <ele>2192.42</ele>
        <time>2018-04-27T09:19:07Z</time>
      </trkpt>
      <trkpt lat="45.16096" lon="5.92089">
        <ele>2192.42</ele>
        <time>2018-04-27T09:19:08Z</time>
      </trkpt>
      <trkpt lat="45.16096" lon="5.92091">
        <ele>2189.06</ele>
        <time>2018-04-27T09:19:15Z</time>
      </trkpt>
      <trkpt lat="45.16096" lon="5.92091">
        <ele>2189.06</ele>
        <time>2018-04-27T09:19:16Z</time>
      </trkpt>
      <trkpt lat="45.161" lon="5.92091">
        <ele>2187.62</ele>
        <time>2018-04-27T09:19:23Z</time>
      </trkpt>
      <trkpt lat="45.16102" lon="5.92089">
        <ele>2189.54</ele>
        <time>2018-04-27T09:19:28Z</time>
      </trkpt>
      <trkpt lat="45.16105" lon="5.92087">
        <ele>2188.58</ele>
        <time>2018-04-27T09:19:34Z</time>
      </trkpt>
      <trkpt lat="45.16106" lon="5.92087">
        <ele>2190.02</ele>
        <time>2018-04-27T09:19:37Z</time>
      </trkpt>
      <trkpt lat="45.16109" lon="5.92086">
        <ele>2187.14</ele>
        <time>2018-04-27T09:19:48Z</time>
      </trkpt>
      <trkpt lat="45.1611" lon="5.92087">
        <ele>2186.18</ele>
        <time>2018-04-27T09:19:50Z</time>
      </trkpt>
      <trkpt lat="45.1611" lon="5.92087">
        <ele>2189.06</ele>
        <time>2018-04-27T09:20:04Z</time>
      </trkpt>
      <trkpt lat="45.1611" lon="5.92087">
        <ele>2186.66</ele>
        <time>2018-04-27T09:20:07Z</time>
      </trkpt>
      <trkpt lat="45.16111" lon="5.92087">
        <ele>2187.62</ele>
        <time>2018-04-27T09:20:14Z</time>
      </trkpt>
      <trkpt lat="45.16111" lon="5.92087">
        <ele>2186.18</ele>
        <time>2018-04-27T09:20:16Z</time>
      </trkpt>
      <trkpt lat="45.16111" lon="5.92087">
        <ele>2187.14</ele>
        <time>2018-04-27T09:20:23Z</time>
      </trkpt>
      <trkpt lat="45.16112" lon="5.92086">
        <ele>2184.73</ele>
        <time>2018-04-27T09:20:28Z</time>
      </trkpt>
      <trkpt lat="45.16112" lon="5.92087">
        <ele>2183.29</ele>
        <time>2018-04-27T09:20:30Z</time>
      </trkpt>
      <trkpt lat="45.16111" lon="5.92087">
        <ele>2185.21</ele>
        <time>2018-04-27T09:20:40Z</time>
      </trkpt>
      <trkpt lat="45.1611" lon="5.92086">
        <ele>2184.25</ele>
        <time>2018-04-27T09:20:53Z</time>
      </trkpt>
      <trkpt lat="45.16111" lon="5.92086">
        <ele>2185.69</ele>
        <time>2018-04-27T09:21:01Z</time>
      </trkpt>
      <trkpt lat="45.16111" lon="5.92086">
        <ele>2183.29</ele>
        <time>2018-04-27T09:21:04Z</time>
      </trkpt>
      <trkpt lat="45.16111" lon="5.92086">
        <ele>2184.25</ele>
        <time>2018-04-27T09:21:16Z</time>
      </trkpt>
      <trkpt lat="45.16112" lon="5.92086">
        <ele>2182.33</ele>
        <time>2018-04-27T09:21:18Z</time>
      </trkpt>
      <trkpt lat="45.16112" lon="5.92086">
        <ele>2183.77</ele>
        <time>2018-04-27T09:21:37Z</time>
      </trkpt>
      <trkpt lat="45.16112" lon="5.92086">
        <ele>2181.85</ele>
        <time>2018-04-27T09:21:39Z</time>
      </trkpt>
      <trkpt lat="45.16111" lon="5.92087">
        <ele>2184.73</ele>
        <time>2018-04-27T09:21:44Z</time>
      </trkpt>
      <trkpt lat="45.16112" lon="5.92087">
        <ele>2184.25</ele>
        <time>2018-04-27T09:21:54Z</time>
      </trkpt>
      <trkpt lat="45.16114" lon="5.92086">
        <ele>2184.73</ele>
        <time>2018-04-27T09:22:15Z</time>
      </trkpt>
      <trkpt lat="45.16116" lon="5.92087">
        <ele>2187.62</ele>
        <time>2018-04-27T09:22:35Z</time>
      </trkpt>
      <trkpt lat="45.16121" lon="5.92087">
        <ele>2188.1</ele>
        <time>2018-04-27T09:22:47Z</time>
      </trkpt>
      <trkpt lat="45.16126" lon="5.92088">
        <ele>2190.98</ele>
        <time>2018-04-27T09:22:59Z</time>
      </trkpt>
      <trkpt lat="45.16134" lon="5.9209">
        <ele>2190.98</ele>
        <time>2018-04-27T09:23:15Z</time>
      </trkpt>
      <trkpt lat="45.1614" lon="5.9209">
        <ele>2191.94</ele>
        <time>2018-04-27T09:23:28Z</time>
      </trkpt>
      <trkpt lat="45.16143" lon="5.92091">
        <ele>2193.87</ele>
        <time>2018-04-27T09:23:39Z</time>
      </trkpt>
      <trkpt lat="45.16147" lon="5.92091">
        <ele>2196.27</ele>
        <time>2018-04-27T09:23:46Z</time>
      </trkpt>
      <trkpt lat="45.16149" lon="5.92091">
        <ele>2196.75</ele>
        <time>2018-04-27T09:23:48Z</time>
      </trkpt>
      <trkpt lat="45.16153" lon="5.92091">
        <ele>2197.71</ele>
        <time>2018-04-27T09:24:01Z</time>
      </trkpt>
      <trkpt lat="45.16157" lon="5.92092">
        <ele>2197.23</ele>
        <time>2018-04-27T09:24:10Z</time>
      </trkpt>
      <trkpt lat="45.16158" lon="5.92093">
        <ele>2202.04</ele>
        <time>2018-04-27T09:24:12Z</time>
      </trkpt>
      <trkpt lat="45.16158" lon="5.92093">
        <ele>2202.04</ele>
        <time>2018-04-27T09:24:13Z</time>
      </trkpt>
      <trkpt lat="45.16162" lon="5.92095">
        <ele>2199.15</ele>
        <time>2018-04-27T09:24:22Z</time>
      </trkpt>
      <trkpt lat="45.16163" lon="5.92095">
        <ele>2201.56</ele>
        <time>2018-04-27T09:24:26Z</time>
      </trkpt>
      <trkpt lat="45.16163" lon="5.92095">
        <ele>2199.15</ele>
        <time>2018-04-27T09:24:33Z</time>
      </trkpt>
      <trkpt lat="45.16163" lon="5.92095">
        <ele>2200.59</ele>
        <time>2018-04-27T09:24:35Z</time>
      </trkpt>
      <trkpt lat="45.16169" lon="5.92099">
        <ele>2202.52</ele>
        <time>2018-04-27T09:24:48Z</time>
      </trkpt>
      <trkpt lat="45.16171" lon="5.921">
        <ele>2203.96</ele>
        <time>2018-04-27T09:24:52Z</time>
      </trkpt>
      <trkpt lat="45.16171" lon="5.92101">
        <ele>2202.04</ele>
        <time>2018-04-27T09:24:54Z</time>
      </trkpt>
      <trkpt lat="45.16172" lon="5.92102">
        <ele>2203.48</ele>
        <time>2018-04-27T09:24:56Z</time>
      </trkpt>
      <trkpt lat="45.16173" lon="5.92103">
        <ele>2205.4</ele>
        <time>2018-04-27T09:25:01Z</time>
      </trkpt>
      <trkpt lat="45.16173" lon="5.92104">
        <ele>2203.96</ele>
        <time>2018-04-27T09:25:03Z</time>
      </trkpt>
      <trkpt lat="45.16174" lon="5.92105">
        <ele>2206.84</ele>
        <time>2018-04-27T09:25:06Z</time>
      </trkpt>
      <trkpt lat="45.16176" lon="5.92106">
        <ele>2203</ele>
        <time>2018-04-27T09:25:10Z</time>
      </trkpt>
      <trkpt lat="45.16176" lon="5.92106">
        <ele>2203.48</ele>
        <time>2018-04-27T09:25:11Z</time>
      </trkpt>
      <trkpt lat="45.16178" lon="5.92107">
        <ele>2206.36</ele>
        <time>2018-04-27T09:25:13Z</time>
      </trkpt>
      <trkpt lat="45.16178" lon="5.92107">
        <ele>2206.36</ele>
        <time>2018-04-27T09:25:14Z</time>
      </trkpt>
      <trkpt lat="45.16179" lon="5.92108">
        <ele>2204.92</ele>
        <time>2018-04-27T09:25:16Z</time>
      </trkpt>
      <trkpt lat="45.1618" lon="5.92109">
        <ele>2205.88</ele>
        <time>2018-04-27T09:25:21Z</time>
      </trkpt>
      <trkpt lat="45.16184" lon="5.92113">
        <ele>2208.29</ele>
        <time>2018-04-27T09:25:35Z</time>
      </trkpt>
      <trkpt lat="45.16187" lon="5.92116">
        <ele>2209.73</ele>
        <time>2018-04-27T09:25:42Z</time>
      </trkpt>
      <trkpt lat="45.16191" lon="5.9212">
        <ele>2209.73</ele>
        <time>2018-04-27T09:25:54Z</time>
      </trkpt>
      <trkpt lat="45.16198" lon="5.92124">
        <ele>2210.69</ele>
        <time>2018-04-27T09:26:09Z</time>
      </trkpt>
      <trkpt lat="45.16199" lon="5.92126">
        <ele>2211.17</ele>
        <time>2018-04-27T09:26:24Z</time>
      </trkpt>
      <trkpt lat="45.16194" lon="5.92127">
        <ele>2213.09</ele>
        <time>2018-04-27T09:26:39Z</time>
      </trkpt>
      <trkpt lat="45.16194" lon="5.92128">
        <ele>2212.13</ele>
        <time>2018-04-27T09:26:47Z</time>
      </trkpt>
      <trkpt lat="45.16188" lon="5.9213">
        <ele>2215.01</ele>
        <time>2018-04-27T09:26:59Z</time>
      </trkpt>
      <trkpt lat="45.16188" lon="5.92129">
        <ele>2215.01</ele>
        <time>2018-04-27T09:27:00Z</time>
      </trkpt>
      <trkpt lat="45.16189" lon="5.92131">
        <ele>2216.46</ele>
        <time>2018-04-27T09:27:20Z</time>
      </trkpt>
      <trkpt lat="45.16191" lon="5.92133">
        <ele>2220.3</ele>
        <time>2018-04-27T09:27:25Z</time>
      </trkpt>
      <trkpt lat="45.16192" lon="5.92134">
        <ele>2221.26</ele>
        <time>2018-04-27T09:27:27Z</time>
      </trkpt>
      <trkpt lat="45.16193" lon="5.92134">
        <ele>2220.3</ele>
        <time>2018-04-27T09:27:29Z</time>
      </trkpt>
      <trkpt lat="45.16197" lon="5.92139">
        <ele>2218.86</ele>
        <time>2018-04-27T09:27:42Z</time>
      </trkpt>
      <trkpt lat="45.16201" lon="5.92142">
        <ele>2222.22</ele>
        <time>2018-04-27T09:27:50Z</time>
      </trkpt>
      <trkpt lat="45.16205" lon="5.92144">
        <ele>2225.59</ele>
        <time>2018-04-27T09:27:59Z</time>
      </trkpt>
      <trkpt lat="45.16205" lon="5.92144">
        <ele>2224.15</ele>
        <time>2018-04-27T09:28:00Z</time>
      </trkpt>
      <trkpt lat="45.16207" lon="5.92145">
        <ele>2222.71</ele>
        <time>2018-04-27T09:28:02Z</time>
      </trkpt>
      <trkpt lat="45.16208" lon="5.92146">
        <ele>2224.15</ele>
        <time>2018-04-27T09:28:06Z</time>
      </trkpt>
      <trkpt lat="45.16211" lon="5.92149">
        <ele>2225.11</ele>
        <time>2018-04-27T09:28:13Z</time>
      </trkpt>
      <trkpt lat="45.16213" lon="5.9215">
        <ele>2227.99</ele>
        <time>2018-04-27T09:28:17Z</time>
      </trkpt>
      <trkpt lat="45.16215" lon="5.92151">
        <ele>2224.63</ele>
        <time>2018-04-27T09:28:20Z</time>
      </trkpt>
      <trkpt lat="45.16215" lon="5.92151">
        <ele>2224.63</ele>
        <time>2018-04-27T09:28:21Z</time>
      </trkpt>
      <trkpt lat="45.16216" lon="5.92152">
        <ele>2225.59</ele>
        <time>2018-04-27T09:28:25Z</time>
      </trkpt>
      <trkpt lat="45.16219" lon="5.92153">
        <ele>2228.47</ele>
        <time>2018-04-27T09:28:31Z</time>
      </trkpt>
      <trkpt lat="45.16223" lon="5.92156">
        <ele>2229.92</ele>
        <time>2018-04-27T09:28:46Z</time>
      </trkpt>
      <trkpt lat="45.16224" lon="5.92157">
        <ele>2228.47</ele>
        <time>2018-04-27T09:28:48Z</time>
      </trkpt>
      <trkpt lat="45.16227" lon="5.92161">
        <ele>2231.84</ele>
        <time>2018-04-27T09:28:58Z</time>
      </trkpt>
      <trkpt lat="45.16228" lon="5.92162">
        <ele>2231.84</ele>
        <time>2018-04-27T09:28:59Z</time>
      </trkpt>
      <trkpt lat="45.16232" lon="5.92168">
        <ele>2233.76</ele>
        <time>2018-04-27T09:29:12Z</time>
      </trkpt>
      <trkpt lat="45.16232" lon="5.92169">
        <ele>2233.76</ele>
        <time>2018-04-27T09:29:13Z</time>
      </trkpt>
      <trkpt lat="45.16233" lon="5.92171">
        <ele>2232.32</ele>
        <time>2018-04-27T09:29:17Z</time>
      </trkpt>
      <trkpt lat="45.16236" lon="5.92175">
        <ele>2236.64</ele>
        <time>2018-04-27T09:29:24Z</time>
      </trkpt>
      <trkpt lat="45.16236" lon="5.92176">
        <ele>2236.64</ele>
        <time>2018-04-27T09:29:25Z</time>
      </trkpt>
      <trkpt lat="45.16238" lon="5.92178">
        <ele>2234.72</ele>
        <time>2018-04-27T09:29:29Z</time>
      </trkpt>
      <trkpt lat="45.16239" lon="5.9218">
        <ele>2237.13</ele>
        <time>2018-04-27T09:29:32Z</time>
      </trkpt>
      <trkpt lat="45.16239" lon="5.92181">
        <ele>2234.72</ele>
        <time>2018-04-27T09:29:35Z</time>
      </trkpt>
      <trkpt lat="45.16243" lon="5.92186">
        <ele>2236.16</ele>
        <time>2018-04-27T09:29:45Z</time>
      </trkpt>
      <trkpt lat="45.16243" lon="5.92187">
        <ele>2237.61</ele>
        <time>2018-04-27T09:29:48Z</time>
      </trkpt>
      <trkpt lat="45.16246" lon="5.92191">
        <ele>2235.68</ele>
        <time>2018-04-27T09:29:55Z</time>
      </trkpt>
      <trkpt lat="45.16247" lon="5.92193">
        <ele>2239.05</ele>
        <time>2018-04-27T09:29:59Z</time>
      </trkpt>
      <trkpt lat="45.16251" lon="5.92198">
        <ele>2240.97</ele>
        <time>2018-04-27T09:30:08Z</time>
      </trkpt>
      <trkpt lat="45.16256" lon="5.92205">
        <ele>2241.45</ele>
        <time>2018-04-27T09:30:22Z</time>
      </trkpt>
      <trkpt lat="45.16261" lon="5.92211">
        <ele>2243.37</ele>
        <time>2018-04-27T09:30:35Z</time>
      </trkpt>
      <trkpt lat="45.16263" lon="5.92213">
        <ele>2246.26</ele>
        <time>2018-04-27T09:30:39Z</time>
      </trkpt>
      <trkpt lat="45.16264" lon="5.92214">
        <ele>2244.33</ele>
        <time>2018-04-27T09:30:42Z</time>
      </trkpt>
      <trkpt lat="45.16267" lon="5.92218">
        <ele>2247.7</ele>
        <time>2018-04-27T09:30:48Z</time>
      </trkpt>
      <trkpt lat="45.16267" lon="5.92219">
        <ele>2248.66</ele>
        <time>2018-04-27T09:30:50Z</time>
      </trkpt>
      <trkpt lat="45.16268" lon="5.92219">
        <ele>2247.22</ele>
        <time>2018-04-27T09:30:52Z</time>
      </trkpt>
      <trkpt lat="45.16272" lon="5.92224">
        <ele>2246.74</ele>
        <time>2018-04-27T09:31:02Z</time>
      </trkpt>
      <trkpt lat="45.16277" lon="5.9223">
        <ele>2247.7</ele>
        <time>2018-04-27T09:31:15Z</time>
      </trkpt>
      <trkpt lat="45.16282" lon="5.92238">
        <ele>2250.58</ele>
        <time>2018-04-27T09:31:29Z</time>
      </trkpt>
      <trkpt lat="45.16283" lon="5.92239">
        <ele>2250.58</ele>
        <time>2018-04-27T09:31:30Z</time>
      </trkpt>
      <trkpt lat="45.16285" lon="5.92242">
        <ele>2252.51</ele>
        <time>2018-04-27T09:31:38Z</time>
      </trkpt>
      <trkpt lat="45.16291" lon="5.9225">
        <ele>2253.47</ele>
        <time>2018-04-27T09:31:51Z</time>
      </trkpt>
      <trkpt lat="45.16297" lon="5.92257">
        <ele>2255.87</ele>
        <time>2018-04-27T09:32:05Z</time>
      </trkpt>
      <trkpt lat="45.16304" lon="5.92266">
        <ele>2256.83</ele>
        <time>2018-04-27T09:32:20Z</time>
      </trkpt>
      <trkpt lat="45.16307" lon="5.9227">
        <ele>2258.75</ele>
        <time>2018-04-27T09:32:26Z</time>
      </trkpt>
      <trkpt lat="45.16313" lon="5.92278">
        <ele>2259.72</ele>
        <time>2018-04-27T09:32:40Z</time>
      </trkpt>
      <trkpt lat="45.16317" lon="5.92283">
        <ele>2261.64</ele>
        <time>2018-04-27T09:32:50Z</time>
      </trkpt>
      <trkpt lat="45.16325" lon="5.92293">
        <ele>2264.52</ele>
        <time>2018-04-27T09:33:07Z</time>
      </trkpt>
      <trkpt lat="45.16331" lon="5.92301">
        <ele>2265.96</ele>
        <time>2018-04-27T09:33:21Z</time>
      </trkpt>
      <trkpt lat="45.16337" lon="5.92307">
        <ele>2268.37</ele>
        <time>2018-04-27T09:33:33Z</time>
      </trkpt>
      <trkpt lat="45.16338" lon="5.92309">
        <ele>2266.93</ele>
        <time>2018-04-27T09:33:37Z</time>
      </trkpt>
      <trkpt lat="45.1634" lon="5.92311">
        <ele>2267.89</ele>
        <time>2018-04-27T09:33:40Z</time>
      </trkpt>
      <trkpt lat="45.16347" lon="5.92319">
        <ele>2268.85</ele>
        <time>2018-04-27T09:33:52Z</time>
      </trkpt>
      <trkpt lat="45.16352" lon="5.92325">
        <ele>2271.73</ele>
        <time>2018-04-27T09:34:04Z</time>
      </trkpt>
      <trkpt lat="45.16358" lon="5.92333">
        <ele>2273.17</ele>
        <time>2018-04-27T09:34:17Z</time>
      </trkpt>
      <trkpt lat="45.16364" lon="5.92341">
        <ele>2274.62</ele>
        <time>2018-04-27T09:34:32Z</time>
      </trkpt>
      <trkpt lat="45.1637" lon="5.92348">
        <ele>2277.5</ele>
        <time>2018-04-27T09:34:47Z</time>
      </trkpt>
      <trkpt lat="45.16377" lon="5.92354">
        <ele>2278.46</ele>
        <time>2018-04-27T09:35:00Z</time>
      </trkpt>
      <trkpt lat="45.1638" lon="5.92358">
        <ele>2280.87</ele>
        <time>2018-04-27T09:35:07Z</time>
      </trkpt>
      <trkpt lat="45.16382" lon="5.92359">
        <ele>2280.38</ele>
        <time>2018-04-27T09:35:14Z</time>
      </trkpt>
      <trkpt lat="45.16384" lon="5.92362">
        <ele>2282.79</ele>
        <time>2018-04-27T09:35:28Z</time>
      </trkpt>
      <trkpt lat="45.16384" lon="5.92363">
        <ele>2285.19</ele>
        <time>2018-04-27T09:35:35Z</time>
      </trkpt>
      <trkpt lat="45.16384" lon="5.92363">
        <ele>2283.27</ele>
        <time>2018-04-27T09:35:39Z</time>
      </trkpt>
      <trkpt lat="45.16384" lon="5.92362">
        <ele>2282.79</ele>
        <time>2018-04-27T09:36:16Z</time>
      </trkpt>
      <trkpt lat="45.16384" lon="5.92362">
        <ele>2282.79</ele>
        <time>2018-04-27T09:36:17Z</time>
      </trkpt>
      <trkpt lat="45.16384" lon="5.92362">
        <ele>2282.31</ele>
        <time>2018-04-27T09:36:43Z</time>
      </trkpt>
      <trkpt lat="45.16384" lon="5.92362">
        <ele>2282.31</ele>
        <time>2018-04-27T09:36:44Z</time>
      </trkpt>
      <trkpt lat="45.16382" lon="5.92363">
        <ele>2283.27</ele>
        <time>2018-04-27T09:37:04Z</time>
      </trkpt>
      <trkpt lat="45.16379" lon="5.92366">
        <ele>2284.23</ele>
        <time>2018-04-27T09:37:19Z</time>
      </trkpt>
      <trkpt lat="45.16374" lon="5.92369">
        <ele>2284.71</ele>
        <time>2018-04-27T09:37:37Z</time>
      </trkpt>
      <trkpt lat="45.16375" lon="5.92368">
        <ele>2286.15</ele>
        <time>2018-04-27T09:37:42Z</time>
      </trkpt>
      <trkpt lat="45.16375" lon="5.92368">
        <ele>2284.71</ele>
        <time>2018-04-27T09:37:44Z</time>
      </trkpt>
      <trkpt lat="45.16368" lon="5.92373">
        <ele>2286.63</ele>
        <time>2018-04-27T09:37:57Z</time>
      </trkpt>
      <trkpt lat="45.1636" lon="5.92378">
        <ele>2289.04</ele>
        <time>2018-04-27T09:38:12Z</time>
      </trkpt>
      <trkpt lat="45.16352" lon="5.92382">
        <ele>2293.36</ele>
        <time>2018-04-27T09:38:25Z</time>
      </trkpt>
      <trkpt lat="45.1635" lon="5.92383">
        <ele>2295.28</ele>
        <time>2018-04-27T09:38:29Z</time>
      </trkpt>
      <trkpt lat="45.16349" lon="5.92383">
        <ele>2292.88</ele>
        <time>2018-04-27T09:38:31Z</time>
      </trkpt>
      <trkpt lat="45.16344" lon="5.92385">
        <ele>2293.84</ele>
        <time>2018-04-27T09:38:39Z</time>
      </trkpt>
      <trkpt lat="45.16337" lon="5.92388">
        <ele>2295.77</ele>
        <time>2018-04-27T09:38:52Z</time>
      </trkpt>
      <trkpt lat="45.16335" lon="5.92389">
        <ele>2298.17</ele>
        <time>2018-04-27T09:38:57Z</time>
      </trkpt>
      <trkpt lat="45.16331" lon="5.92391">
        <ele>2301.53</ele>
        <time>2018-04-27T09:39:03Z</time>
      </trkpt>
      <trkpt lat="45.16331" lon="5.92391">
        <ele>2301.53</ele>
        <time>2018-04-27T09:39:04Z</time>
      </trkpt>
      <trkpt lat="45.16331" lon="5.92391">
        <ele>2298.17</ele>
        <time>2018-04-27T09:39:05Z</time>
      </trkpt>
      <trkpt lat="45.1633" lon="5.92391">
        <ele>2298.17</ele>
        <time>2018-04-27T09:39:06Z</time>
      </trkpt>
      <trkpt lat="45.16329" lon="5.92391">
        <ele>2300.09</ele>
        <time>2018-04-27T09:39:09Z</time>
      </trkpt>
      <trkpt lat="45.16326" lon="5.92393">
        <ele>2302.49</ele>
        <time>2018-04-27T09:39:13Z</time>
      </trkpt>
      <trkpt lat="45.16324" lon="5.92394">
        <ele>2300.09</ele>
        <time>2018-04-27T09:39:16Z</time>
      </trkpt>
      <trkpt lat="45.16321" lon="5.92395">
        <ele>2302.01</ele>
        <time>2018-04-27T09:39:22Z</time>
      </trkpt>
      <trkpt lat="45.16321" lon="5.92395">
        <ele>2302.01</ele>
        <time>2018-04-27T09:39:23Z</time>
      </trkpt>
      <trkpt lat="45.16319" lon="5.92396">
        <ele>2300.57</ele>
        <time>2018-04-27T09:39:26Z</time>
      </trkpt>
      <trkpt lat="45.16316" lon="5.92398">
        <ele>2303.94</ele>
        <time>2018-04-27T09:39:33Z</time>
      </trkpt>
      <trkpt lat="45.16315" lon="5.92398">
        <ele>2303.94</ele>
        <time>2018-04-27T09:39:34Z</time>
      </trkpt>
      <trkpt lat="45.1631" lon="5.92401">
        <ele>2306.34</ele>
        <time>2018-04-27T09:39:44Z</time>
      </trkpt>
      <trkpt lat="45.16309" lon="5.92401">
        <ele>2308.26</ele>
        <time>2018-04-27T09:39:46Z</time>
      </trkpt>
      <trkpt lat="45.16307" lon="5.92402">
        <ele>2304.42</ele>
        <time>2018-04-27T09:39:48Z</time>
      </trkpt>
      <trkpt lat="45.163" lon="5.92405">
        <ele>2306.34</ele>
        <time>2018-04-27T09:40:01Z</time>
      </trkpt>
      <trkpt lat="45.16295" lon="5.92407">
        <ele>2308.74</ele>
        <time>2018-04-27T09:40:12Z</time>
      </trkpt>
      <trkpt lat="45.16287" lon="5.9241">
        <ele>2309.22</ele>
        <time>2018-04-27T09:40:26Z</time>
      </trkpt>
      <trkpt lat="45.16281" lon="5.92413">
        <ele>2312.11</ele>
        <time>2018-04-27T09:40:39Z</time>
      </trkpt>
      <trkpt lat="45.16276" lon="5.92415">
        <ele>2315.47</ele>
        <time>2018-04-27T09:40:48Z</time>
      </trkpt>
      <trkpt lat="45.16275" lon="5.92416">
        <ele>2316.43</ele>
        <time>2018-04-27T09:40:50Z</time>
      </trkpt>
      <trkpt lat="45.16274" lon="5.92416">
        <ele>2315.47</ele>
        <time>2018-04-27T09:40:52Z</time>
      </trkpt>
      <trkpt lat="45.16273" lon="5.92417">
        <ele>2314.99</ele>
        <time>2018-04-27T09:40:54Z</time>
      </trkpt>
      <trkpt lat="45.1627" lon="5.92419">
        <ele>2318.36</ele>
        <time>2018-04-27T09:41:00Z</time>
      </trkpt>
      <trkpt lat="45.16265" lon="5.92421">
        <ele>2317.4</ele>
        <time>2018-04-27T09:41:08Z</time>
      </trkpt>
      <trkpt lat="45.16262" lon="5.92423">
        <ele>2318.84</ele>
        <time>2018-04-27T09:41:16Z</time>
      </trkpt>
      <trkpt lat="45.16254" lon="5.92429">
        <ele>2321.72</ele>
        <time>2018-04-27T09:41:30Z</time>
      </trkpt>
      <trkpt lat="45.16254" lon="5.92431">
        <ele>2323.16</ele>
        <time>2018-04-27T09:41:33Z</time>
      </trkpt>
      <trkpt lat="45.16259" lon="5.92438">
        <ele>2324.12</ele>
        <time>2018-04-27T09:41:46Z</time>
      </trkpt>
      <trkpt lat="45.16264" lon="5.92445">
        <ele>2326.05</ele>
        <time>2018-04-27T09:41:59Z</time>
      </trkpt>
      <trkpt lat="45.16268" lon="5.92453">
        <ele>2328.45</ele>
        <time>2018-04-27T09:42:11Z</time>
      </trkpt>
      <trkpt lat="45.16273" lon="5.92461">
        <ele>2328.93</ele>
        <time>2018-04-27T09:42:22Z</time>
      </trkpt>
      <trkpt lat="45.16277" lon="5.92467">
        <ele>2329.89</ele>
        <time>2018-04-27T09:42:35Z</time>
      </trkpt>
      <trkpt lat="45.16278" lon="5.92469">
        <ele>2331.81</ele>
        <time>2018-04-27T09:42:38Z</time>
      </trkpt>
      <trkpt lat="45.16279" lon="5.9247">
        <ele>2330.37</ele>
        <time>2018-04-27T09:42:40Z</time>
      </trkpt>
      <trkpt lat="45.16283" lon="5.92476">
        <ele>2333.74</ele>
        <time>2018-04-27T09:42:47Z</time>
      </trkpt>
      <trkpt lat="45.16288" lon="5.92484">
        <ele>2334.22</ele>
        <time>2018-04-27T09:43:00Z</time>
      </trkpt>
      <trkpt lat="45.16294" lon="5.92492">
        <ele>2336.62</ele>
        <time>2018-04-27T09:43:13Z</time>
      </trkpt>
      <trkpt lat="45.16296" lon="5.92496">
        <ele>2339.02</ele>
        <time>2018-04-27T09:43:19Z</time>
      </trkpt>
      <trkpt lat="45.16298" lon="5.925">
        <ele>2340.95</ele>
        <time>2018-04-27T09:43:27Z</time>
      </trkpt>
      <trkpt lat="45.16304" lon="5.9251">
        <ele>2340.95</ele>
        <time>2018-04-27T09:43:41Z</time>
      </trkpt>
      <trkpt lat="45.16309" lon="5.92519">
        <ele>2342.39</ele>
        <time>2018-04-27T09:43:55Z</time>
      </trkpt>
      <trkpt lat="45.1631" lon="5.9252">
        <ele>2343.35</ele>
        <time>2018-04-27T09:43:57Z</time>
      </trkpt>
      <trkpt lat="45.16312" lon="5.92523">
        <ele>2343.83</ele>
        <time>2018-04-27T09:44:03Z</time>
      </trkpt>
      <trkpt lat="45.16317" lon="5.9253">
        <ele>2347.2</ele>
        <time>2018-04-27T09:44:12Z</time>
      </trkpt>
      <trkpt lat="45.16322" lon="5.92537">
        <ele>2348.64</ele>
        <time>2018-04-27T09:44:25Z</time>
      </trkpt>
      <trkpt lat="45.16326" lon="5.92545">
        <ele>2349.6</ele>
        <time>2018-04-27T09:44:37Z</time>
      </trkpt>
      <trkpt lat="45.16331" lon="5.92554">
        <ele>2351.04</ele>
        <time>2018-04-27T09:44:51Z</time>
      </trkpt>
      <trkpt lat="45.16336" lon="5.92563">
        <ele>2352.96</ele>
        <time>2018-04-27T09:45:04Z</time>
      </trkpt>
      <trkpt lat="45.1634" lon="5.92569">
        <ele>2354.89</ele>
        <time>2018-04-27T09:45:15Z</time>
      </trkpt>
      <trkpt lat="45.16345" lon="5.92576">
        <ele>2359.21</ele>
        <time>2018-04-27T09:45:27Z</time>
      </trkpt>
      <trkpt lat="45.16349" lon="5.92583">
        <ele>2361.14</ele>
        <time>2018-04-27T09:45:37Z</time>
      </trkpt>
      <trkpt lat="45.16351" lon="5.92587">
        <ele>2363.06</ele>
        <time>2018-04-27T09:45:42Z</time>
      </trkpt>
      <trkpt lat="45.16353" lon="5.9259">
        <ele>2362.1</ele>
        <time>2018-04-27T09:45:48Z</time>
      </trkpt>
      <trkpt lat="45.16358" lon="5.92598">
        <ele>2361.62</ele>
        <time>2018-04-27T09:45:58Z</time>
      </trkpt>
      <trkpt lat="45.1636" lon="5.92602">
        <ele>2365.46</ele>
        <time>2018-04-27T09:46:05Z</time>
      </trkpt>
      <trkpt lat="45.16363" lon="5.92606">
        <ele>2364.98</ele>
        <time>2018-04-27T09:46:13Z</time>
      </trkpt>
      <trkpt lat="45.16365" lon="5.92608">
        <ele>2365.94</ele>
        <time>2018-04-27T09:46:15Z</time>
      </trkpt>
      <trkpt lat="45.16366" lon="5.9261">
        <ele>2368.35</ele>
        <time>2018-04-27T09:46:18Z</time>
      </trkpt>
      <trkpt lat="45.16367" lon="5.92612">
        <ele>2366.9</ele>
        <time>2018-04-27T09:46:20Z</time>
      </trkpt>
      <trkpt lat="45.16368" lon="5.92614">
        <ele>2369.31</ele>
        <time>2018-04-27T09:46:24Z</time>
      </trkpt>
      <trkpt lat="45.16367" lon="5.92615">
        <ele>2370.75</ele>
        <time>2018-04-27T09:46:27Z</time>
      </trkpt>
      <trkpt lat="45.16365" lon="5.92616">
        <ele>2373.15</ele>
        <time>2018-04-27T09:46:31Z</time>
      </trkpt>
      <trkpt lat="45.16363" lon="5.92617">
        <ele>2369.31</ele>
        <time>2018-04-27T09:46:33Z</time>
      </trkpt>
      <trkpt lat="45.16362" lon="5.92617">
        <ele>2369.31</ele>
        <time>2018-04-27T09:46:34Z</time>
      </trkpt>
      <trkpt lat="45.1636" lon="5.92619">
        <ele>2372.67</ele>
        <time>2018-04-27T09:46:37Z</time>
      </trkpt>
      <trkpt lat="45.16358" lon="5.9262">
        <ele>2376.52</ele>
        <time>2018-04-27T09:46:42Z</time>
      </trkpt>
      <trkpt lat="45.16356" lon="5.9262">
        <ele>2371.23</ele>
        <time>2018-04-27T09:46:45Z</time>
      </trkpt>
      <trkpt lat="45.16355" lon="5.92621">
        <ele>2371.23</ele>
        <time>2018-04-27T09:46:46Z</time>
      </trkpt>
      <trkpt lat="45.16352" lon="5.92623">
        <ele>2374.11</ele>
        <time>2018-04-27T09:46:52Z</time>
      </trkpt>
      <trkpt lat="45.1635" lon="5.92624">
        <ele>2374.11</ele>
        <time>2018-04-27T09:46:56Z</time>
      </trkpt>
      <trkpt lat="45.16348" lon="5.92625">
        <ele>2377</ele>
        <time>2018-04-27T09:46:59Z</time>
      </trkpt>
      <trkpt lat="45.16347" lon="5.92626">
        <ele>2374.59</ele>
        <time>2018-04-27T09:47:02Z</time>
      </trkpt>
      <trkpt lat="45.16346" lon="5.92626">
        <ele>2377</ele>
        <time>2018-04-27T09:47:04Z</time>
      </trkpt>
      <trkpt lat="45.16345" lon="5.92627">
        <ele>2376.04</ele>
        <time>2018-04-27T09:47:06Z</time>
      </trkpt>
      <trkpt lat="45.1634" lon="5.92631">
        <ele>2378.92</ele>
        <time>2018-04-27T09:47:17Z</time>
      </trkpt>
      <trkpt lat="45.16339" lon="5.92631">
        <ele>2378.92</ele>
        <time>2018-04-27T09:47:18Z</time>
      </trkpt>
      <trkpt lat="45.16337" lon="5.92633">
        <ele>2376.52</ele>
        <time>2018-04-27T09:47:23Z</time>
      </trkpt>
      <trkpt lat="45.16335" lon="5.92634">
        <ele>2379.88</ele>
        <time>2018-04-27T09:47:26Z</time>
      </trkpt>
      <trkpt lat="45.16334" lon="5.92635">
        <ele>2378.44</ele>
        <time>2018-04-27T09:47:29Z</time>
      </trkpt>
      <trkpt lat="45.16332" lon="5.92637">
        <ele>2377</ele>
        <time>2018-04-27T09:47:32Z</time>
      </trkpt>
      <trkpt lat="45.16329" lon="5.92639">
        <ele>2381.32</ele>
        <time>2018-04-27T09:47:37Z</time>
      </trkpt>
      <trkpt lat="45.16328" lon="5.92639">
        <ele>2381.32</ele>
        <time>2018-04-27T09:47:38Z</time>
      </trkpt>
      <trkpt lat="45.16328" lon="5.9264">
        <ele>2379.88</ele>
        <time>2018-04-27T09:47:40Z</time>
      </trkpt>
      <trkpt lat="45.16325" lon="5.92642">
        <ele>2381.32</ele>
        <time>2018-04-27T09:47:45Z</time>
      </trkpt>
      <trkpt lat="45.16322" lon="5.92643">
        <ele>2377.96</ele>
        <time>2018-04-27T09:47:49Z</time>
      </trkpt>
      <trkpt lat="45.16322" lon="5.92643">
        <ele>2377.96</ele>
        <time>2018-04-27T09:47:50Z</time>
      </trkpt>
      <trkpt lat="45.1632" lon="5.92644">
        <ele>2380.36</ele>
        <time>2018-04-27T09:47:53Z</time>
      </trkpt>
      <trkpt lat="45.16319" lon="5.92644">
        <ele>2377.96</ele>
        <time>2018-04-27T09:47:56Z</time>
      </trkpt>
      <trkpt lat="45.16316" lon="5.92646">
        <ele>2380.84</ele>
        <time>2018-04-27T09:48:01Z</time>
      </trkpt>
      <trkpt lat="45.1631" lon="5.9265">
        <ele>2384.21</ele>
        <time>2018-04-27T09:48:13Z</time>
      </trkpt>
      <trkpt lat="45.16309" lon="5.92651">
        <ele>2385.17</ele>
        <time>2018-04-27T09:48:15Z</time>
      </trkpt>
      <trkpt lat="45.16307" lon="5.92651">
        <ele>2383.73</ele>
        <time>2018-04-27T09:48:18Z</time>
      </trkpt>
      <trkpt lat="45.16299" lon="5.92656">
        <ele>2383.73</ele>
        <time>2018-04-27T09:48:32Z</time>
      </trkpt>
      <trkpt lat="45.16298" lon="5.92657">
        <ele>2385.17</ele>
        <time>2018-04-27T09:48:35Z</time>
      </trkpt>
      <trkpt lat="45.16293" lon="5.92663">
        <ele>2387.57</ele>
        <time>2018-04-27T09:48:47Z</time>
      </trkpt>
      <trkpt lat="45.16293" lon="5.92672">
        <ele>2387.57</ele>
        <time>2018-04-27T09:48:58Z</time>
      </trkpt>
      <trkpt lat="45.16299" lon="5.92677">
        <ele>2390.94</ele>
        <time>2018-04-27T09:49:11Z</time>
      </trkpt>
      <trkpt lat="45.16302" lon="5.92679">
        <ele>2389.97</ele>
        <time>2018-04-27T09:49:16Z</time>
      </trkpt>
      <trkpt lat="45.16305" lon="5.92681">
        <ele>2391.42</ele>
        <time>2018-04-27T09:49:21Z</time>
      </trkpt>
      <trkpt lat="45.16306" lon="5.92679">
        <ele>2390.46</ele>
        <time>2018-04-27T09:49:34Z</time>
      </trkpt>
      <trkpt lat="45.16306" lon="5.9268">
        <ele>2391.9</ele>
        <time>2018-04-27T09:49:40Z</time>
      </trkpt>
      <trkpt lat="45.16306" lon="5.9268">
        <ele>2389.97</ele>
        <time>2018-04-27T09:49:42Z</time>
      </trkpt>
      <trkpt lat="45.16305" lon="5.92681">
        <ele>2389.97</ele>
        <time>2018-04-27T09:49:50Z</time>
      </trkpt>
      <trkpt lat="45.16305" lon="5.9268">
        <ele>2391.42</ele>
        <time>2018-04-27T09:49:54Z</time>
      </trkpt>
      <trkpt lat="45.16305" lon="5.92679">
        <ele>2392.38</ele>
        <time>2018-04-27T09:49:58Z</time>
      </trkpt>
      <trkpt lat="45.16305" lon="5.92679">
        <ele>2384.21</ele>
        <time>2018-04-27T09:50:02Z</time>
      </trkpt>
      <trkpt lat="45.16305" lon="5.92679">
        <ele>2391.9</ele>
        <time>2018-04-27T09:50:03Z</time>
      </trkpt>
      <trkpt lat="45.16305" lon="5.92678">
        <ele>2386.61</ele>
        <time>2018-04-27T09:50:04Z</time>
      </trkpt>
      <trkpt lat="45.16306" lon="5.9268">
        <ele>2391.42</ele>
        <time>2018-04-27T09:50:06Z</time>
      </trkpt>
      <trkpt lat="45.16307" lon="5.92681">
        <ele>2391.42</ele>
        <time>2018-04-27T09:50:07Z</time>
      </trkpt>
      <trkpt lat="45.16307" lon="5.92681">
        <ele>2388.05</ele>
        <time>2018-04-27T09:50:11Z</time>
      </trkpt>
      <trkpt lat="45.16307" lon="5.9268">
        <ele>2387.09</ele>
        <time>2018-04-27T09:50:13Z</time>
      </trkpt>
      <trkpt lat="45.16307" lon="5.9268">
        <ele>2389.01</ele>
        <time>2018-04-27T09:50:15Z</time>
      </trkpt>
      <trkpt lat="45.16307" lon="5.92679">
        <ele>2388.05</ele>
        <time>2018-04-27T09:50:43Z</time>
      </trkpt>
      <trkpt lat="45.16306" lon="5.92679">
        <ele>2388.05</ele>
        <time>2018-04-27T09:51:14Z</time>
      </trkpt>
      <trkpt lat="45.16306" lon="5.92679">
        <ele>2389.49</ele>
        <time>2018-04-27T09:51:37Z</time>
      </trkpt>
      <trkpt lat="45.16306" lon="5.92679">
        <ele>2389.01</ele>
        <time>2018-04-27T09:51:46Z</time>
      </trkpt>
      <trkpt lat="45.16306" lon="5.9268">
        <ele>2390.94</ele>
        <time>2018-04-27T09:51:56Z</time>
      </trkpt>
      <trkpt lat="45.16306" lon="5.9268">
        <ele>2391.9</ele>
        <time>2018-04-27T09:52:21Z</time>
      </trkpt>
      <trkpt lat="45.16306" lon="5.92681">
        <ele>2390.94</ele>
        <time>2018-04-27T09:52:41Z</time>
      </trkpt>
      <trkpt lat="45.16306" lon="5.92681">
        <ele>2389.49</ele>
        <time>2018-04-27T09:53:29Z</time>
      </trkpt>
      <trkpt lat="45.16307" lon="5.92681">
        <ele>2389.01</ele>
        <time>2018-04-27T09:54:10Z</time>
      </trkpt>
      <trkpt lat="45.16306" lon="5.9268">
        <ele>2392.86</ele>
        <time>2018-04-27T09:54:45Z</time>
      </trkpt>
      <trkpt lat="45.16306" lon="5.92681">
        <ele>2392.86</ele>
        <time>2018-04-27T09:54:46Z</time>
      </trkpt>
      <trkpt lat="45.16306" lon="5.9268">
        <ele>2389.97</ele>
        <time>2018-04-27T09:54:48Z</time>
      </trkpt>
      <trkpt lat="45.16305" lon="5.92681">
        <ele>2391.42</ele>
        <time>2018-04-27T09:55:22Z</time>
      </trkpt>
      <trkpt lat="45.16304" lon="5.92681">
        <ele>2391.9</ele>
        <time>2018-04-27T09:55:57Z</time>
      </trkpt>
      <trkpt lat="45.16304" lon="5.92681">
        <ele>2388.05</ele>
        <time>2018-04-27T09:56:20Z</time>
      </trkpt>
      <trkpt lat="45.16304" lon="5.92682">
        <ele>2390.94</ele>
        <time>2018-04-27T09:56:21Z</time>
      </trkpt>
      <trkpt lat="45.16304" lon="5.92681">
        <ele>2391.9</ele>
        <time>2018-04-27T09:56:28Z</time>
      </trkpt>
      <trkpt lat="45.16304" lon="5.92681">
        <ele>2390.46</ele>
        <time>2018-04-27T09:56:35Z</time>
      </trkpt>
      <trkpt lat="45.16304" lon="5.92681">
        <ele>2389.97</ele>
        <time>2018-04-27T09:57:15Z</time>
      </trkpt>
      <trkpt lat="45.16304" lon="5.92682">
        <ele>2390.94</ele>
        <time>2018-04-27T09:57:31Z</time>
      </trkpt>
      <trkpt lat="45.16304" lon="5.92681">
        <ele>2389.97</ele>
        <time>2018-04-27T09:58:11Z</time>
      </trkpt>
      <trkpt lat="45.16305" lon="5.92682">
        <ele>2389.97</ele>
        <time>2018-04-27T09:59:00Z</time>
      </trkpt>
      <trkpt lat="45.16304" lon="5.92682">
        <ele>2391.42</ele>
        <time>2018-04-27T09:59:36Z</time>
      </trkpt>
      <trkpt lat="45.16304" lon="5.92682">
        <ele>2390.46</ele>
        <time>2018-04-27T10:00:11Z</time>
      </trkpt>
      <trkpt lat="45.16304" lon="5.92682">
        <ele>2390.94</ele>
        <time>2018-04-27T10:00:24Z</time>
      </trkpt>
      <trkpt lat="45.16305" lon="5.92682">
        <ele>2389.01</ele>
        <time>2018-04-27T10:01:07Z</time>
      </trkpt>
      <trkpt lat="45.16305" lon="5.92682">
        <ele>2389.97</ele>
        <time>2018-04-27T10:01:10Z</time>
      </trkpt>
      <trkpt lat="45.16304" lon="5.92681">
        <ele>2390.46</ele>
        <time>2018-04-27T10:01:46Z</time>
      </trkpt>
      <trkpt lat="45.16304" lon="5.92682">
        <ele>2389.97</ele>
        <time>2018-04-27T10:01:56Z</time>
      </trkpt>
      <trkpt lat="45.16305" lon="5.92681">
        <ele>2391.9</ele>
        <time>2018-04-27T10:02:11Z</time>
      </trkpt>
      <trkpt lat="45.16305" lon="5.92682">
        <ele>2390.46</ele>
        <time>2018-04-27T10:02:15Z</time>
      </trkpt>
      <trkpt lat="45.16305" lon="5.92682">
        <ele>2391.42</ele>
        <time>2018-04-27T10:02:49Z</time>
      </trkpt>
      <trkpt lat="45.16305" lon="5.92682">
        <ele>2389.49</ele>
        <time>2018-04-27T10:03:08Z</time>
      </trkpt>
      <trkpt lat="45.16305" lon="5.92681">
        <ele>2392.38</ele>
        <time>2018-04-27T10:03:11Z</time>
      </trkpt>
      <trkpt lat="45.16305" lon="5.9268">
        <ele>2389.01</ele>
        <time>2018-04-27T10:03:12Z</time>
      </trkpt>
      <trkpt lat="45.16305" lon="5.9268">
        <ele>2390.46</ele>
        <time>2018-04-27T10:03:13Z</time>
      </trkpt>
      <trkpt lat="45.16305" lon="5.9268">
        <ele>2389.49</ele>
        <time>2018-04-27T10:03:16Z</time>
      </trkpt>
      <trkpt lat="45.16305" lon="5.92681">
        <ele>2389.49</ele>
        <time>2018-04-27T10:03:42Z</time>
      </trkpt>
      <trkpt lat="45.16306" lon="5.9268">
        <ele>2390.46</ele>
        <time>2018-04-27T10:03:49Z</time>
      </trkpt>
      <trkpt lat="45.16306" lon="5.9268">
        <ele>2392.86</ele>
        <time>2018-04-27T10:03:58Z</time>
      </trkpt>
      <trkpt lat="45.16306" lon="5.9268">
        <ele>2390.94</ele>
        <time>2018-04-27T10:04:01Z</time>
      </trkpt>
      <trkpt lat="45.16306" lon="5.9268">
        <ele>2391.9</ele>
        <time>2018-04-27T10:04:16Z</time>
      </trkpt>
      <trkpt lat="45.16306" lon="5.9268">
        <ele>2394.3</ele>
        <time>2018-04-27T10:04:21Z</time>
      </trkpt>
      <trkpt lat="45.16306" lon="5.92679">
        <ele>2392.86</ele>
        <time>2018-04-27T10:04:32Z</time>
      </trkpt>
      <trkpt lat="45.16306" lon="5.92679">
        <ele>2388.53</ele>
        <time>2018-04-27T10:04:42Z</time>
      </trkpt>
      <trkpt lat="45.16306" lon="5.92679">
        <ele>2388.53</ele>
        <time>2018-04-27T10:04:43Z</time>
      </trkpt>
      <trkpt lat="45.16306" lon="5.92679">
        <ele>2391.9</ele>
        <time>2018-04-27T10:04:45Z</time>
      </trkpt>
      <trkpt lat="45.16306" lon="5.92679">
        <ele>2389.49</ele>
        <time>2018-04-27T10:04:51Z</time>
      </trkpt>
      <trkpt lat="45.16306" lon="5.92679">
        <ele>2390.94</ele>
        <time>2018-04-27T10:05:07Z</time>
      </trkpt>
      <trkpt lat="45.16306" lon="5.9268">
        <ele>2389.49</ele>
        <time>2018-04-27T10:05:41Z</time>
      </trkpt>
      <trkpt lat="45.16306" lon="5.92679">
        <ele>2389.01</ele>
        <time>2018-04-27T10:06:17Z</time>
      </trkpt>
      <trkpt lat="45.16306" lon="5.92679">
        <ele>2389.97</ele>
        <time>2018-04-27T10:06:33Z</time>
      </trkpt>
      <trkpt lat="45.16306" lon="5.92679">
        <ele>2388.05</ele>
        <time>2018-04-27T10:06:52Z</time>
      </trkpt>
      <trkpt lat="45.16306" lon="5.9268">
        <ele>2390.46</ele>
        <time>2018-04-27T10:07:26Z</time>
      </trkpt>
      <trkpt lat="45.16306" lon="5.9268">
        <ele>2389.49</ele>
        <time>2018-04-27T10:07:58Z</time>
      </trkpt>
      <trkpt lat="45.16306" lon="5.9268">
        <ele>2388.53</ele>
        <time>2018-04-27T10:08:29Z</time>
      </trkpt>
      <trkpt lat="45.16306" lon="5.9268">
        <ele>2389.97</ele>
        <time>2018-04-27T10:08:52Z</time>
      </trkpt>
      <trkpt lat="45.16306" lon="5.9268">
        <ele>2389.01</ele>
        <time>2018-04-27T10:09:01Z</time>
      </trkpt>
      <trkpt lat="45.16306" lon="5.92679">
        <ele>2390.46</ele>
        <time>2018-04-27T10:09:38Z</time>
      </trkpt>
      <trkpt lat="45.16306" lon="5.92679">
        <ele>2390.94</ele>
        <time>2018-04-27T10:10:14Z</time>
      </trkpt>
      <trkpt lat="45.16306" lon="5.92679">
        <ele>2390.46</ele>
        <time>2018-04-27T10:10:53Z</time>
      </trkpt>
      <trkpt lat="45.16306" lon="5.9268">
        <ele>2390.94</ele>
        <time>2018-04-27T10:11:27Z</time>
      </trkpt>
      <trkpt lat="45.16305" lon="5.9268">
        <ele>2389.97</ele>
        <time>2018-04-27T10:11:59Z</time>
      </trkpt>
      <trkpt lat="45.16306" lon="5.92679">
        <ele>2391.9</ele>
        <time>2018-04-27T10:12:24Z</time>
      </trkpt>
      <trkpt lat="45.16306" lon="5.92679">
        <ele>2390.46</ele>
        <time>2018-04-27T10:12:26Z</time>
      </trkpt>
      <trkpt lat="45.16306" lon="5.92679">
        <ele>2391.9</ele>
        <time>2018-04-27T10:12:53Z</time>
      </trkpt>
      <trkpt lat="45.16306" lon="5.92679">
        <ele>2390.94</ele>
        <time>2018-04-27T10:13:05Z</time>
      </trkpt>
      <trkpt lat="45.16306" lon="5.92679">
        <ele>2389.49</ele>
        <time>2018-04-27T10:13:07Z</time>
      </trkpt>
      <trkpt lat="45.16305" lon="5.92679">
        <ele>2389.01</ele>
        <time>2018-04-27T10:13:40Z</time>
      </trkpt>
      <trkpt lat="45.16305" lon="5.9268">
        <ele>2390.46</ele>
        <time>2018-04-27T10:13:45Z</time>
      </trkpt>
      <trkpt lat="45.16305" lon="5.92679">
        <ele>2389.97</ele>
        <time>2018-04-27T10:13:51Z</time>
      </trkpt>
      <trkpt lat="45.16306" lon="5.92679">
        <ele>2391.42</ele>
        <time>2018-04-27T10:14:13Z</time>
      </trkpt>
      <trkpt lat="45.16305" lon="5.9268">
        <ele>2389.97</ele>
        <time>2018-04-27T10:14:26Z</time>
      </trkpt>
      <trkpt lat="45.16306" lon="5.9268">
        <ele>2391.42</ele>
        <time>2018-04-27T10:14:28Z</time>
      </trkpt>
      <trkpt lat="45.16306" lon="5.9268">
        <ele>2389.49</ele>
        <time>2018-04-27T10:15:26Z</time>
      </trkpt>
      <trkpt lat="45.16306" lon="5.92679">
        <ele>2390.46</ele>
        <time>2018-04-27T10:15:39Z</time>
      </trkpt>
      <trkpt lat="45.16306" lon="5.92679">
        <ele>2392.86</ele>
        <time>2018-04-27T10:16:05Z</time>
      </trkpt>
      <trkpt lat="45.16306" lon="5.92679">
        <ele>2389.01</ele>
        <time>2018-04-27T10:16:15Z</time>
      </trkpt>
      <trkpt lat="45.16306" lon="5.9268">
        <ele>2389.01</ele>
        <time>2018-04-27T10:16:16Z</time>
      </trkpt>
      <trkpt lat="45.16305" lon="5.92679">
        <ele>2389.49</ele>
        <time>2018-04-27T10:16:22Z</time>
      </trkpt>
      <trkpt lat="45.16305" lon="5.92679">
        <ele>2388.05</ele>
        <time>2018-04-27T10:16:31Z</time>
      </trkpt>
      <trkpt lat="45.16305" lon="5.9268">
        <ele>2391.9</ele>
        <time>2018-04-27T10:16:32Z</time>
      </trkpt>
      <trkpt lat="45.16306" lon="5.92679">
        <ele>2388.53</ele>
        <time>2018-04-27T10:16:45Z</time>
      </trkpt>
      <trkpt lat="45.16306" lon="5.92679">
        <ele>2390.46</ele>
        <time>2018-04-27T10:16:48Z</time>
      </trkpt>
      <trkpt lat="45.16306" lon="5.92679">
        <ele>2371.71</ele>
        <time>2018-04-27T10:16:58Z</time>
      </trkpt>
      <trkpt lat="45.16306" lon="5.92679">
        <ele>2391.42</ele>
        <time>2018-04-27T10:16:59Z</time>
      </trkpt>
      <trkpt lat="45.16306" lon="5.9268">
        <ele>2392.38</ele>
        <time>2018-04-27T10:17:02Z</time>
      </trkpt>
      <trkpt lat="45.16306" lon="5.9268">
        <ele>2390.94</ele>
        <time>2018-04-27T10:17:05Z</time>
      </trkpt>
      <trkpt lat="45.16305" lon="5.92679">
        <ele>2389.97</ele>
        <time>2018-04-27T10:17:38Z</time>
      </trkpt>
      <trkpt lat="45.16306" lon="5.9268">
        <ele>2385.17</ele>
        <time>2018-04-27T10:17:51Z</time>
      </trkpt>
      <trkpt lat="45.16306" lon="5.9268">
        <ele>2389.97</ele>
        <time>2018-04-27T10:17:52Z</time>
      </trkpt>
      <trkpt lat="45.16306" lon="5.92679">
        <ele>2389.01</ele>
        <time>2018-04-27T10:18:20Z</time>
      </trkpt>
      <trkpt lat="45.16307" lon="5.92679">
        <ele>2389.97</ele>
        <time>2018-04-27T10:18:33Z</time>
      </trkpt>
      <trkpt lat="45.16307" lon="5.92679">
        <ele>2389.01</ele>
        <time>2018-04-27T10:18:45Z</time>
      </trkpt>
      <trkpt lat="45.16306" lon="5.92679">
        <ele>2390.46</ele>
        <time>2018-04-27T10:18:55Z</time>
      </trkpt>
      <trkpt lat="45.16306" lon="5.9268">
        <ele>2388.53</ele>
        <time>2018-04-27T10:18:58Z</time>
      </trkpt>
      <trkpt lat="45.16306" lon="5.92679">
        <ele>2389.01</ele>
        <time>2018-04-27T10:19:19Z</time>
      </trkpt>
      <trkpt lat="45.16306" lon="5.9268">
        <ele>2390.94</ele>
        <time>2018-04-27T10:19:26Z</time>
      </trkpt>
      <trkpt lat="45.16307" lon="5.92679">
        <ele>2389.49</ele>
        <time>2018-04-27T10:19:31Z</time>
      </trkpt>
      <trkpt lat="45.16307" lon="5.92679">
        <ele>2389.97</ele>
        <time>2018-04-27T10:19:48Z</time>
      </trkpt>
      <trkpt lat="45.16307" lon="5.92679">
        <ele>2389.01</ele>
        <time>2018-04-27T10:19:58Z</time>
      </trkpt>
      <trkpt lat="45.16306" lon="5.92679">
        <ele>2389.97</ele>
        <time>2018-04-27T10:20:15Z</time>
      </trkpt>
      <trkpt lat="45.16306" lon="5.92679">
        <ele>2388.05</ele>
        <time>2018-04-27T10:20:18Z</time>
      </trkpt>
      <trkpt lat="45.16307" lon="5.92679">
        <ele>2388.53</ele>
        <time>2018-04-27T10:20:27Z</time>
      </trkpt>
      <trkpt lat="45.16306" lon="5.92679">
        <ele>2388.53</ele>
        <time>2018-04-27T10:20:38Z</time>
      </trkpt>
      <trkpt lat="45.16306" lon="5.92679">
        <ele>2390.94</ele>
        <time>2018-04-27T10:21:00Z</time>
      </trkpt>
      <trkpt lat="45.16306" lon="5.92679">
        <ele>2389.01</ele>
        <time>2018-04-27T10:21:06Z</time>
      </trkpt>
      <trkpt lat="45.16306" lon="5.92679">
        <ele>2390.94</ele>
        <time>2018-04-27T10:21:08Z</time>
      </trkpt>
      <trkpt lat="45.16306" lon="5.92679">
        <ele>2389.01</ele>
        <time>2018-04-27T10:21:22Z</time>
      </trkpt>
      <trkpt lat="45.16306" lon="5.92679">
        <ele>2390.46</ele>
        <time>2018-04-27T10:21:27Z</time>
      </trkpt>
      <trkpt lat="45.16306" lon="5.9268">
        <ele>2388.53</ele>
        <time>2018-04-27T10:21:37Z</time>
      </trkpt>
      <trkpt lat="45.16306" lon="5.9268">
        <ele>2389.01</ele>
        <time>2018-04-27T10:21:51Z</time>
      </trkpt>
      <trkpt lat="45.16306" lon="5.92679">
        <ele>2390.46</ele>
        <time>2018-04-27T10:22:06Z</time>
      </trkpt>
      <trkpt lat="45.16306" lon="5.92679">
        <ele>2389.97</ele>
        <time>2018-04-27T10:22:37Z</time>
      </trkpt>
      <trkpt lat="45.16306" lon="5.9268">
        <ele>2384.69</ele>
        <time>2018-04-27T10:22:40Z</time>
      </trkpt>
      <trkpt lat="45.16306" lon="5.9268">
        <ele>2389.49</ele>
        <time>2018-04-27T10:22:41Z</time>
      </trkpt>
      <trkpt lat="45.16306" lon="5.9268">
        <ele>2390.46</ele>
        <time>2018-04-27T10:22:43Z</time>
      </trkpt>
      <trkpt lat="45.16306" lon="5.9268">
        <ele>2389.01</ele>
        <time>2018-04-27T10:23:24Z</time>
      </trkpt>
      <trkpt lat="45.16306" lon="5.9268">
        <ele>2388.53</ele>
        <time>2018-04-27T10:23:26Z</time>
      </trkpt>
      <trkpt lat="45.16305" lon="5.92681">
        <ele>2389.97</ele>
        <time>2018-04-27T10:23:33Z</time>
      </trkpt>
      <trkpt lat="45.16305" lon="5.92681">
        <ele>2388.53</ele>
        <time>2018-04-27T10:23:35Z</time>
      </trkpt>
      <trkpt lat="45.16306" lon="5.9268">
        <ele>2387.57</ele>
        <time>2018-04-27T10:24:17Z</time>
      </trkpt>
      <trkpt lat="45.16306" lon="5.92679">
        <ele>2389.01</ele>
        <time>2018-04-27T10:24:44Z</time>
      </trkpt>
      <trkpt lat="45.16306" lon="5.9268">
        <ele>2387.57</ele>
        <time>2018-04-27T10:24:52Z</time>
      </trkpt>
      <trkpt lat="45.16306" lon="5.9268">
        <ele>2389.01</ele>
        <time>2018-04-27T10:25:14Z</time>
      </trkpt>
      <trkpt lat="45.16306" lon="5.9268">
        <ele>2388.53</ele>
        <time>2018-04-27T10:25:27Z</time>
      </trkpt>
      <trkpt lat="45.16306" lon="5.9268">
        <ele>2387.57</ele>
        <time>2018-04-27T10:26:13Z</time>
      </trkpt>
      <trkpt lat="45.16305" lon="5.92681">
        <ele>2389.01</ele>
        <time>2018-04-27T10:26:36Z</time>
      </trkpt>
      <trkpt lat="45.16306" lon="5.92679">
        <ele>2391.42</ele>
        <time>2018-04-27T10:26:38Z</time>
      </trkpt>
      <trkpt lat="45.16305" lon="5.9268">
        <ele>2394.3</ele>
        <time>2018-04-27T10:26:55Z</time>
      </trkpt>
      <trkpt lat="45.16304" lon="5.92679">
        <ele>2392.86</ele>
        <time>2018-04-27T10:26:57Z</time>
      </trkpt>
      <trkpt lat="45.16304" lon="5.92679">
        <ele>2394.3</ele>
        <time>2018-04-27T10:27:03Z</time>
      </trkpt>
      <trkpt lat="45.16304" lon="5.92679">
        <ele>2392.86</ele>
        <time>2018-04-27T10:27:08Z</time>
      </trkpt>
      <trkpt lat="45.16304" lon="5.9268">
        <ele>2391.42</ele>
        <time>2018-04-27T10:27:11Z</time>
      </trkpt>
      <trkpt lat="45.16304" lon="5.92679">
        <ele>2391.42</ele>
        <time>2018-04-27T10:27:30Z</time>
      </trkpt>
      <trkpt lat="45.16304" lon="5.92679">
        <ele>2391.42</ele>
        <time>2018-04-27T10:27:34Z</time>
      </trkpt>
      <trkpt lat="45.16305" lon="5.92679">
        <ele>2389.97</ele>
        <time>2018-04-27T10:27:39Z</time>
      </trkpt>
      <trkpt lat="45.16303" lon="5.92676">
        <ele>2389.97</ele>
        <time>2018-04-27T10:27:57Z</time>
      </trkpt>
      <trkpt lat="45.16303" lon="5.92677">
        <ele>2390.46</ele>
        <time>2018-04-27T10:28:18Z</time>
      </trkpt>
      <trkpt lat="45.16303" lon="5.92677">
        <ele>2389.01</ele>
        <time>2018-04-27T10:28:47Z</time>
      </trkpt>
      <trkpt lat="45.16303" lon="5.92676">
        <ele>2390.46</ele>
        <time>2018-04-27T10:28:53Z</time>
      </trkpt>
      <trkpt lat="45.16303" lon="5.92676">
        <ele>2389.49</ele>
        <time>2018-04-27T10:28:55Z</time>
      </trkpt>
      <trkpt lat="45.16304" lon="5.92676">
        <ele>2389.49</ele>
        <time>2018-04-27T10:29:17Z</time>
      </trkpt>
      <trkpt lat="45.16306" lon="5.92673">
        <ele>2389.49</ele>
        <time>2018-04-27T10:29:19Z</time>
      </trkpt>
      <trkpt lat="45.1631" lon="5.92664">
        <ele>2388.05</ele>
        <time>2018-04-27T10:29:21Z</time>
      </trkpt>
      <trkpt lat="45.16315" lon="5.9266">
        <ele>2386.61</ele>
        <time>2018-04-27T10:29:22Z</time>
      </trkpt>
      <trkpt lat="45.16324" lon="5.92637">
        <ele>2381.8</ele>
        <time>2018-04-27T10:29:25Z</time>
      </trkpt>
      <trkpt lat="45.16328" lon="5.92623">
        <ele>2375.55</ele>
        <time>2018-04-27T10:29:27Z</time>
      </trkpt>
      <trkpt lat="45.16336" lon="5.92608">
        <ele>2370.75</ele>
        <time>2018-04-27T10:29:29Z</time>
      </trkpt>
      <trkpt lat="45.1634" lon="5.92602">
        <ele>2366.9</ele>
        <time>2018-04-27T10:29:30Z</time>
      </trkpt>
      <trkpt lat="45.16344" lon="5.92588">
        <ele>2363.54</ele>
        <time>2018-04-27T10:29:32Z</time>
      </trkpt>
      <trkpt lat="45.16347" lon="5.92582">
        <ele>2360.65</ele>
        <time>2018-04-27T10:29:33Z</time>
      </trkpt>
      <trkpt lat="45.16351" lon="5.92567">
        <ele>2355.85</ele>
        <time>2018-04-27T10:29:35Z</time>
      </trkpt>
      <trkpt lat="45.16354" lon="5.92551">
        <ele>2350.56</ele>
        <time>2018-04-27T10:29:37Z</time>
      </trkpt>
      <trkpt lat="45.16358" lon="5.92542">
        <ele>2346.72</ele>
        <time>2018-04-27T10:29:38Z</time>
      </trkpt>
      <trkpt lat="45.16358" lon="5.92536">
        <ele>2346.23</ele>
        <time>2018-04-27T10:29:39Z</time>
      </trkpt>
      <trkpt lat="45.1636" lon="5.92529">
        <ele>2342.39</ele>
        <time>2018-04-27T10:29:40Z</time>
      </trkpt>
      <trkpt lat="45.16363" lon="5.92525">
        <ele>2340.47</ele>
        <time>2018-04-27T10:29:41Z</time>
      </trkpt>
      <trkpt lat="45.16365" lon="5.92518">
        <ele>2339.99</ele>
        <time>2018-04-27T10:29:42Z</time>
      </trkpt>
      <trkpt lat="45.16366" lon="5.92509">
        <ele>2339.02</ele>
        <time>2018-04-27T10:29:43Z</time>
      </trkpt>
      <trkpt lat="45.16367" lon="5.92502">
        <ele>2336.14</ele>
        <time>2018-04-27T10:29:44Z</time>
      </trkpt>
      <trkpt lat="45.16371" lon="5.92496">
        <ele>2333.26</ele>
        <time>2018-04-27T10:29:45Z</time>
      </trkpt>
      <trkpt lat="45.16376" lon="5.9249">
        <ele>2330.85</ele>
        <time>2018-04-27T10:29:46Z</time>
      </trkpt>
      <trkpt lat="45.1638" lon="5.92471">
        <ele>2326.53</ele>
        <time>2018-04-27T10:29:48Z</time>
      </trkpt>
      <trkpt lat="45.16386" lon="5.92456">
        <ele>2318.36</ele>
        <time>2018-04-27T10:29:50Z</time>
      </trkpt>
      <trkpt lat="45.16393" lon="5.9244">
        <ele>2314.51</ele>
        <time>2018-04-27T10:29:52Z</time>
      </trkpt>
      <trkpt lat="45.164" lon="5.92425">
        <ele>2307.3</ele>
        <time>2018-04-27T10:29:54Z</time>
      </trkpt>
      <trkpt lat="45.16402" lon="5.92416">
        <ele>2306.82</ele>
        <time>2018-04-27T10:29:55Z</time>
      </trkpt>
      <trkpt lat="45.16404" lon="5.92401">
        <ele>2300.57</ele>
        <time>2018-04-27T10:29:57Z</time>
      </trkpt>
      <trkpt lat="45.16406" lon="5.9239">
        <ele>2297.69</ele>
        <time>2018-04-27T10:29:58Z</time>
      </trkpt>
      <trkpt lat="45.16405" lon="5.92384">
        <ele>2296.25</ele>
        <time>2018-04-27T10:29:59Z</time>
      </trkpt>
      <trkpt lat="45.16404" lon="5.92376">
        <ele>2292.4</ele>
        <time>2018-04-27T10:30:00Z</time>
      </trkpt>
      <trkpt lat="45.16407" lon="5.92369">
        <ele>2289.04</ele>
        <time>2018-04-27T10:30:01Z</time>
      </trkpt>
      <trkpt lat="45.16409" lon="5.92362">
        <ele>2289.04</ele>
        <time>2018-04-27T10:30:02Z</time>
      </trkpt>
      <trkpt lat="45.16408" lon="5.92353">
        <ele>2287.59</ele>
        <time>2018-04-27T10:30:03Z</time>
      </trkpt>
      <trkpt lat="45.1641" lon="5.92345">
        <ele>2282.79</ele>
        <time>2018-04-27T10:30:04Z</time>
      </trkpt>
      <trkpt lat="45.16412" lon="5.92332">
        <ele>2278.94</ele>
        <time>2018-04-27T10:30:06Z</time>
      </trkpt>
      <trkpt lat="45.16403" lon="5.92303">
        <ele>2268.85</ele>
        <time>2018-04-27T10:30:11Z</time>
      </trkpt>
      <trkpt lat="45.16394" lon="5.92288">
        <ele>2262.12</ele>
        <time>2018-04-27T10:30:14Z</time>
      </trkpt>
      <trkpt lat="45.16391" lon="5.92272">
        <ele>2257.31</ele>
        <time>2018-04-27T10:30:16Z</time>
      </trkpt>
      <trkpt lat="45.16387" lon="5.92259">
        <ele>2253.47</ele>
        <time>2018-04-27T10:30:18Z</time>
      </trkpt>
      <trkpt lat="45.16387" lon="5.92251">
        <ele>2250.1</ele>
        <time>2018-04-27T10:30:19Z</time>
      </trkpt>
      <trkpt lat="45.16381" lon="5.92245">
        <ele>2246.26</ele>
        <time>2018-04-27T10:30:21Z</time>
      </trkpt>
      <trkpt lat="45.16378" lon="5.92246">
        <ele>2245.78</ele>
        <time>2018-04-27T10:30:30Z</time>
      </trkpt>
      <trkpt lat="45.16377" lon="5.92246">
        <ele>2246.74</ele>
        <time>2018-04-27T10:30:52Z</time>
      </trkpt>
      <trkpt lat="45.16377" lon="5.92246">
        <ele>2245.78</ele>
        <time>2018-04-27T10:31:00Z</time>
      </trkpt>
      <trkpt lat="45.16377" lon="5.92246">
        <ele>2245.78</ele>
        <time>2018-04-27T10:31:01Z</time>
      </trkpt>
      <trkpt lat="45.16368" lon="5.92232">
        <ele>2241.93</ele>
        <time>2018-04-27T10:31:06Z</time>
      </trkpt>
      <trkpt lat="45.16367" lon="5.9222">
        <ele>2236.16</ele>
        <time>2018-04-27T10:31:08Z</time>
      </trkpt>
      <trkpt lat="45.16368" lon="5.92217">
        <ele>2236.16</ele>
        <time>2018-04-27T10:31:09Z</time>
      </trkpt>
      <trkpt lat="45.16369" lon="5.92213">
        <ele>2232.8</ele>
        <time>2018-04-27T10:31:10Z</time>
      </trkpt>
      <trkpt lat="45.16368" lon="5.92208">
        <ele>2232.8</ele>
        <time>2018-04-27T10:31:11Z</time>
      </trkpt>
      <trkpt lat="45.16367" lon="5.92198">
        <ele>2226.55</ele>
        <time>2018-04-27T10:31:13Z</time>
      </trkpt>
      <trkpt lat="45.16366" lon="5.92194">
        <ele>2223.19</ele>
        <time>2018-04-27T10:31:14Z</time>
      </trkpt>
      <trkpt lat="45.16366" lon="5.9218">
        <ele>2215.98</ele>
        <time>2018-04-27T10:31:17Z</time>
      </trkpt>
      <trkpt lat="45.16364" lon="5.9217">
        <ele>2212.61</ele>
        <time>2018-04-27T10:31:19Z</time>
      </trkpt>
      <trkpt lat="45.16366" lon="5.92165">
        <ele>2207.32</ele>
        <time>2018-04-27T10:31:20Z</time>
      </trkpt>
      <trkpt lat="45.16372" lon="5.92156">
        <ele>2203</ele>
        <time>2018-04-27T10:31:22Z</time>
      </trkpt>
      <trkpt lat="45.16371" lon="5.92144">
        <ele>2199.15</ele>
        <time>2018-04-27T10:31:24Z</time>
      </trkpt>
      <trkpt lat="45.16374" lon="5.92138">
        <ele>2194.83</ele>
        <time>2018-04-27T10:31:25Z</time>
      </trkpt>
      <trkpt lat="45.16375" lon="5.92126">
        <ele>2190.5</ele>
        <time>2018-04-27T10:31:27Z</time>
      </trkpt>
      <trkpt lat="45.16376" lon="5.92119">
        <ele>2187.14</ele>
        <time>2018-04-27T10:31:28Z</time>
      </trkpt>
      <trkpt lat="45.16378" lon="5.92116">
        <ele>2184.25</ele>
        <time>2018-04-27T10:31:29Z</time>
      </trkpt>
      <trkpt lat="45.16381" lon="5.92105">
        <ele>2183.29</ele>
        <time>2018-04-27T10:31:31Z</time>
      </trkpt>
      <trkpt lat="45.16379" lon="5.92102">
        <ele>2180.41</ele>
        <time>2018-04-27T10:31:32Z</time>
      </trkpt>
      <trkpt lat="45.16372" lon="5.92103">
        <ele>2176.56</ele>
        <time>2018-04-27T10:31:35Z</time>
      </trkpt>
      <trkpt lat="45.1637" lon="5.92105">
        <ele>2177.52</ele>
        <time>2018-04-27T10:31:39Z</time>
      </trkpt>
      <trkpt lat="45.16368" lon="5.92106">
        <ele>2177.52</ele>
        <time>2018-04-27T10:31:51Z</time>
      </trkpt>
      <trkpt lat="45.16363" lon="5.92091">
        <ele>2172.72</ele>
        <time>2018-04-27T10:31:55Z</time>
      </trkpt>
      <trkpt lat="45.16362" lon="5.92082">
        <ele>2166.47</ele>
        <time>2018-04-27T10:31:57Z</time>
      </trkpt>
      <trkpt lat="45.16358" lon="5.92077">
        <ele>2162.14</ele>
        <time>2018-04-27T10:31:59Z</time>
      </trkpt>
      <trkpt lat="45.16355" lon="5.92069">
        <ele>2156.86</ele>
        <time>2018-04-27T10:32:01Z</time>
      </trkpt>
      <trkpt lat="45.16352" lon="5.92067">
        <ele>2152.53</ele>
        <time>2018-04-27T10:32:02Z</time>
      </trkpt>
      <trkpt lat="45.1635" lon="5.92064">
        <ele>2149.65</ele>
        <time>2018-04-27T10:32:03Z</time>
      </trkpt>
      <trkpt lat="45.16349" lon="5.9206">
        <ele>2146.76</ele>
        <time>2018-04-27T10:32:04Z</time>
      </trkpt>
      <trkpt lat="45.16346" lon="5.92054">
        <ele>2143.88</ele>
        <time>2018-04-27T10:32:06Z</time>
      </trkpt>
      <trkpt lat="45.16346" lon="5.92044">
        <ele>2133.78</ele>
        <time>2018-04-27T10:32:09Z</time>
      </trkpt>
      <trkpt lat="45.16339" lon="5.92045">
        <ele>2131.86</ele>
        <time>2018-04-27T10:32:18Z</time>
      </trkpt>
      <trkpt lat="45.16339" lon="5.92045">
        <ele>2131.86</ele>
        <time>2018-04-27T10:32:19Z</time>
      </trkpt>
      <trkpt lat="45.16337" lon="5.92029">
        <ele>2127.05</ele>
        <time>2018-04-27T10:32:23Z</time>
      </trkpt>
      <trkpt lat="45.16335" lon="5.9202">
        <ele>2122.25</ele>
        <time>2018-04-27T10:32:25Z</time>
      </trkpt>
      <trkpt lat="45.16335" lon="5.92014">
        <ele>2116.96</ele>
        <time>2018-04-27T10:32:26Z</time>
      </trkpt>
      <trkpt lat="45.1634" lon="5.92005">
        <ele>2113.12</ele>
        <time>2018-04-27T10:32:28Z</time>
      </trkpt>
      <trkpt lat="45.16335" lon="5.91998">
        <ele>2108.79</ele>
        <time>2018-04-27T10:32:30Z</time>
      </trkpt>
      <trkpt lat="45.16333" lon="5.91989">
        <ele>2103.5</ele>
        <time>2018-04-27T10:32:32Z</time>
      </trkpt>
      <trkpt lat="45.16339" lon="5.91979">
        <ele>2099.18</ele>
        <time>2018-04-27T10:32:34Z</time>
      </trkpt>
      <trkpt lat="45.16338" lon="5.91975">
        <ele>2095.81</ele>
        <time>2018-04-27T10:32:35Z</time>
      </trkpt>
      <trkpt lat="45.16335" lon="5.91966">
        <ele>2088.6</ele>
        <time>2018-04-27T10:32:37Z</time>
      </trkpt>
      <trkpt lat="45.16329" lon="5.91959">
        <ele>2082.35</ele>
        <time>2018-04-27T10:32:39Z</time>
      </trkpt>
      <trkpt lat="45.16318" lon="5.91944">
        <ele>2074.18</ele>
        <time>2018-04-27T10:32:43Z</time>
      </trkpt>
      <trkpt lat="45.16319" lon="5.9194">
        <ele>2071.3</ele>
        <time>2018-04-27T10:32:45Z</time>
      </trkpt>
      <trkpt lat="45.16319" lon="5.91941">
        <ele>2070.34</ele>
        <time>2018-04-27T10:32:47Z</time>
      </trkpt>
      <trkpt lat="45.16319" lon="5.91941">
        <ele>2071.78</ele>
        <time>2018-04-27T10:32:50Z</time>
      </trkpt>
      <trkpt lat="45.16319" lon="5.91942">
        <ele>2071.78</ele>
        <time>2018-04-27T10:33:08Z</time>
      </trkpt>
      <trkpt lat="45.16318" lon="5.91928">
        <ele>2067.45</ele>
        <time>2018-04-27T10:33:12Z</time>
      </trkpt>
      <trkpt lat="45.16317" lon="5.91917">
        <ele>2062.17</ele>
        <time>2018-04-27T10:33:14Z</time>
      </trkpt>
      <trkpt lat="45.16318" lon="5.91906">
        <ele>2055.44</ele>
        <time>2018-04-27T10:33:16Z</time>
      </trkpt>
      <trkpt lat="45.16318" lon="5.919">
        <ele>2051.59</ele>
        <time>2018-04-27T10:33:17Z</time>
      </trkpt>
      <trkpt lat="45.16322" lon="5.91891">
        <ele>2045.34</ele>
        <time>2018-04-27T10:33:19Z</time>
      </trkpt>
      <trkpt lat="45.16325" lon="5.91887">
        <ele>2041.98</ele>
        <time>2018-04-27T10:33:20Z</time>
      </trkpt>
      <trkpt lat="45.16322" lon="5.91877">
        <ele>2038.61</ele>
        <time>2018-04-27T10:33:22Z</time>
      </trkpt>
      <trkpt lat="45.16326" lon="5.91869">
        <ele>2032.84</ele>
        <time>2018-04-27T10:33:24Z</time>
      </trkpt>
      <trkpt lat="45.1633" lon="5.91859">
        <ele>2027.56</ele>
        <time>2018-04-27T10:33:26Z</time>
      </trkpt>
      <trkpt lat="45.16332" lon="5.91854">
        <ele>2024.19</ele>
        <time>2018-04-27T10:33:27Z</time>
      </trkpt>
      <trkpt lat="45.16335" lon="5.91848">
        <ele>2021.31</ele>
        <time>2018-04-27T10:33:28Z</time>
      </trkpt>
      <trkpt lat="45.16336" lon="5.91841">
        <ele>2017.46</ele>
        <time>2018-04-27T10:33:29Z</time>
      </trkpt>
      <trkpt lat="45.16338" lon="5.91835">
        <ele>2012.18</ele>
        <time>2018-04-27T10:33:30Z</time>
      </trkpt>
      <trkpt lat="45.1634" lon="5.91816">
        <ele>2006.41</ele>
        <time>2018-04-27T10:33:32Z</time>
      </trkpt>
      <trkpt lat="45.1634" lon="5.91805">
        <ele>2002.56</ele>
        <time>2018-04-27T10:33:33Z</time>
      </trkpt>
      <trkpt lat="45.16341" lon="5.91796">
        <ele>1996.8</ele>
        <time>2018-04-27T10:33:34Z</time>
      </trkpt>
      <trkpt lat="45.16342" lon="5.91781">
        <ele>1991.51</ele>
        <time>2018-04-27T10:33:36Z</time>
      </trkpt>
      <trkpt lat="45.16339" lon="5.91777">
        <ele>1988.14</ele>
        <time>2018-04-27T10:33:38Z</time>
      </trkpt>
      <trkpt lat="45.16337" lon="5.91771">
        <ele>1986.7</ele>
        <time>2018-04-27T10:33:40Z</time>
      </trkpt>
      <trkpt lat="45.16339" lon="5.91763">
        <ele>1982.38</ele>
        <time>2018-04-27T10:33:43Z</time>
      </trkpt>
      <trkpt lat="45.16338" lon="5.91763">
        <ele>1982.38</ele>
        <time>2018-04-27T10:33:44Z</time>
      </trkpt>
      <trkpt lat="45.16336" lon="5.91768">
        <ele>1982.38</ele>
        <time>2018-04-27T10:34:10Z</time>
      </trkpt>
      <trkpt lat="45.16338" lon="5.9177">
        <ele>1982.38</ele>
        <time>2018-04-27T10:34:23Z</time>
      </trkpt>
      <trkpt lat="45.16343" lon="5.9176">
        <ele>1979.01</ele>
        <time>2018-04-27T10:34:27Z</time>
      </trkpt>
      <trkpt lat="45.16346" lon="5.91747">
        <ele>1973.72</ele>
        <time>2018-04-27T10:34:29Z</time>
      </trkpt>
      <trkpt lat="45.16346" lon="5.91741">
        <ele>1973.72</ele>
        <time>2018-04-27T10:34:30Z</time>
      </trkpt>
      <trkpt lat="45.16348" lon="5.91734">
        <ele>1967.48</ele>
        <time>2018-04-27T10:34:31Z</time>
      </trkpt>
      <trkpt lat="45.16348" lon="5.91727">
        <ele>1962.67</ele>
        <time>2018-04-27T10:34:32Z</time>
      </trkpt>
      <trkpt lat="45.1635" lon="5.91716">
        <ele>1955.46</ele>
        <time>2018-04-27T10:34:34Z</time>
      </trkpt>
      <trkpt lat="45.16349" lon="5.91709">
        <ele>1953.06</ele>
        <time>2018-04-27T10:34:36Z</time>
      </trkpt>
      <trkpt lat="45.16349" lon="5.91702">
        <ele>1952.09</ele>
        <time>2018-04-27T10:34:38Z</time>
      </trkpt>
      <trkpt lat="45.16352" lon="5.91695">
        <ele>1946.81</ele>
        <time>2018-04-27T10:34:40Z</time>
      </trkpt>
      <trkpt lat="45.16352" lon="5.91688">
        <ele>1942</ele>
        <time>2018-04-27T10:34:41Z</time>
      </trkpt>
      <trkpt lat="45.16351" lon="5.91683">
        <ele>1938.64</ele>
        <time>2018-04-27T10:34:42Z</time>
      </trkpt>
      <trkpt lat="45.16353" lon="5.91676">
        <ele>1932.87</ele>
        <time>2018-04-27T10:34:44Z</time>
      </trkpt>
      <trkpt lat="45.16358" lon="5.91669">
        <ele>1929.02</ele>
        <time>2018-04-27T10:34:46Z</time>
      </trkpt>
      <trkpt lat="45.16363" lon="5.91662">
        <ele>1923.25</ele>
        <time>2018-04-27T10:34:48Z</time>
      </trkpt>
      <trkpt lat="45.16365" lon="5.91656">
        <ele>1919.41</ele>
        <time>2018-04-27T10:34:49Z</time>
      </trkpt>
      <trkpt lat="45.16368" lon="5.91652">
        <ele>1916.53</ele>
        <time>2018-04-27T10:34:50Z</time>
      </trkpt>
      <trkpt lat="45.16372" lon="5.91645">
        <ele>1910.76</ele>
        <time>2018-04-27T10:34:52Z</time>
      </trkpt>
      <trkpt lat="45.16377" lon="5.91636">
        <ele>1903.07</ele>
        <time>2018-04-27T10:34:55Z</time>
      </trkpt>
      <trkpt lat="45.16381" lon="5.91631">
        <ele>1898.74</ele>
        <time>2018-04-27T10:34:59Z</time>
      </trkpt>
      <trkpt lat="45.16379" lon="5.91626">
        <ele>1897.3</ele>
        <time>2018-04-27T10:35:00Z</time>
      </trkpt>
      <trkpt lat="45.16373" lon="5.91616">
        <ele>1896.34</ele>
        <time>2018-04-27T10:35:02Z</time>
      </trkpt>
      <trkpt lat="45.16372" lon="5.91614">
        <ele>1896.34</ele>
        <time>2018-04-27T10:35:03Z</time>
      </trkpt>
      <trkpt lat="45.16363" lon="5.91593">
        <ele>1893.45</ele>
        <time>2018-04-27T10:35:13Z</time>
      </trkpt>
      <trkpt lat="45.16361" lon="5.9159">
        <ele>1892.01</ele>
        <time>2018-04-27T10:35:16Z</time>
      </trkpt>
      <trkpt lat="45.1636" lon="5.9159">
        <ele>1891.53</ele>
        <time>2018-04-27T10:35:36Z</time>
      </trkpt>
      <trkpt lat="45.16367" lon="5.9158">
        <ele>1887.21</ele>
        <time>2018-04-27T10:35:39Z</time>
      </trkpt>
      <trkpt lat="45.16369" lon="5.91573">
        <ele>1885.76</ele>
        <time>2018-04-27T10:35:40Z</time>
      </trkpt>
      <trkpt lat="45.16376" lon="5.91563">
        <ele>1878.55</ele>
        <time>2018-04-27T10:35:42Z</time>
      </trkpt>
      <trkpt lat="45.16381" lon="5.91556">
        <ele>1870.86</ele>
        <time>2018-04-27T10:35:44Z</time>
      </trkpt>
      <trkpt lat="45.16384" lon="5.91552">
        <ele>1867.5</ele>
        <time>2018-04-27T10:35:47Z</time>
      </trkpt>
      <trkpt lat="45.16382" lon="5.9155">
        <ele>1866.06</ele>
        <time>2018-04-27T10:36:02Z</time>
      </trkpt>
      <trkpt lat="45.16382" lon="5.9155">
        <ele>1866.06</ele>
        <time>2018-04-27T10:36:04Z</time>
      </trkpt>
      <trkpt lat="45.16384" lon="5.91544">
        <ele>1863.17</ele>
        <time>2018-04-27T10:36:11Z</time>
      </trkpt>
      <trkpt lat="45.16385" lon="5.91542">
        <ele>1861.25</ele>
        <time>2018-04-27T10:36:28Z</time>
      </trkpt>
      <trkpt lat="45.16385" lon="5.91542">
        <ele>1861.25</ele>
        <time>2018-04-27T10:36:29Z</time>
      </trkpt>
      <trkpt lat="45.16384" lon="5.9154">
        <ele>1859.33</ele>
        <time>2018-04-27T10:36:33Z</time>
      </trkpt>
      <trkpt lat="45.16386" lon="5.91536">
        <ele>1858.37</ele>
        <time>2018-04-27T10:36:49Z</time>
      </trkpt>
      <trkpt lat="45.16385" lon="5.91533">
        <ele>1856.44</ele>
        <time>2018-04-27T10:37:02Z</time>
      </trkpt>
      <trkpt lat="45.16385" lon="5.91532">
        <ele>1855.96</ele>
        <time>2018-04-27T10:37:24Z</time>
      </trkpt>
      <trkpt lat="45.16385" lon="5.91531">
        <ele>1855.96</ele>
        <time>2018-04-27T10:37:25Z</time>
      </trkpt>
      <trkpt lat="45.16384" lon="5.91519">
        <ele>1850.19</ele>
        <time>2018-04-27T10:37:30Z</time>
      </trkpt>
      <trkpt lat="45.16383" lon="5.91518">
        <ele>1849.23</ele>
        <time>2018-04-27T10:37:32Z</time>
      </trkpt>
      <trkpt lat="45.16382" lon="5.91516">
        <ele>1849.23</ele>
        <time>2018-04-27T10:37:52Z</time>
      </trkpt>
      <trkpt lat="45.16382" lon="5.91516">
        <ele>1849.23</ele>
        <time>2018-04-27T10:37:58Z</time>
      </trkpt>
      <trkpt lat="45.16386" lon="5.91515">
        <ele>1848.27</ele>
        <time>2018-04-27T10:38:00Z</time>
      </trkpt>
      <trkpt lat="45.16403" lon="5.91524">
        <ele>1841.06</ele>
        <time>2018-04-27T10:38:05Z</time>
      </trkpt>
      <trkpt lat="45.16416" lon="5.91522">
        <ele>1834.81</ele>
        <time>2018-04-27T10:38:09Z</time>
      </trkpt>
      <trkpt lat="45.1642" lon="5.9152">
        <ele>1830.49</ele>
        <time>2018-04-27T10:38:10Z</time>
      </trkpt>
      <trkpt lat="45.16422" lon="5.91516">
        <ele>1827.12</ele>
        <time>2018-04-27T10:38:11Z</time>
      </trkpt>
      <trkpt lat="45.16427" lon="5.91506">
        <ele>1821.84</ele>
        <time>2018-04-27T10:38:13Z</time>
      </trkpt>
      <trkpt lat="45.1643" lon="5.91499">
        <ele>1817.99</ele>
        <time>2018-04-27T10:38:15Z</time>
      </trkpt>
      <trkpt lat="45.16433" lon="5.91488">
        <ele>1812.22</ele>
        <time>2018-04-27T10:38:17Z</time>
      </trkpt>
      <trkpt lat="45.1643" lon="5.91481">
        <ele>1808.86</ele>
        <time>2018-04-27T10:38:19Z</time>
      </trkpt>
      <trkpt lat="45.16432" lon="5.91475">
        <ele>1804.05</ele>
        <time>2018-04-27T10:38:21Z</time>
      </trkpt>
      <trkpt lat="45.16433" lon="5.91471">
        <ele>1804.05</ele>
        <time>2018-04-27T10:38:22Z</time>
      </trkpt>
      <trkpt lat="45.16433" lon="5.91466">
        <ele>1800.69</ele>
        <time>2018-04-27T10:38:23Z</time>
      </trkpt>
      <trkpt lat="45.16436" lon="5.91459">
        <ele>1797.32</ele>
        <time>2018-04-27T10:38:25Z</time>
      </trkpt>
      <trkpt lat="45.16436" lon="5.91449">
        <ele>1793.48</ele>
        <time>2018-04-27T10:38:27Z</time>
      </trkpt>
      <trkpt lat="45.16439" lon="5.91436">
        <ele>1787.23</ele>
        <time>2018-04-27T10:38:29Z</time>
      </trkpt>
      <trkpt lat="45.1644" lon="5.9143">
        <ele>1783.86</ele>
        <time>2018-04-27T10:38:30Z</time>
      </trkpt>
      <trkpt lat="45.16446" lon="5.91409">
        <ele>1773.77</ele>
        <time>2018-04-27T10:38:33Z</time>
      </trkpt>
      <trkpt lat="45.16454" lon="5.91397">
        <ele>1769.44</ele>
        <time>2018-04-27T10:38:35Z</time>
      </trkpt>
      <trkpt lat="45.16456" lon="5.91389">
        <ele>1764.64</ele>
        <time>2018-04-27T10:38:36Z</time>
      </trkpt>
      <trkpt lat="45.16462" lon="5.91379">
        <ele>1759.35</ele>
        <time>2018-04-27T10:38:38Z</time>
      </trkpt>
      <trkpt lat="45.16466" lon="5.91373">
        <ele>1754.54</ele>
        <time>2018-04-27T10:38:39Z</time>
      </trkpt>
      <trkpt lat="45.16468" lon="5.91365">
        <ele>1751.66</ele>
        <time>2018-04-27T10:38:40Z</time>
      </trkpt>
      <trkpt lat="45.16467" lon="5.91357">
        <ele>1749.26</ele>
        <time>2018-04-27T10:38:41Z</time>
      </trkpt>
      <trkpt lat="45.16469" lon="5.91353">
        <ele>1747.33</ele>
        <time>2018-04-27T10:38:42Z</time>
      </trkpt>
      <trkpt lat="45.1647" lon="5.91352">
        <ele>1743.97</ele>
        <time>2018-04-27T10:38:43Z</time>
      </trkpt>
      <trkpt lat="45.16473" lon="5.91352">
        <ele>1743.49</ele>
        <time>2018-04-27T10:38:44Z</time>
      </trkpt>
      <trkpt lat="45.16475" lon="5.9135">
        <ele>1741.08</ele>
        <time>2018-04-27T10:38:45Z</time>
      </trkpt>
      <trkpt lat="45.16476" lon="5.91344">
        <ele>1737.72</ele>
        <time>2018-04-27T10:38:47Z</time>
      </trkpt>
      <trkpt lat="45.16478" lon="5.91337">
        <ele>1733.88</ele>
        <time>2018-04-27T10:38:49Z</time>
      </trkpt>
      <trkpt lat="45.16481" lon="5.91328">
        <ele>1729.07</ele>
        <time>2018-04-27T10:38:52Z</time>
      </trkpt>
      <trkpt lat="45.16482" lon="5.91324">
        <ele>1725.7</ele>
        <time>2018-04-27T10:38:54Z</time>
      </trkpt>
      <trkpt lat="45.16481" lon="5.91324">
        <ele>1726.67</ele>
        <time>2018-04-27T10:39:17Z</time>
      </trkpt>
      <trkpt lat="45.16483" lon="5.91323">
        <ele>1726.18</ele>
        <time>2018-04-27T10:39:36Z</time>
      </trkpt>
      <trkpt lat="45.16483" lon="5.91323">
        <ele>1726.18</ele>
        <time>2018-04-27T10:39:37Z</time>
      </trkpt>
      <trkpt lat="45.16489" lon="5.9131">
        <ele>1721.86</ele>
        <time>2018-04-27T10:39:41Z</time>
      </trkpt>
      <trkpt lat="45.16491" lon="5.91299">
        <ele>1718.49</ele>
        <time>2018-04-27T10:39:43Z</time>
      </trkpt>
      <trkpt lat="45.16496" lon="5.91287">
        <ele>1713.21</ele>
        <time>2018-04-27T10:39:46Z</time>
      </trkpt>
      <trkpt lat="45.16499" lon="5.91279">
        <ele>1708.88</ele>
        <time>2018-04-27T10:39:48Z</time>
      </trkpt>
      <trkpt lat="45.16504" lon="5.91271">
        <ele>1703.59</ele>
        <time>2018-04-27T10:39:50Z</time>
      </trkpt>
      <trkpt lat="45.16508" lon="5.91263">
        <ele>1699.27</ele>
        <time>2018-04-27T10:39:52Z</time>
      </trkpt>
      <trkpt lat="45.16512" lon="5.91254">
        <ele>1696.38</ele>
        <time>2018-04-27T10:39:54Z</time>
      </trkpt>
      <trkpt lat="45.16515" lon="5.9125">
        <ele>1692.54</ele>
        <time>2018-04-27T10:39:55Z</time>
      </trkpt>
      <trkpt lat="45.16521" lon="5.9124">
        <ele>1688.21</ele>
        <time>2018-04-27T10:39:57Z</time>
      </trkpt>
      <trkpt lat="45.16523" lon="5.91231">
        <ele>1682.44</ele>
        <time>2018-04-27T10:39:59Z</time>
      </trkpt>
      <trkpt lat="45.16523" lon="5.9123">
        <ele>1681.48</ele>
        <time>2018-04-27T10:40:00Z</time>
      </trkpt>
      <trkpt lat="45.16522" lon="5.91226">
        <ele>1680.52</ele>
        <time>2018-04-27T10:40:02Z</time>
      </trkpt>
      <trkpt lat="45.16524" lon="5.91218">
        <ele>1678.12</ele>
        <time>2018-04-27T10:40:05Z</time>
      </trkpt>
      <trkpt lat="45.16527" lon="5.9121">
        <ele>1673.31</ele>
        <time>2018-04-27T10:40:07Z</time>
      </trkpt>
      <trkpt lat="45.16528" lon="5.91206">
        <ele>1670.43</ele>
        <time>2018-04-27T10:40:09Z</time>
      </trkpt>
      <trkpt lat="45.1653" lon="5.91199">
        <ele>1666.58</ele>
        <time>2018-04-27T10:40:12Z</time>
      </trkpt>
      <trkpt lat="45.16533" lon="5.91193">
        <ele>1665.62</ele>
        <time>2018-04-27T10:40:14Z</time>
      </trkpt>
      <trkpt lat="45.16539" lon="5.91184">
        <ele>1661.3</ele>
        <time>2018-04-27T10:40:16Z</time>
      </trkpt>
      <trkpt lat="45.16543" lon="5.91171">
        <ele>1659.37</ele>
        <time>2018-04-27T10:40:18Z</time>
      </trkpt>
      <trkpt lat="45.16555" lon="5.91155">
        <ele>1651.2</ele>
        <time>2018-04-27T10:40:22Z</time>
      </trkpt>
      <trkpt lat="45.16559" lon="5.91152">
        <ele>1649.28</ele>
        <time>2018-04-27T10:40:24Z</time>
      </trkpt>
      <trkpt lat="45.16558" lon="5.91148">
        <ele>1648.8</ele>
        <time>2018-04-27T10:40:37Z</time>
      </trkpt>
      <trkpt lat="45.16554" lon="5.91145">
        <ele>1648.32</ele>
        <time>2018-04-27T10:40:59Z</time>
      </trkpt>
      <trkpt lat="45.16555" lon="5.91145">
        <ele>1648.32</ele>
        <time>2018-04-27T10:41:27Z</time>
      </trkpt>
      <trkpt lat="45.16557" lon="5.91147">
        <ele>1648.32</ele>
        <time>2018-04-27T10:41:55Z</time>
      </trkpt>
      <trkpt lat="45.16556" lon="5.91146">
        <ele>1648.32</ele>
        <time>2018-04-27T10:42:02Z</time>
      </trkpt>
      <trkpt lat="45.16562" lon="5.91137">
        <ele>1645.43</ele>
        <time>2018-04-27T10:42:06Z</time>
      </trkpt>
      <trkpt lat="45.16563" lon="5.91132">
        <ele>1643.03</ele>
        <time>2018-04-27T10:42:18Z</time>
      </trkpt>
      <trkpt lat="45.16564" lon="5.91129">
        <ele>1641.59</ele>
        <time>2018-04-27T10:42:20Z</time>
      </trkpt>
      <trkpt lat="45.16568" lon="5.91125">
        <ele>1638.22</ele>
        <time>2018-04-27T10:42:22Z</time>
      </trkpt>
      <trkpt lat="45.1657" lon="5.91124">
        <ele>1635.82</ele>
        <time>2018-04-27T10:42:25Z</time>
      </trkpt>
      <trkpt lat="45.16574" lon="5.91118">
        <ele>1631.98</ele>
        <time>2018-04-27T10:42:28Z</time>
      </trkpt>
      <trkpt lat="45.16581" lon="5.91108">
        <ele>1628.13</ele>
        <time>2018-04-27T10:42:33Z</time>
      </trkpt>
      <trkpt lat="45.16588" lon="5.91098">
        <ele>1623.8</ele>
        <time>2018-04-27T10:42:35Z</time>
      </trkpt>
      <trkpt lat="45.1659" lon="5.91095">
        <ele>1621.4</ele>
        <time>2018-04-27T10:42:40Z</time>
      </trkpt>
      <trkpt lat="45.16591" lon="5.91093">
        <ele>1620.92</ele>
        <time>2018-04-27T10:42:42Z</time>
      </trkpt>
      <trkpt lat="45.16598" lon="5.91081">
        <ele>1617.07</ele>
        <time>2018-04-27T10:42:45Z</time>
      </trkpt>
      <trkpt lat="45.16604" lon="5.91071">
        <ele>1612.75</ele>
        <time>2018-04-27T10:42:47Z</time>
      </trkpt>
      <trkpt lat="45.16609" lon="5.91058">
        <ele>1605.54</ele>
        <time>2018-04-27T10:42:51Z</time>
      </trkpt>
      <trkpt lat="45.16609" lon="5.91058">
        <ele>1605.06</ele>
        <time>2018-04-27T10:42:52Z</time>
      </trkpt>
      <trkpt lat="45.16608" lon="5.91058">
        <ele>1604.58</ele>
        <time>2018-04-27T10:42:53Z</time>
      </trkpt>
      <trkpt lat="45.16616" lon="5.91044">
        <ele>1598.81</ele>
        <time>2018-04-27T10:42:57Z</time>
      </trkpt>
      <trkpt lat="45.16618" lon="5.91041">
        <ele>1598.81</ele>
        <time>2018-04-27T10:42:58Z</time>
      </trkpt>
      <trkpt lat="45.16625" lon="5.91035">
        <ele>1594.48</ele>
        <time>2018-04-27T10:43:00Z</time>
      </trkpt>
      <trkpt lat="45.16626" lon="5.91032">
        <ele>1591.12</ele>
        <time>2018-04-27T10:43:02Z</time>
      </trkpt>
      <trkpt lat="45.16627" lon="5.9103">
        <ele>1586.79</ele>
        <time>2018-04-27T10:43:04Z</time>
      </trkpt>
      <trkpt lat="45.16628" lon="5.91026">
        <ele>1584.87</ele>
        <time>2018-04-27T10:43:10Z</time>
      </trkpt>
      <trkpt lat="45.16628" lon="5.91033">
        <ele>1584.39</ele>
        <time>2018-04-27T10:43:35Z</time>
      </trkpt>
      <trkpt lat="45.16626" lon="5.91025">
        <ele>1576.22</ele>
        <time>2018-04-27T10:43:47Z</time>
      </trkpt>
      <trkpt lat="45.16626" lon="5.91024">
        <ele>1581.99</ele>
        <time>2018-04-27T10:43:48Z</time>
      </trkpt>
      <trkpt lat="45.16626" lon="5.91023">
        <ele>1582.95</ele>
        <time>2018-04-27T10:43:50Z</time>
      </trkpt>
      <trkpt lat="45.16629" lon="5.91014">
        <ele>1583.43</ele>
        <time>2018-04-27T10:44:13Z</time>
      </trkpt>
      <trkpt lat="45.16631" lon="5.91009">
        <ele>1583.43</ele>
        <time>2018-04-27T10:44:36Z</time>
      </trkpt>
      <trkpt lat="45.16629" lon="5.91008">
        <ele>1582.95</ele>
        <time>2018-04-27T10:44:55Z</time>
      </trkpt>
      <trkpt lat="45.1663" lon="5.91004">
        <ele>1582.95</ele>
        <time>2018-04-27T10:45:09Z</time>
      </trkpt>
      <trkpt lat="45.1663" lon="5.91001">
        <ele>1581.99</ele>
        <time>2018-04-27T10:45:12Z</time>
      </trkpt>
      <trkpt lat="45.16634" lon="5.90997">
        <ele>1578.14</ele>
        <time>2018-04-27T10:45:16Z</time>
      </trkpt>
      <trkpt lat="45.16635" lon="5.90997">
        <ele>1577.66</ele>
        <time>2018-04-27T10:45:17Z</time>
      </trkpt>
      <trkpt lat="45.16638" lon="5.90992">
        <ele>1573.82</ele>
        <time>2018-04-27T10:45:21Z</time>
      </trkpt>
      <trkpt lat="45.1664" lon="5.9099">
        <ele>1569.01</ele>
        <time>2018-04-27T10:45:27Z</time>
      </trkpt>
      <trkpt lat="45.16641" lon="5.90989">
        <ele>1569.01</ele>
        <time>2018-04-27T10:45:28Z</time>
      </trkpt>
      <trkpt lat="45.16641" lon="5.90989">
        <ele>1568.53</ele>
        <time>2018-04-27T10:45:29Z</time>
      </trkpt>
      <trkpt lat="45.16643" lon="5.90982">
        <ele>1563.72</ele>
        <time>2018-04-27T10:45:32Z</time>
      </trkpt>
      <trkpt lat="45.16647" lon="5.90978">
        <ele>1561.8</ele>
        <time>2018-04-27T10:45:43Z</time>
      </trkpt>
      <trkpt lat="45.16648" lon="5.90977">
        <ele>1561.32</ele>
        <time>2018-04-27T10:45:45Z</time>
      </trkpt>
      <trkpt lat="45.16652" lon="5.90967">
        <ele>1557.47</ele>
        <time>2018-04-27T10:46:01Z</time>
      </trkpt>
      <trkpt lat="45.16653" lon="5.90966">
        <ele>1557.47</ele>
        <time>2018-04-27T10:46:02Z</time>
      </trkpt>
      <trkpt lat="45.16656" lon="5.90958">
        <ele>1555.55</ele>
        <time>2018-04-27T10:46:09Z</time>
      </trkpt>
      <trkpt lat="45.16659" lon="5.90949">
        <ele>1553.15</ele>
        <time>2018-04-27T10:46:15Z</time>
      </trkpt>
      <trkpt lat="45.16661" lon="5.90943">
        <ele>1550.26</ele>
        <time>2018-04-27T10:46:30Z</time>
      </trkpt>
      <trkpt lat="45.16662" lon="5.90943">
        <ele>1549.78</ele>
        <time>2018-04-27T10:46:32Z</time>
      </trkpt>
      <trkpt lat="45.16665" lon="5.90937">
        <ele>1547.38</ele>
        <time>2018-04-27T10:46:36Z</time>
      </trkpt>
      <trkpt lat="45.16666" lon="5.90935">
        <ele>1545.94</ele>
        <time>2018-04-27T10:46:52Z</time>
      </trkpt>
      <trkpt lat="45.16671" lon="5.90924">
        <ele>1543.05</ele>
        <time>2018-04-27T10:47:09Z</time>
      </trkpt>
      <trkpt lat="45.16673" lon="5.9092">
        <ele>1540.65</ele>
        <time>2018-04-27T10:47:25Z</time>
      </trkpt>
      <trkpt lat="45.16674" lon="5.90915">
        <ele>1537.77</ele>
        <time>2018-04-27T10:47:44Z</time>
      </trkpt>
      <trkpt lat="45.16674" lon="5.90914">
        <ele>1537.77</ele>
        <time>2018-04-27T10:47:46Z</time>
      </trkpt>
      <trkpt lat="45.16678" lon="5.9091">
        <ele>1533.92</ele>
        <time>2018-04-27T10:47:56Z</time>
      </trkpt>
      <trkpt lat="45.16685" lon="5.90907">
        <ele>1530.56</ele>
        <time>2018-04-27T10:48:06Z</time>
      </trkpt>
      <trkpt lat="45.16688" lon="5.90901">
        <ele>1526.71</ele>
        <time>2018-04-27T10:48:08Z</time>
      </trkpt>
      <trkpt lat="45.16687" lon="5.90898">
        <ele>1526.71</ele>
        <time>2018-04-27T10:48:09Z</time>
      </trkpt>
      <trkpt lat="45.16686" lon="5.90891">
        <ele>1528.15</ele>
        <time>2018-04-27T10:48:21Z</time>
      </trkpt>
      <trkpt lat="45.16681" lon="5.90882">
        <ele>1528.63</ele>
        <time>2018-04-27T10:48:35Z</time>
      </trkpt>
      <trkpt lat="45.16681" lon="5.90871">
        <ele>1528.15</ele>
        <time>2018-04-27T10:48:44Z</time>
      </trkpt>
      <trkpt lat="45.16682" lon="5.90869">
        <ele>1528.15</ele>
        <time>2018-04-27T10:48:45Z</time>
      </trkpt>
      <trkpt lat="45.16682" lon="5.90865">
        <ele>1527.19</ele>
        <time>2018-04-27T10:48:46Z</time>
      </trkpt>
      <trkpt lat="45.16683" lon="5.90861">
        <ele>1526.71</ele>
        <time>2018-04-27T10:48:47Z</time>
      </trkpt>
      <trkpt lat="45.16684" lon="5.90853">
        <ele>1524.31</ele>
        <time>2018-04-27T10:48:50Z</time>
      </trkpt>
      <trkpt lat="45.16684" lon="5.9085">
        <ele>1523.35</ele>
        <time>2018-04-27T10:48:51Z</time>
      </trkpt>
      <trkpt lat="45.16684" lon="5.90846">
        <ele>1520.46</ele>
        <time>2018-04-27T10:48:53Z</time>
      </trkpt>
      <trkpt lat="45.16686" lon="5.90835">
        <ele>1517.58</ele>
        <time>2018-04-27T10:48:57Z</time>
      </trkpt>
      <trkpt lat="45.16685" lon="5.90829">
        <ele>1517.58</ele>
        <time>2018-04-27T10:49:12Z</time>
      </trkpt>
      <trkpt lat="45.16687" lon="5.90826">
        <ele>1516.62</ele>
        <time>2018-04-27T10:49:37Z</time>
      </trkpt>
      <trkpt lat="45.16686" lon="5.9083">
        <ele>1516.14</ele>
        <time>2018-04-27T10:49:57Z</time>
      </trkpt>
      <trkpt lat="45.16685" lon="5.90834">
        <ele>1516.14</ele>
        <time>2018-04-27T10:50:18Z</time>
      </trkpt>
      <trkpt lat="45.16684" lon="5.90835">
        <ele>1515.66</ele>
        <time>2018-04-27T10:50:40Z</time>
      </trkpt>
      <trkpt lat="45.16683" lon="5.90835">
        <ele>1516.62</ele>
        <time>2018-04-27T10:51:00Z</time>
      </trkpt>
      <trkpt lat="45.16685" lon="5.90831">
        <ele>1516.62</ele>
        <time>2018-04-27T10:51:24Z</time>
      </trkpt>
      <trkpt lat="45.16682" lon="5.90831">
        <ele>1516.14</ele>
        <time>2018-04-27T10:51:50Z</time>
      </trkpt>
      <trkpt lat="45.16689" lon="5.90812">
        <ele>1513.25</ele>
        <time>2018-04-27T10:52:03Z</time>
      </trkpt>
      <trkpt lat="45.16688" lon="5.90797">
        <ele>1509.89</ele>
        <time>2018-04-27T10:52:15Z</time>
      </trkpt>
      <trkpt lat="45.16687" lon="5.90788">
        <ele>1506.52</ele>
        <time>2018-04-27T10:52:27Z</time>
      </trkpt>
      <trkpt lat="45.16686" lon="5.90771">
        <ele>1503.64</ele>
        <time>2018-04-27T10:52:38Z</time>
      </trkpt>
      <trkpt lat="45.16685" lon="5.90756">
        <ele>1499.79</ele>
        <time>2018-04-27T10:52:51Z</time>
      </trkpt>
      <trkpt lat="45.16684" lon="5.90742">
        <ele>1496.43</ele>
        <time>2018-04-27T10:53:04Z</time>
      </trkpt>
      <trkpt lat="45.16684" lon="5.9073">
        <ele>1493.06</ele>
        <time>2018-04-27T10:53:13Z</time>
      </trkpt>
      <trkpt lat="45.16681" lon="5.90722">
        <ele>1489.7</ele>
        <time>2018-04-27T10:53:23Z</time>
      </trkpt>
      <trkpt lat="45.16678" lon="5.90708">
        <ele>1486.34</ele>
        <time>2018-04-27T10:53:34Z</time>
      </trkpt>
      <trkpt lat="45.16673" lon="5.90693">
        <ele>1482.97</ele>
        <time>2018-04-27T10:53:46Z</time>
      </trkpt>
      <trkpt lat="45.16669" lon="5.90681">
        <ele>1480.09</ele>
        <time>2018-04-27T10:53:56Z</time>
      </trkpt>
      <trkpt lat="45.16664" lon="5.90672">
        <ele>1476.72</ele>
        <time>2018-04-27T10:54:08Z</time>
      </trkpt>
      <trkpt lat="45.1666" lon="5.90663">
        <ele>1473.36</ele>
        <time>2018-04-27T10:54:19Z</time>
      </trkpt>
      <trkpt lat="45.16653" lon="5.90649">
        <ele>1469.99</ele>
        <time>2018-04-27T10:54:33Z</time>
      </trkpt>
      <trkpt lat="45.16647" lon="5.90638">
        <ele>1466.63</ele>
        <time>2018-04-27T10:54:44Z</time>
      </trkpt>
      <trkpt lat="45.1664" lon="5.90624">
        <ele>1463.26</ele>
        <time>2018-04-27T10:54:59Z</time>
      </trkpt>
      <trkpt lat="45.16627" lon="5.90607">
        <ele>1459.9</ele>
        <time>2018-04-27T10:55:17Z</time>
      </trkpt>
      <trkpt lat="45.16612" lon="5.90594">
        <ele>1457.02</ele>
        <time>2018-04-27T10:55:31Z</time>
      </trkpt>
      <trkpt lat="45.1661" lon="5.90581">
        <ele>1457.02</ele>
        <time>2018-04-27T10:55:46Z</time>
      </trkpt>
      <trkpt lat="45.16609" lon="5.90583">
        <ele>1456.05</ele>
        <time>2018-04-27T10:55:59Z</time>
      </trkpt>
    </trkseg>
  </trk>
</gpx>